<?xml version="1.0" encoding="UTF-8" standalone="no" ?>
<gpx xmlns="http://www.topografix.com/GPX/1/1" xmlns:xsi="http://www.w3.org/2001/XMLSchema-instance" xsi:schemaLocation="http://www.topografix.com/GPX/1/1 http://www.topografix.com/GPX/1/1/gpx.xsd" version="1.1" creator="VisuGPX - https://www.visugpx.com">
  <metadata>
    <name>Sortie technique</name>
    <desc><![CDATA[sortie technique avec de belles montées et descentes]]></desc>
  </metadata>
  <trk>
    <name><![CDATA[08-MAI-17 11:46:57]]></name>
    <trkseg>
      <trkpt lat="45.30436" lon="1.44878">
        <ele>388.03</ele>
        <time>2017-05-08T07:35:07Z</time>
      </trkpt>
      <trkpt lat="45.30436" lon="1.44879">
        <ele>387.07</ele>
        <time>2017-05-08T07:35:20Z</time>
      </trkpt>
      <trkpt lat="45.30433" lon="1.44879">
        <ele>391.39</ele>
        <time>2017-05-08T07:35:39Z</time>
      </trkpt>
      <trkpt lat="45.30417" lon="1.44898">
        <ele>388.03</ele>
        <time>2017-05-08T07:35:48Z</time>
      </trkpt>
      <trkpt lat="45.3041" lon="1.44913">
        <ele>388.03</ele>
        <time>2017-05-08T07:35:52Z</time>
      </trkpt>
      <trkpt lat="45.3039" lon="1.4493">
        <ele>387.55</ele>
        <time>2017-05-08T07:36:01Z</time>
      </trkpt>
      <trkpt lat="45.30389" lon="1.44931">
        <ele>387.55</ele>
        <time>2017-05-08T07:36:02Z</time>
      </trkpt>
      <trkpt lat="45.3039" lon="1.44933">
        <ele>387.55</ele>
        <time>2017-05-08T07:36:03Z</time>
      </trkpt>
      <trkpt lat="45.30394" lon="1.44926">
        <ele>386.59</ele>
        <time>2017-05-08T07:36:08Z</time>
      </trkpt>
      <trkpt lat="45.30397" lon="1.44925">
        <ele>386.59</ele>
        <time>2017-05-08T07:36:09Z</time>
      </trkpt>
      <trkpt lat="45.304" lon="1.44923">
        <ele>386.59</ele>
        <time>2017-05-08T07:36:10Z</time>
      </trkpt>
      <trkpt lat="45.30403" lon="1.44921">
        <ele>386.59</ele>
        <time>2017-05-08T07:36:11Z</time>
      </trkpt>
      <trkpt lat="45.30407" lon="1.44918">
        <ele>386.59</ele>
        <time>2017-05-08T07:36:12Z</time>
      </trkpt>
      <trkpt lat="45.3041" lon="1.44916">
        <ele>386.59</ele>
        <time>2017-05-08T07:36:13Z</time>
      </trkpt>
      <trkpt lat="45.30416" lon="1.44909">
        <ele>386.59</ele>
        <time>2017-05-08T07:36:16Z</time>
      </trkpt>
      <trkpt lat="45.30416" lon="1.44908">
        <ele>386.59</ele>
        <time>2017-05-08T07:36:23Z</time>
      </trkpt>
      <trkpt lat="45.30414" lon="1.44908">
        <ele>386.59</ele>
        <time>2017-05-08T07:36:27Z</time>
      </trkpt>
      <trkpt lat="45.30413" lon="1.44909">
        <ele>386.11</ele>
        <time>2017-05-08T07:36:28Z</time>
      </trkpt>
      <trkpt lat="45.3038" lon="1.44941">
        <ele>385.15</ele>
        <time>2017-05-08T07:36:40Z</time>
      </trkpt>
      <trkpt lat="45.3035" lon="1.4498">
        <ele>385.15</ele>
        <time>2017-05-08T07:36:49Z</time>
      </trkpt>
      <trkpt lat="45.30312" lon="1.45055">
        <ele>384.66</ele>
        <time>2017-05-08T07:37:02Z</time>
      </trkpt>
      <trkpt lat="45.30284" lon="1.45106">
        <ele>384.18</ele>
        <time>2017-05-08T07:37:10Z</time>
      </trkpt>
      <trkpt lat="45.3028" lon="1.4511">
        <ele>384.18</ele>
        <time>2017-05-08T07:37:11Z</time>
      </trkpt>
      <trkpt lat="45.30275" lon="1.4511">
        <ele>384.18</ele>
        <time>2017-05-08T07:37:12Z</time>
      </trkpt>
      <trkpt lat="45.30271" lon="1.45107">
        <ele>384.18</ele>
        <time>2017-05-08T07:37:13Z</time>
      </trkpt>
      <trkpt lat="45.30267" lon="1.45102">
        <ele>384.18</ele>
        <time>2017-05-08T07:37:14Z</time>
      </trkpt>
      <trkpt lat="45.30263" lon="1.45097">
        <ele>384.66</ele>
        <time>2017-05-08T07:37:15Z</time>
      </trkpt>
      <trkpt lat="45.30259" lon="1.45091">
        <ele>384.66</ele>
        <time>2017-05-08T07:37:16Z</time>
      </trkpt>
      <trkpt lat="45.30193" lon="1.44994">
        <ele>383.22</ele>
        <time>2017-05-08T07:37:31Z</time>
      </trkpt>
      <trkpt lat="45.3012" lon="1.4489">
        <ele>381.3</ele>
        <time>2017-05-08T07:37:46Z</time>
      </trkpt>
      <trkpt lat="45.30111" lon="1.44878">
        <ele>380.82</ele>
        <time>2017-05-08T07:37:48Z</time>
      </trkpt>
      <trkpt lat="45.30106" lon="1.44873">
        <ele>380.82</ele>
        <time>2017-05-08T07:37:49Z</time>
      </trkpt>
      <trkpt lat="45.301" lon="1.4487">
        <ele>380.34</ele>
        <time>2017-05-08T07:37:50Z</time>
      </trkpt>
      <trkpt lat="45.30094" lon="1.44867">
        <ele>380.34</ele>
        <time>2017-05-08T07:37:51Z</time>
      </trkpt>
      <trkpt lat="45.30087" lon="1.44866">
        <ele>380.34</ele>
        <time>2017-05-08T07:37:52Z</time>
      </trkpt>
      <trkpt lat="45.3" lon="1.44838">
        <ele>377.94</ele>
        <time>2017-05-08T07:38:04Z</time>
      </trkpt>
      <trkpt lat="45.29884" lon="1.44802">
        <ele>377.94</ele>
        <time>2017-05-08T07:38:21Z</time>
      </trkpt>
      <trkpt lat="45.29821" lon="1.44779">
        <ele>373.61</ele>
        <time>2017-05-08T07:38:32Z</time>
      </trkpt>
      <trkpt lat="45.29809" lon="1.44774">
        <ele>372.65</ele>
        <time>2017-05-08T07:38:42Z</time>
      </trkpt>
      <trkpt lat="45.29734" lon="1.44747">
        <ele>365.44</ele>
        <time>2017-05-08T07:38:52Z</time>
      </trkpt>
      <trkpt lat="45.29673" lon="1.44728">
        <ele>360.15</ele>
        <time>2017-05-08T07:38:58Z</time>
      </trkpt>
      <trkpt lat="45.29663" lon="1.44729">
        <ele>359.67</ele>
        <time>2017-05-08T07:38:59Z</time>
      </trkpt>
      <trkpt lat="45.2953" lon="1.44753">
        <ele>351.02</ele>
        <time>2017-05-08T07:39:13Z</time>
      </trkpt>
      <trkpt lat="45.29502" lon="1.44752">
        <ele>348.62</ele>
        <time>2017-05-08T07:39:16Z</time>
      </trkpt>
      <trkpt lat="45.29492" lon="1.44749">
        <ele>347.65</ele>
        <time>2017-05-08T07:39:17Z</time>
      </trkpt>
      <trkpt lat="45.29464" lon="1.4474">
        <ele>344.29</ele>
        <time>2017-05-08T07:39:20Z</time>
      </trkpt>
      <trkpt lat="45.29457" lon="1.44741">
        <ele>342.85</ele>
        <time>2017-05-08T07:39:21Z</time>
      </trkpt>
      <trkpt lat="45.29452" lon="1.44744">
        <ele>341.41</ele>
        <time>2017-05-08T07:39:22Z</time>
      </trkpt>
      <trkpt lat="45.29448" lon="1.44751">
        <ele>340.44</ele>
        <time>2017-05-08T07:39:23Z</time>
      </trkpt>
      <trkpt lat="45.29445" lon="1.4476">
        <ele>339.48</ele>
        <time>2017-05-08T07:39:24Z</time>
      </trkpt>
      <trkpt lat="45.2944" lon="1.44766">
        <ele>339</ele>
        <time>2017-05-08T07:39:25Z</time>
      </trkpt>
      <trkpt lat="45.29436" lon="1.44771">
        <ele>338.52</ele>
        <time>2017-05-08T07:39:26Z</time>
      </trkpt>
      <trkpt lat="45.29432" lon="1.44776">
        <ele>338.04</ele>
        <time>2017-05-08T07:39:27Z</time>
      </trkpt>
      <trkpt lat="45.29432" lon="1.44784">
        <ele>337.56</ele>
        <time>2017-05-08T07:39:28Z</time>
      </trkpt>
      <trkpt lat="45.29434" lon="1.4479">
        <ele>337.56</ele>
        <time>2017-05-08T07:39:29Z</time>
      </trkpt>
      <trkpt lat="45.29437" lon="1.44796">
        <ele>337.56</ele>
        <time>2017-05-08T07:39:30Z</time>
      </trkpt>
      <trkpt lat="45.29442" lon="1.44801">
        <ele>337.56</ele>
        <time>2017-05-08T07:39:31Z</time>
      </trkpt>
      <trkpt lat="45.29446" lon="1.44805">
        <ele>337.56</ele>
        <time>2017-05-08T07:39:32Z</time>
      </trkpt>
      <trkpt lat="45.29467" lon="1.44818">
        <ele>336.12</ele>
        <time>2017-05-08T07:39:37Z</time>
      </trkpt>
      <trkpt lat="45.29487" lon="1.44819">
        <ele>335.64</ele>
        <time>2017-05-08T07:39:41Z</time>
      </trkpt>
      <trkpt lat="45.29531" lon="1.44826">
        <ele>336.12</ele>
        <time>2017-05-08T07:39:51Z</time>
      </trkpt>
      <trkpt lat="45.29554" lon="1.44831">
        <ele>337.56</ele>
        <time>2017-05-08T07:39:56Z</time>
      </trkpt>
      <trkpt lat="45.29612" lon="1.44846">
        <ele>341.41</ele>
        <time>2017-05-08T07:40:08Z</time>
      </trkpt>
      <trkpt lat="45.2963" lon="1.44851">
        <ele>342.85</ele>
        <time>2017-05-08T07:40:12Z</time>
      </trkpt>
      <trkpt lat="45.29651" lon="1.44861">
        <ele>346.21</ele>
        <time>2017-05-08T07:40:19Z</time>
      </trkpt>
      <trkpt lat="45.29658" lon="1.44869">
        <ele>349.1</ele>
        <time>2017-05-08T07:40:26Z</time>
      </trkpt>
      <trkpt lat="45.29683" lon="1.44888">
        <ele>351.02</ele>
        <time>2017-05-08T07:40:36Z</time>
      </trkpt>
      <trkpt lat="45.29702" lon="1.44903">
        <ele>353.42</ele>
        <time>2017-05-08T07:40:45Z</time>
      </trkpt>
      <trkpt lat="45.29713" lon="1.44913">
        <ele>353.9</ele>
        <time>2017-05-08T07:40:50Z</time>
      </trkpt>
      <trkpt lat="45.29749" lon="1.44922">
        <ele>356.79</ele>
        <time>2017-05-08T07:41:02Z</time>
      </trkpt>
      <trkpt lat="45.29763" lon="1.44928">
        <ele>358.71</ele>
        <time>2017-05-08T07:41:10Z</time>
      </trkpt>
      <trkpt lat="45.29778" lon="1.44937">
        <ele>359.67</ele>
        <time>2017-05-08T07:41:24Z</time>
      </trkpt>
      <trkpt lat="45.29817" lon="1.44954">
        <ele>362.55</ele>
        <time>2017-05-08T07:41:36Z</time>
      </trkpt>
      <trkpt lat="45.29857" lon="1.44963">
        <ele>366.88</ele>
        <time>2017-05-08T07:41:48Z</time>
      </trkpt>
      <trkpt lat="45.29906" lon="1.4497">
        <ele>366.88</ele>
        <time>2017-05-08T07:42:03Z</time>
      </trkpt>
      <trkpt lat="45.2996" lon="1.44974">
        <ele>367.36</ele>
        <time>2017-05-08T07:42:20Z</time>
      </trkpt>
      <trkpt lat="45.29986" lon="1.4498">
        <ele>364.96</ele>
        <time>2017-05-08T07:42:25Z</time>
      </trkpt>
      <trkpt lat="45.3001" lon="1.45012">
        <ele>360.15</ele>
        <time>2017-05-08T07:42:30Z</time>
      </trkpt>
      <trkpt lat="45.30019" lon="1.45033">
        <ele>358.71</ele>
        <time>2017-05-08T07:42:33Z</time>
      </trkpt>
      <trkpt lat="45.30023" lon="1.45059">
        <ele>358.23</ele>
        <time>2017-05-08T07:42:39Z</time>
      </trkpt>
      <trkpt lat="45.30021" lon="1.45064">
        <ele>358.23</ele>
        <time>2017-05-08T07:42:40Z</time>
      </trkpt>
      <trkpt lat="45.30018" lon="1.45068">
        <ele>358.71</ele>
        <time>2017-05-08T07:42:41Z</time>
      </trkpt>
      <trkpt lat="45.29957" lon="1.45133">
        <ele>361.59</ele>
        <time>2017-05-08T07:42:58Z</time>
      </trkpt>
      <trkpt lat="45.29936" lon="1.45155">
        <ele>360.15</ele>
        <time>2017-05-08T07:43:03Z</time>
      </trkpt>
      <trkpt lat="45.29927" lon="1.45168">
        <ele>359.19</ele>
        <time>2017-05-08T07:43:05Z</time>
      </trkpt>
      <trkpt lat="45.29923" lon="1.45176">
        <ele>358.71</ele>
        <time>2017-05-08T07:43:06Z</time>
      </trkpt>
      <trkpt lat="45.29902" lon="1.45221">
        <ele>359.67</ele>
        <time>2017-05-08T07:43:12Z</time>
      </trkpt>
      <trkpt lat="45.29885" lon="1.45262">
        <ele>364.48</ele>
        <time>2017-05-08T07:43:23Z</time>
      </trkpt>
      <trkpt lat="45.29881" lon="1.4528">
        <ele>366.88</ele>
        <time>2017-05-08T07:43:28Z</time>
      </trkpt>
      <trkpt lat="45.29883" lon="1.45283">
        <ele>366.88</ele>
        <time>2017-05-08T07:43:29Z</time>
      </trkpt>
      <trkpt lat="45.29885" lon="1.45285">
        <ele>366.88</ele>
        <time>2017-05-08T07:43:30Z</time>
      </trkpt>
      <trkpt lat="45.29888" lon="1.45286">
        <ele>366.4</ele>
        <time>2017-05-08T07:43:31Z</time>
      </trkpt>
      <trkpt lat="45.2989" lon="1.45286">
        <ele>366.4</ele>
        <time>2017-05-08T07:43:32Z</time>
      </trkpt>
      <trkpt lat="45.29893" lon="1.45286">
        <ele>365.92</ele>
        <time>2017-05-08T07:43:33Z</time>
      </trkpt>
      <trkpt lat="45.2993" lon="1.45293">
        <ele>368.32</ele>
        <time>2017-05-08T07:43:45Z</time>
      </trkpt>
      <trkpt lat="45.29968" lon="1.45339">
        <ele>373.13</ele>
        <time>2017-05-08T07:43:59Z</time>
      </trkpt>
      <trkpt lat="45.30002" lon="1.45397">
        <ele>377.45</ele>
        <time>2017-05-08T07:44:15Z</time>
      </trkpt>
      <trkpt lat="45.30034" lon="1.45462">
        <ele>384.66</ele>
        <time>2017-05-08T07:44:34Z</time>
      </trkpt>
      <trkpt lat="45.30034" lon="1.45466">
        <ele>384.66</ele>
        <time>2017-05-08T07:44:35Z</time>
      </trkpt>
      <trkpt lat="45.30032" lon="1.4547">
        <ele>384.66</ele>
        <time>2017-05-08T07:44:36Z</time>
      </trkpt>
      <trkpt lat="45.3003" lon="1.45473">
        <ele>384.66</ele>
        <time>2017-05-08T07:44:37Z</time>
      </trkpt>
      <trkpt lat="45.30027" lon="1.45476">
        <ele>384.66</ele>
        <time>2017-05-08T07:44:38Z</time>
      </trkpt>
      <trkpt lat="45.30024" lon="1.45478">
        <ele>385.15</ele>
        <time>2017-05-08T07:44:39Z</time>
      </trkpt>
      <trkpt lat="45.29975" lon="1.45522">
        <ele>386.11</ele>
        <time>2017-05-08T07:44:52Z</time>
      </trkpt>
      <trkpt lat="45.2989" lon="1.45591">
        <ele>386.11</ele>
        <time>2017-05-08T07:45:10Z</time>
      </trkpt>
      <trkpt lat="45.29793" lon="1.45638">
        <ele>386.11</ele>
        <time>2017-05-08T07:45:27Z</time>
      </trkpt>
      <trkpt lat="45.29721" lon="1.45665">
        <ele>383.7</ele>
        <time>2017-05-08T07:45:38Z</time>
      </trkpt>
      <trkpt lat="45.29692" lon="1.45688">
        <ele>382.74</ele>
        <time>2017-05-08T07:45:42Z</time>
      </trkpt>
      <trkpt lat="45.29686" lon="1.45696">
        <ele>382.26</ele>
        <time>2017-05-08T07:45:43Z</time>
      </trkpt>
      <trkpt lat="45.2968" lon="1.45705">
        <ele>382.26</ele>
        <time>2017-05-08T07:45:44Z</time>
      </trkpt>
      <trkpt lat="45.29653" lon="1.45749">
        <ele>381.3</ele>
        <time>2017-05-08T07:45:49Z</time>
      </trkpt>
      <trkpt lat="45.29646" lon="1.45755">
        <ele>381.3</ele>
        <time>2017-05-08T07:45:50Z</time>
      </trkpt>
      <trkpt lat="45.29639" lon="1.45759">
        <ele>380.82</ele>
        <time>2017-05-08T07:45:51Z</time>
      </trkpt>
      <trkpt lat="45.29631" lon="1.45761">
        <ele>380.82</ele>
        <time>2017-05-08T07:45:52Z</time>
      </trkpt>
      <trkpt lat="45.29624" lon="1.4576">
        <ele>380.82</ele>
        <time>2017-05-08T07:45:53Z</time>
      </trkpt>
      <trkpt lat="45.29616" lon="1.45759">
        <ele>380.82</ele>
        <time>2017-05-08T07:45:54Z</time>
      </trkpt>
      <trkpt lat="45.29515" lon="1.45749">
        <ele>380.34</ele>
        <time>2017-05-08T07:46:08Z</time>
      </trkpt>
      <trkpt lat="45.29436" lon="1.45745">
        <ele>379.86</ele>
        <time>2017-05-08T07:46:19Z</time>
      </trkpt>
      <trkpt lat="45.2933" lon="1.4569">
        <ele>380.34</ele>
        <time>2017-05-08T07:46:35Z</time>
      </trkpt>
      <trkpt lat="45.29256" lon="1.45617">
        <ele>380.82</ele>
        <time>2017-05-08T07:46:49Z</time>
      </trkpt>
      <trkpt lat="45.29194" lon="1.45542">
        <ele>375.53</ele>
        <time>2017-05-08T07:47:00Z</time>
      </trkpt>
      <trkpt lat="45.29189" lon="1.4554">
        <ele>375.05</ele>
        <time>2017-05-08T07:47:01Z</time>
      </trkpt>
      <trkpt lat="45.29184" lon="1.45542">
        <ele>374.57</ele>
        <time>2017-05-08T07:47:02Z</time>
      </trkpt>
      <trkpt lat="45.29181" lon="1.45546">
        <ele>375.05</ele>
        <time>2017-05-08T07:47:03Z</time>
      </trkpt>
      <trkpt lat="45.2918" lon="1.45551">
        <ele>375.05</ele>
        <time>2017-05-08T07:47:04Z</time>
      </trkpt>
      <trkpt lat="45.2918" lon="1.45557">
        <ele>375.53</ele>
        <time>2017-05-08T07:47:05Z</time>
      </trkpt>
      <trkpt lat="45.29179" lon="1.45563">
        <ele>375.53</ele>
        <time>2017-05-08T07:47:06Z</time>
      </trkpt>
      <trkpt lat="45.29179" lon="1.45568">
        <ele>376.01</ele>
        <time>2017-05-08T07:47:07Z</time>
      </trkpt>
      <trkpt lat="45.29168" lon="1.4566">
        <ele>378.42</ele>
        <time>2017-05-08T07:47:24Z</time>
      </trkpt>
      <trkpt lat="45.29165" lon="1.45665">
        <ele>377.94</ele>
        <time>2017-05-08T07:47:25Z</time>
      </trkpt>
      <trkpt lat="45.29161" lon="1.45668">
        <ele>377.45</ele>
        <time>2017-05-08T07:47:26Z</time>
      </trkpt>
      <trkpt lat="45.2909" lon="1.45711">
        <ele>371.69</ele>
        <time>2017-05-08T07:47:37Z</time>
      </trkpt>
      <trkpt lat="45.29051" lon="1.45737">
        <ele>368.8</ele>
        <time>2017-05-08T07:47:42Z</time>
      </trkpt>
      <trkpt lat="45.29044" lon="1.45744">
        <ele>368.32</ele>
        <time>2017-05-08T07:47:43Z</time>
      </trkpt>
      <trkpt lat="45.29004" lon="1.45792">
        <ele>363.04</ele>
        <time>2017-05-08T07:47:49Z</time>
      </trkpt>
      <trkpt lat="45.28999" lon="1.45802">
        <ele>362.07</ele>
        <time>2017-05-08T07:47:50Z</time>
      </trkpt>
      <trkpt lat="45.28964" lon="1.4588">
        <ele>351.02</ele>
        <time>2017-05-08T07:47:58Z</time>
      </trkpt>
      <trkpt lat="45.28964" lon="1.45888">
        <ele>350.06</ele>
        <time>2017-05-08T07:47:59Z</time>
      </trkpt>
      <trkpt lat="45.28965" lon="1.45895">
        <ele>350.06</ele>
        <time>2017-05-08T07:48:00Z</time>
      </trkpt>
      <trkpt lat="45.28967" lon="1.45903">
        <ele>350.54</ele>
        <time>2017-05-08T07:48:01Z</time>
      </trkpt>
      <trkpt lat="45.28968" lon="1.4591">
        <ele>350.54</ele>
        <time>2017-05-08T07:48:02Z</time>
      </trkpt>
      <trkpt lat="45.2897" lon="1.45918">
        <ele>351.02</ele>
        <time>2017-05-08T07:48:03Z</time>
      </trkpt>
      <trkpt lat="45.28971" lon="1.45925">
        <ele>351.02</ele>
        <time>2017-05-08T07:48:04Z</time>
      </trkpt>
      <trkpt lat="45.28974" lon="1.45946">
        <ele>352.46</ele>
        <time>2017-05-08T07:48:07Z</time>
      </trkpt>
      <trkpt lat="45.28976" lon="1.45952">
        <ele>352.94</ele>
        <time>2017-05-08T07:48:08Z</time>
      </trkpt>
      <trkpt lat="45.28978" lon="1.45959">
        <ele>352.94</ele>
        <time>2017-05-08T07:48:09Z</time>
      </trkpt>
      <trkpt lat="45.2898" lon="1.45965">
        <ele>353.42</ele>
        <time>2017-05-08T07:48:10Z</time>
      </trkpt>
      <trkpt lat="45.28983" lon="1.45971">
        <ele>353.42</ele>
        <time>2017-05-08T07:48:11Z</time>
      </trkpt>
      <trkpt lat="45.29" lon="1.46008">
        <ele>353.9</ele>
        <time>2017-05-08T07:48:17Z</time>
      </trkpt>
      <trkpt lat="45.29002" lon="1.46014">
        <ele>353.42</ele>
        <time>2017-05-08T07:48:18Z</time>
      </trkpt>
      <trkpt lat="45.29012" lon="1.46056">
        <ele>351.5</ele>
        <time>2017-05-08T07:48:25Z</time>
      </trkpt>
      <trkpt lat="45.2901" lon="1.4606">
        <ele>350.54</ele>
        <time>2017-05-08T07:48:26Z</time>
      </trkpt>
      <trkpt lat="45.29007" lon="1.46064">
        <ele>350.06</ele>
        <time>2017-05-08T07:48:27Z</time>
      </trkpt>
      <trkpt lat="45.29003" lon="1.46068">
        <ele>349.58</ele>
        <time>2017-05-08T07:48:28Z</time>
      </trkpt>
      <trkpt lat="45.29" lon="1.4607">
        <ele>349.1</ele>
        <time>2017-05-08T07:48:29Z</time>
      </trkpt>
      <trkpt lat="45.28994" lon="1.46076">
        <ele>348.13</ele>
        <time>2017-05-08T07:48:33Z</time>
      </trkpt>
      <trkpt lat="45.28993" lon="1.46078">
        <ele>348.13</ele>
        <time>2017-05-08T07:48:34Z</time>
      </trkpt>
      <trkpt lat="45.28993" lon="1.46081">
        <ele>347.65</ele>
        <time>2017-05-08T07:48:35Z</time>
      </trkpt>
      <trkpt lat="45.29002" lon="1.46094">
        <ele>346.69</ele>
        <time>2017-05-08T07:48:38Z</time>
      </trkpt>
      <trkpt lat="45.2901" lon="1.46103">
        <ele>341.89</ele>
        <time>2017-05-08T07:48:46Z</time>
      </trkpt>
      <trkpt lat="45.29009" lon="1.46107">
        <ele>339.48</ele>
        <time>2017-05-08T07:48:53Z</time>
      </trkpt>
      <trkpt lat="45.29009" lon="1.46112">
        <ele>339</ele>
        <time>2017-05-08T07:48:55Z</time>
      </trkpt>
      <trkpt lat="45.29008" lon="1.46115">
        <ele>338.52</ele>
        <time>2017-05-08T07:48:56Z</time>
      </trkpt>
      <trkpt lat="45.29005" lon="1.46116">
        <ele>338.04</ele>
        <time>2017-05-08T07:48:57Z</time>
      </trkpt>
      <trkpt lat="45.29001" lon="1.46115">
        <ele>337.56</ele>
        <time>2017-05-08T07:48:58Z</time>
      </trkpt>
      <trkpt lat="45.28996" lon="1.46113">
        <ele>337.56</ele>
        <time>2017-05-08T07:48:59Z</time>
      </trkpt>
      <trkpt lat="45.28991" lon="1.46112">
        <ele>337.08</ele>
        <time>2017-05-08T07:49:00Z</time>
      </trkpt>
      <trkpt lat="45.28974" lon="1.46108">
        <ele>335.64</ele>
        <time>2017-05-08T07:49:05Z</time>
      </trkpt>
      <trkpt lat="45.28973" lon="1.46109">
        <ele>335.64</ele>
        <time>2017-05-08T07:49:06Z</time>
      </trkpt>
      <trkpt lat="45.28974" lon="1.4611">
        <ele>335.64</ele>
        <time>2017-05-08T07:49:07Z</time>
      </trkpt>
      <trkpt lat="45.28999" lon="1.46116">
        <ele>335.16</ele>
        <time>2017-05-08T07:49:16Z</time>
      </trkpt>
      <trkpt lat="45.29026" lon="1.46126">
        <ele>334.68</ele>
        <time>2017-05-08T07:49:24Z</time>
      </trkpt>
      <trkpt lat="45.29027" lon="1.4613">
        <ele>335.16</ele>
        <time>2017-05-08T07:49:25Z</time>
      </trkpt>
      <trkpt lat="45.29028" lon="1.46134">
        <ele>335.64</ele>
        <time>2017-05-08T07:49:26Z</time>
      </trkpt>
      <trkpt lat="45.29018" lon="1.46177">
        <ele>335.64</ele>
        <time>2017-05-08T07:49:37Z</time>
      </trkpt>
      <trkpt lat="45.28997" lon="1.46239">
        <ele>339.48</ele>
        <time>2017-05-08T07:49:50Z</time>
      </trkpt>
      <trkpt lat="45.28973" lon="1.46268">
        <ele>340.92</ele>
        <time>2017-05-08T07:49:56Z</time>
      </trkpt>
      <trkpt lat="45.28969" lon="1.46275">
        <ele>340.92</ele>
        <time>2017-05-08T07:49:57Z</time>
      </trkpt>
      <trkpt lat="45.28966" lon="1.46282">
        <ele>340.92</ele>
        <time>2017-05-08T07:49:58Z</time>
      </trkpt>
      <trkpt lat="45.28965" lon="1.4629">
        <ele>340.92</ele>
        <time>2017-05-08T07:49:59Z</time>
      </trkpt>
      <trkpt lat="45.28963" lon="1.46298">
        <ele>340.92</ele>
        <time>2017-05-08T07:50:00Z</time>
      </trkpt>
      <trkpt lat="45.28958" lon="1.46342">
        <ele>339.96</ele>
        <time>2017-05-08T07:50:08Z</time>
      </trkpt>
      <trkpt lat="45.28959" lon="1.4636">
        <ele>339.48</ele>
        <time>2017-05-08T07:50:11Z</time>
      </trkpt>
      <trkpt lat="45.28961" lon="1.46367">
        <ele>339.48</ele>
        <time>2017-05-08T07:50:12Z</time>
      </trkpt>
      <trkpt lat="45.28963" lon="1.46374">
        <ele>339.48</ele>
        <time>2017-05-08T07:50:13Z</time>
      </trkpt>
      <trkpt lat="45.28964" lon="1.4638">
        <ele>339.48</ele>
        <time>2017-05-08T07:50:14Z</time>
      </trkpt>
      <trkpt lat="45.28967" lon="1.46386">
        <ele>339.48</ele>
        <time>2017-05-08T07:50:15Z</time>
      </trkpt>
      <trkpt lat="45.28969" lon="1.46392">
        <ele>339</ele>
        <time>2017-05-08T07:50:16Z</time>
      </trkpt>
      <trkpt lat="45.28971" lon="1.46398">
        <ele>339</ele>
        <time>2017-05-08T07:50:17Z</time>
      </trkpt>
      <trkpt lat="45.28974" lon="1.46404">
        <ele>339</ele>
        <time>2017-05-08T07:50:18Z</time>
      </trkpt>
      <trkpt lat="45.28979" lon="1.46409">
        <ele>339</ele>
        <time>2017-05-08T07:50:19Z</time>
      </trkpt>
      <trkpt lat="45.28984" lon="1.46415">
        <ele>339</ele>
        <time>2017-05-08T07:50:20Z</time>
      </trkpt>
      <trkpt lat="45.28993" lon="1.46426">
        <ele>338.52</ele>
        <time>2017-05-08T07:50:22Z</time>
      </trkpt>
      <trkpt lat="45.29013" lon="1.46453">
        <ele>337.56</ele>
        <time>2017-05-08T07:50:27Z</time>
      </trkpt>
      <trkpt lat="45.29024" lon="1.46463">
        <ele>336.6</ele>
        <time>2017-05-08T07:50:29Z</time>
      </trkpt>
      <trkpt lat="45.29031" lon="1.46468">
        <ele>336.12</ele>
        <time>2017-05-08T07:50:30Z</time>
      </trkpt>
      <trkpt lat="45.29037" lon="1.46473">
        <ele>335.64</ele>
        <time>2017-05-08T07:50:31Z</time>
      </trkpt>
      <trkpt lat="45.29061" lon="1.46494">
        <ele>333.71</ele>
        <time>2017-05-08T07:50:35Z</time>
      </trkpt>
      <trkpt lat="45.29067" lon="1.46499">
        <ele>333.23</ele>
        <time>2017-05-08T07:50:36Z</time>
      </trkpt>
      <trkpt lat="45.29072" lon="1.46504">
        <ele>332.75</ele>
        <time>2017-05-08T07:50:37Z</time>
      </trkpt>
      <trkpt lat="45.29077" lon="1.4651">
        <ele>332.27</ele>
        <time>2017-05-08T07:50:38Z</time>
      </trkpt>
      <trkpt lat="45.29082" lon="1.46515">
        <ele>331.79</ele>
        <time>2017-05-08T07:50:39Z</time>
      </trkpt>
      <trkpt lat="45.29088" lon="1.46519">
        <ele>331.31</ele>
        <time>2017-05-08T07:50:40Z</time>
      </trkpt>
      <trkpt lat="45.29117" lon="1.46531">
        <ele>327.95</ele>
        <time>2017-05-08T07:50:47Z</time>
      </trkpt>
      <trkpt lat="45.29127" lon="1.46532">
        <ele>326.99</ele>
        <time>2017-05-08T07:50:49Z</time>
      </trkpt>
      <trkpt lat="45.29132" lon="1.46531">
        <ele>326.5</ele>
        <time>2017-05-08T07:50:50Z</time>
      </trkpt>
      <trkpt lat="45.29161" lon="1.46525">
        <ele>327.47</ele>
        <time>2017-05-08T07:50:59Z</time>
      </trkpt>
      <trkpt lat="45.29196" lon="1.46516">
        <ele>330.83</ele>
        <time>2017-05-08T07:51:08Z</time>
      </trkpt>
      <trkpt lat="45.29233" lon="1.4652">
        <ele>328.91</ele>
        <time>2017-05-08T07:51:18Z</time>
      </trkpt>
      <trkpt lat="45.29237" lon="1.4652">
        <ele>328.43</ele>
        <time>2017-05-08T07:51:20Z</time>
      </trkpt>
      <trkpt lat="45.29239" lon="1.4652">
        <ele>328.43</ele>
        <time>2017-05-08T07:51:21Z</time>
      </trkpt>
      <trkpt lat="45.29242" lon="1.4652">
        <ele>328.91</ele>
        <time>2017-05-08T07:51:22Z</time>
      </trkpt>
      <trkpt lat="45.29247" lon="1.4652">
        <ele>329.39</ele>
        <time>2017-05-08T07:51:24Z</time>
      </trkpt>
      <trkpt lat="45.29249" lon="1.4652">
        <ele>329.39</ele>
        <time>2017-05-08T07:51:25Z</time>
      </trkpt>
      <trkpt lat="45.29252" lon="1.46519">
        <ele>329.39</ele>
        <time>2017-05-08T07:51:26Z</time>
      </trkpt>
      <trkpt lat="45.29254" lon="1.46519">
        <ele>329.87</ele>
        <time>2017-05-08T07:51:27Z</time>
      </trkpt>
      <trkpt lat="45.29257" lon="1.46518">
        <ele>329.87</ele>
        <time>2017-05-08T07:51:28Z</time>
      </trkpt>
      <trkpt lat="45.29269" lon="1.46518">
        <ele>332.75</ele>
        <time>2017-05-08T07:51:37Z</time>
      </trkpt>
      <trkpt lat="45.29284" lon="1.46514">
        <ele>336.12</ele>
        <time>2017-05-08T07:51:47Z</time>
      </trkpt>
      <trkpt lat="45.2929" lon="1.46513">
        <ele>337.56</ele>
        <time>2017-05-08T07:51:52Z</time>
      </trkpt>
      <trkpt lat="45.29292" lon="1.46513">
        <ele>337.56</ele>
        <time>2017-05-08T07:51:53Z</time>
      </trkpt>
      <trkpt lat="45.29294" lon="1.46512">
        <ele>338.04</ele>
        <time>2017-05-08T07:51:54Z</time>
      </trkpt>
      <trkpt lat="45.29298" lon="1.46513">
        <ele>338.04</ele>
        <time>2017-05-08T07:51:56Z</time>
      </trkpt>
      <trkpt lat="45.29301" lon="1.46512">
        <ele>338.04</ele>
        <time>2017-05-08T07:51:57Z</time>
      </trkpt>
      <trkpt lat="45.29316" lon="1.46515">
        <ele>339.48</ele>
        <time>2017-05-08T07:52:04Z</time>
      </trkpt>
      <trkpt lat="45.29326" lon="1.46519">
        <ele>341.41</ele>
        <time>2017-05-08T07:52:08Z</time>
      </trkpt>
      <trkpt lat="45.29336" lon="1.4652">
        <ele>342.85</ele>
        <time>2017-05-08T07:52:13Z</time>
      </trkpt>
      <trkpt lat="45.29352" lon="1.46515">
        <ele>345.73</ele>
        <time>2017-05-08T07:52:23Z</time>
      </trkpt>
      <trkpt lat="45.29375" lon="1.4651">
        <ele>350.06</ele>
        <time>2017-05-08T07:52:35Z</time>
      </trkpt>
      <trkpt lat="45.29382" lon="1.46507">
        <ele>351.5</ele>
        <time>2017-05-08T07:52:40Z</time>
      </trkpt>
      <trkpt lat="45.2942" lon="1.4649">
        <ele>359.67</ele>
        <time>2017-05-08T07:52:55Z</time>
      </trkpt>
      <trkpt lat="45.29423" lon="1.46489">
        <ele>360.63</ele>
        <time>2017-05-08T07:52:57Z</time>
      </trkpt>
      <trkpt lat="45.2943" lon="1.46489">
        <ele>360.63</ele>
        <time>2017-05-08T07:53:12Z</time>
      </trkpt>
      <trkpt lat="45.29435" lon="1.46494">
        <ele>357.27</ele>
        <time>2017-05-08T07:53:27Z</time>
      </trkpt>
      <trkpt lat="45.29437" lon="1.46497">
        <ele>356.79</ele>
        <time>2017-05-08T07:53:28Z</time>
      </trkpt>
      <trkpt lat="45.2944" lon="1.46499">
        <ele>356.31</ele>
        <time>2017-05-08T07:53:29Z</time>
      </trkpt>
      <trkpt lat="45.2948" lon="1.46517">
        <ele>351.98</ele>
        <time>2017-05-08T07:53:39Z</time>
      </trkpt>
      <trkpt lat="45.29499" lon="1.46522">
        <ele>351.02</ele>
        <time>2017-05-08T07:53:42Z</time>
      </trkpt>
      <trkpt lat="45.29505" lon="1.46522">
        <ele>350.54</ele>
        <time>2017-05-08T07:53:43Z</time>
      </trkpt>
      <trkpt lat="45.29536" lon="1.46518">
        <ele>348.62</ele>
        <time>2017-05-08T07:53:48Z</time>
      </trkpt>
      <trkpt lat="45.29542" lon="1.46518">
        <ele>348.13</ele>
        <time>2017-05-08T07:53:49Z</time>
      </trkpt>
      <trkpt lat="45.29548" lon="1.46521">
        <ele>347.65</ele>
        <time>2017-05-08T07:53:50Z</time>
      </trkpt>
      <trkpt lat="45.29551" lon="1.46526">
        <ele>347.65</ele>
        <time>2017-05-08T07:53:51Z</time>
      </trkpt>
      <trkpt lat="45.29553" lon="1.46531">
        <ele>347.65</ele>
        <time>2017-05-08T07:53:52Z</time>
      </trkpt>
      <trkpt lat="45.29575" lon="1.46564">
        <ele>345.73</ele>
        <time>2017-05-08T07:54:01Z</time>
      </trkpt>
      <trkpt lat="45.29605" lon="1.46589">
        <ele>348.62</ele>
        <time>2017-05-08T07:54:11Z</time>
      </trkpt>
      <trkpt lat="45.2962" lon="1.466">
        <ele>348.62</ele>
        <time>2017-05-08T07:54:14Z</time>
      </trkpt>
      <trkpt lat="45.2964" lon="1.46622">
        <ele>349.1</ele>
        <time>2017-05-08T07:54:18Z</time>
      </trkpt>
      <trkpt lat="45.29646" lon="1.46628">
        <ele>348.62</ele>
        <time>2017-05-08T07:54:19Z</time>
      </trkpt>
      <trkpt lat="45.29663" lon="1.46645">
        <ele>347.65</ele>
        <time>2017-05-08T07:54:22Z</time>
      </trkpt>
      <trkpt lat="45.29681" lon="1.46658">
        <ele>346.21</ele>
        <time>2017-05-08T07:54:25Z</time>
      </trkpt>
      <trkpt lat="45.29692" lon="1.46663">
        <ele>344.77</ele>
        <time>2017-05-08T07:54:27Z</time>
      </trkpt>
      <trkpt lat="45.29728" lon="1.46663">
        <ele>343.33</ele>
        <time>2017-05-08T07:54:36Z</time>
      </trkpt>
      <trkpt lat="45.29733" lon="1.4666">
        <ele>342.85</ele>
        <time>2017-05-08T07:54:37Z</time>
      </trkpt>
      <trkpt lat="45.29789" lon="1.46611">
        <ele>333.71</ele>
        <time>2017-05-08T07:54:45Z</time>
      </trkpt>
      <trkpt lat="45.29823" lon="1.46574">
        <ele>327.95</ele>
        <time>2017-05-08T07:54:50Z</time>
      </trkpt>
      <trkpt lat="45.29828" lon="1.46568">
        <ele>326.99</ele>
        <time>2017-05-08T07:54:51Z</time>
      </trkpt>
      <trkpt lat="45.29832" lon="1.46565">
        <ele>326.02</ele>
        <time>2017-05-08T07:54:52Z</time>
      </trkpt>
      <trkpt lat="45.29835" lon="1.46565">
        <ele>325.06</ele>
        <time>2017-05-08T07:54:53Z</time>
      </trkpt>
      <trkpt lat="45.29836" lon="1.46572">
        <ele>323.14</ele>
        <time>2017-05-08T07:54:55Z</time>
      </trkpt>
      <trkpt lat="45.29836" lon="1.46577">
        <ele>322.18</ele>
        <time>2017-05-08T07:54:56Z</time>
      </trkpt>
      <trkpt lat="45.29835" lon="1.46583">
        <ele>320.74</ele>
        <time>2017-05-08T07:54:57Z</time>
      </trkpt>
      <trkpt lat="45.29835" lon="1.4659">
        <ele>319.78</ele>
        <time>2017-05-08T07:54:58Z</time>
      </trkpt>
      <trkpt lat="45.29835" lon="1.46604">
        <ele>316.41</ele>
        <time>2017-05-08T07:55:00Z</time>
      </trkpt>
      <trkpt lat="45.29835" lon="1.46612">
        <ele>314.97</ele>
        <time>2017-05-08T07:55:01Z</time>
      </trkpt>
      <trkpt lat="45.29834" lon="1.46619">
        <ele>313.53</ele>
        <time>2017-05-08T07:55:02Z</time>
      </trkpt>
      <trkpt lat="45.29833" lon="1.46627">
        <ele>311.6</ele>
        <time>2017-05-08T07:55:03Z</time>
      </trkpt>
      <trkpt lat="45.29831" lon="1.46634">
        <ele>309.68</ele>
        <time>2017-05-08T07:55:04Z</time>
      </trkpt>
      <trkpt lat="45.29828" lon="1.4665">
        <ele>306.32</ele>
        <time>2017-05-08T07:55:06Z</time>
      </trkpt>
      <trkpt lat="45.29826" lon="1.46666">
        <ele>302.95</ele>
        <time>2017-05-08T07:55:08Z</time>
      </trkpt>
      <trkpt lat="45.29826" lon="1.46673">
        <ele>301.03</ele>
        <time>2017-05-08T07:55:09Z</time>
      </trkpt>
      <trkpt lat="45.29825" lon="1.46679">
        <ele>299.59</ele>
        <time>2017-05-08T07:55:10Z</time>
      </trkpt>
      <trkpt lat="45.29824" lon="1.46683">
        <ele>297.67</ele>
        <time>2017-05-08T07:55:11Z</time>
      </trkpt>
      <trkpt lat="45.29821" lon="1.4669">
        <ele>291.42</ele>
        <time>2017-05-08T07:55:20Z</time>
      </trkpt>
      <trkpt lat="45.29824" lon="1.46685">
        <ele>288.53</ele>
        <time>2017-05-08T07:55:35Z</time>
      </trkpt>
      <trkpt lat="45.29825" lon="1.46683">
        <ele>288.53</ele>
        <time>2017-05-08T07:55:36Z</time>
      </trkpt>
      <trkpt lat="45.29826" lon="1.46682">
        <ele>288.05</ele>
        <time>2017-05-08T07:55:37Z</time>
      </trkpt>
      <trkpt lat="45.29828" lon="1.46681">
        <ele>287.57</ele>
        <time>2017-05-08T07:55:38Z</time>
      </trkpt>
      <trkpt lat="45.29828" lon="1.46679">
        <ele>287.57</ele>
        <time>2017-05-08T07:55:39Z</time>
      </trkpt>
      <trkpt lat="45.2983" lon="1.46677">
        <ele>287.57</ele>
        <time>2017-05-08T07:55:40Z</time>
      </trkpt>
      <trkpt lat="45.29833" lon="1.46674">
        <ele>287.57</ele>
        <time>2017-05-08T07:55:41Z</time>
      </trkpt>
      <trkpt lat="45.29836" lon="1.46669">
        <ele>287.57</ele>
        <time>2017-05-08T07:55:42Z</time>
      </trkpt>
      <trkpt lat="45.29841" lon="1.46663">
        <ele>287.09</ele>
        <time>2017-05-08T07:55:43Z</time>
      </trkpt>
      <trkpt lat="45.29862" lon="1.46637">
        <ele>285.17</ele>
        <time>2017-05-08T07:55:47Z</time>
      </trkpt>
      <trkpt lat="45.29873" lon="1.46632">
        <ele>284.21</ele>
        <time>2017-05-08T07:55:52Z</time>
      </trkpt>
      <trkpt lat="45.29876" lon="1.46633">
        <ele>284.69</ele>
        <time>2017-05-08T07:55:56Z</time>
      </trkpt>
      <trkpt lat="45.29877" lon="1.46647">
        <ele>286.13</ele>
        <time>2017-05-08T07:56:05Z</time>
      </trkpt>
      <trkpt lat="45.29879" lon="1.46649">
        <ele>286.13</ele>
        <time>2017-05-08T07:56:15Z</time>
      </trkpt>
      <trkpt lat="45.29886" lon="1.46641">
        <ele>285.65</ele>
        <time>2017-05-08T07:56:26Z</time>
      </trkpt>
      <trkpt lat="45.29893" lon="1.46637">
        <ele>283.73</ele>
        <time>2017-05-08T07:56:42Z</time>
      </trkpt>
      <trkpt lat="45.29894" lon="1.46636">
        <ele>281.8</ele>
        <time>2017-05-08T07:56:56Z</time>
      </trkpt>
      <trkpt lat="45.29894" lon="1.46637">
        <ele>281.32</ele>
        <time>2017-05-08T07:57:17Z</time>
      </trkpt>
      <trkpt lat="45.29898" lon="1.4664">
        <ele>282.77</ele>
        <time>2017-05-08T07:57:33Z</time>
      </trkpt>
      <trkpt lat="45.29901" lon="1.46636">
        <ele>282.28</ele>
        <time>2017-05-08T07:57:49Z</time>
      </trkpt>
      <trkpt lat="45.29905" lon="1.4663">
        <ele>283.73</ele>
        <time>2017-05-08T07:58:06Z</time>
      </trkpt>
      <trkpt lat="45.29926" lon="1.46618">
        <ele>282.28</ele>
        <time>2017-05-08T07:58:15Z</time>
      </trkpt>
      <trkpt lat="45.29954" lon="1.46617">
        <ele>287.09</ele>
        <time>2017-05-08T07:58:25Z</time>
      </trkpt>
      <trkpt lat="45.29971" lon="1.4662">
        <ele>289.97</ele>
        <time>2017-05-08T07:58:32Z</time>
      </trkpt>
      <trkpt lat="45.2998" lon="1.46623">
        <ele>290.94</ele>
        <time>2017-05-08T07:58:47Z</time>
      </trkpt>
      <trkpt lat="45.29986" lon="1.4662">
        <ele>289.49</ele>
        <time>2017-05-08T07:59:01Z</time>
      </trkpt>
      <trkpt lat="45.29998" lon="1.46619">
        <ele>287.09</ele>
        <time>2017-05-08T07:59:05Z</time>
      </trkpt>
      <trkpt lat="45.30003" lon="1.46618">
        <ele>286.61</ele>
        <time>2017-05-08T07:59:06Z</time>
      </trkpt>
      <trkpt lat="45.30007" lon="1.46618">
        <ele>286.61</ele>
        <time>2017-05-08T07:59:07Z</time>
      </trkpt>
      <trkpt lat="45.30011" lon="1.46618">
        <ele>286.13</ele>
        <time>2017-05-08T07:59:08Z</time>
      </trkpt>
      <trkpt lat="45.30016" lon="1.46617">
        <ele>286.13</ele>
        <time>2017-05-08T07:59:09Z</time>
      </trkpt>
      <trkpt lat="45.30051" lon="1.46616">
        <ele>287.57</ele>
        <time>2017-05-08T07:59:20Z</time>
      </trkpt>
      <trkpt lat="45.30075" lon="1.46607">
        <ele>291.42</ele>
        <time>2017-05-08T07:59:30Z</time>
      </trkpt>
      <trkpt lat="45.3009" lon="1.46602">
        <ele>300.07</ele>
        <time>2017-05-08T07:59:38Z</time>
      </trkpt>
      <trkpt lat="45.30092" lon="1.46602">
        <ele>301.03</ele>
        <time>2017-05-08T07:59:39Z</time>
      </trkpt>
      <trkpt lat="45.30094" lon="1.46602">
        <ele>301.03</ele>
        <time>2017-05-08T07:59:40Z</time>
      </trkpt>
      <trkpt lat="45.30097" lon="1.46603">
        <ele>301.03</ele>
        <time>2017-05-08T07:59:41Z</time>
      </trkpt>
      <trkpt lat="45.30099" lon="1.46603">
        <ele>301.51</ele>
        <time>2017-05-08T07:59:42Z</time>
      </trkpt>
      <trkpt lat="45.30101" lon="1.46605">
        <ele>301.51</ele>
        <time>2017-05-08T07:59:43Z</time>
      </trkpt>
      <trkpt lat="45.30102" lon="1.46606">
        <ele>301.51</ele>
        <time>2017-05-08T07:59:44Z</time>
      </trkpt>
      <trkpt lat="45.30105" lon="1.46609">
        <ele>302.47</ele>
        <time>2017-05-08T07:59:46Z</time>
      </trkpt>
      <trkpt lat="45.30107" lon="1.46609">
        <ele>302.47</ele>
        <time>2017-05-08T07:59:47Z</time>
      </trkpt>
      <trkpt lat="45.30117" lon="1.46621">
        <ele>303.43</ele>
        <time>2017-05-08T07:59:58Z</time>
      </trkpt>
      <trkpt lat="45.30124" lon="1.46626">
        <ele>305.36</ele>
        <time>2017-05-08T08:00:08Z</time>
      </trkpt>
      <trkpt lat="45.30127" lon="1.46627">
        <ele>305.36</ele>
        <time>2017-05-08T08:00:18Z</time>
      </trkpt>
      <trkpt lat="45.30129" lon="1.4663">
        <ele>306.32</ele>
        <time>2017-05-08T08:00:23Z</time>
      </trkpt>
      <trkpt lat="45.3013" lon="1.46631">
        <ele>306.8</ele>
        <time>2017-05-08T08:00:24Z</time>
      </trkpt>
      <trkpt lat="45.30131" lon="1.46632">
        <ele>307.28</ele>
        <time>2017-05-08T08:00:25Z</time>
      </trkpt>
      <trkpt lat="45.30132" lon="1.46633">
        <ele>307.76</ele>
        <time>2017-05-08T08:00:26Z</time>
      </trkpt>
      <trkpt lat="45.30133" lon="1.46634">
        <ele>307.76</ele>
        <time>2017-05-08T08:00:27Z</time>
      </trkpt>
      <trkpt lat="45.30135" lon="1.46636">
        <ele>308.24</ele>
        <time>2017-05-08T08:00:28Z</time>
      </trkpt>
      <trkpt lat="45.30136" lon="1.46637">
        <ele>308.72</ele>
        <time>2017-05-08T08:00:29Z</time>
      </trkpt>
      <trkpt lat="45.30152" lon="1.46654">
        <ele>311.6</ele>
        <time>2017-05-08T08:00:42Z</time>
      </trkpt>
      <trkpt lat="45.30153" lon="1.46656">
        <ele>312.09</ele>
        <time>2017-05-08T08:00:44Z</time>
      </trkpt>
      <trkpt lat="45.30164" lon="1.46655">
        <ele>314.97</ele>
        <time>2017-05-08T08:00:58Z</time>
      </trkpt>
      <trkpt lat="45.30165" lon="1.46655">
        <ele>313.05</ele>
        <time>2017-05-08T08:01:01Z</time>
      </trkpt>
      <trkpt lat="45.30164" lon="1.46655">
        <ele>312.57</ele>
        <time>2017-05-08T08:01:02Z</time>
      </trkpt>
      <trkpt lat="45.30162" lon="1.46655">
        <ele>312.09</ele>
        <time>2017-05-08T08:01:03Z</time>
      </trkpt>
      <trkpt lat="45.30159" lon="1.46655">
        <ele>311.6</ele>
        <time>2017-05-08T08:01:04Z</time>
      </trkpt>
      <trkpt lat="45.30155" lon="1.46654">
        <ele>311.12</ele>
        <time>2017-05-08T08:01:05Z</time>
      </trkpt>
      <trkpt lat="45.30151" lon="1.46652">
        <ele>310.16</ele>
        <time>2017-05-08T08:01:06Z</time>
      </trkpt>
      <trkpt lat="45.30148" lon="1.46649">
        <ele>309.2</ele>
        <time>2017-05-08T08:01:07Z</time>
      </trkpt>
      <trkpt lat="45.30146" lon="1.46646">
        <ele>308.24</ele>
        <time>2017-05-08T08:01:08Z</time>
      </trkpt>
      <trkpt lat="45.30121" lon="1.4662">
        <ele>298.15</ele>
        <time>2017-05-08T08:01:17Z</time>
      </trkpt>
      <trkpt lat="45.30119" lon="1.46621">
        <ele>296.22</ele>
        <time>2017-05-08T08:01:18Z</time>
      </trkpt>
      <trkpt lat="45.3012" lon="1.46623">
        <ele>294.3</ele>
        <time>2017-05-08T08:01:19Z</time>
      </trkpt>
      <trkpt lat="45.30121" lon="1.46626">
        <ele>292.86</ele>
        <time>2017-05-08T08:01:20Z</time>
      </trkpt>
      <trkpt lat="45.30122" lon="1.4663">
        <ele>291.9</ele>
        <time>2017-05-08T08:01:21Z</time>
      </trkpt>
      <trkpt lat="45.30142" lon="1.46687">
        <ele>286.13</ele>
        <time>2017-05-08T08:01:33Z</time>
      </trkpt>
      <trkpt lat="45.30165" lon="1.46707">
        <ele>282.28</ele>
        <time>2017-05-08T08:01:39Z</time>
      </trkpt>
      <trkpt lat="45.30184" lon="1.46714">
        <ele>280.84</ele>
        <time>2017-05-08T08:01:43Z</time>
      </trkpt>
      <trkpt lat="45.30212" lon="1.46728">
        <ele>277</ele>
        <time>2017-05-08T08:01:49Z</time>
      </trkpt>
      <trkpt lat="45.30242" lon="1.46737">
        <ele>277.48</ele>
        <time>2017-05-08T08:01:59Z</time>
      </trkpt>
      <trkpt lat="45.30255" lon="1.46745">
        <ele>277.48</ele>
        <time>2017-05-08T08:02:03Z</time>
      </trkpt>
      <trkpt lat="45.30275" lon="1.46761">
        <ele>277.96</ele>
        <time>2017-05-08T08:02:08Z</time>
      </trkpt>
      <trkpt lat="45.30329" lon="1.46802">
        <ele>272.19</ele>
        <time>2017-05-08T08:02:19Z</time>
      </trkpt>
      <trkpt lat="45.30337" lon="1.46807">
        <ele>272.19</ele>
        <time>2017-05-08T08:02:21Z</time>
      </trkpt>
      <trkpt lat="45.30368" lon="1.46816">
        <ele>275.07</ele>
        <time>2017-05-08T08:02:28Z</time>
      </trkpt>
      <trkpt lat="45.30391" lon="1.46816">
        <ele>276.04</ele>
        <time>2017-05-08T08:02:33Z</time>
      </trkpt>
      <trkpt lat="45.30408" lon="1.46812">
        <ele>277.96</ele>
        <time>2017-05-08T08:02:37Z</time>
      </trkpt>
      <trkpt lat="45.30428" lon="1.46799">
        <ele>280.36</ele>
        <time>2017-05-08T08:02:42Z</time>
      </trkpt>
      <trkpt lat="45.30448" lon="1.4678">
        <ele>279.4</ele>
        <time>2017-05-08T08:02:46Z</time>
      </trkpt>
      <trkpt lat="45.30462" lon="1.46764">
        <ele>277.96</ele>
        <time>2017-05-08T08:02:49Z</time>
      </trkpt>
      <trkpt lat="45.30471" lon="1.46749">
        <ele>276.52</ele>
        <time>2017-05-08T08:02:51Z</time>
      </trkpt>
      <trkpt lat="45.30475" lon="1.46739">
        <ele>275.56</ele>
        <time>2017-05-08T08:02:52Z</time>
      </trkpt>
      <trkpt lat="45.30476" lon="1.4673">
        <ele>274.59</ele>
        <time>2017-05-08T08:02:53Z</time>
      </trkpt>
      <trkpt lat="45.30477" lon="1.46722">
        <ele>274.11</ele>
        <time>2017-05-08T08:02:54Z</time>
      </trkpt>
      <trkpt lat="45.30477" lon="1.46714">
        <ele>273.15</ele>
        <time>2017-05-08T08:02:55Z</time>
      </trkpt>
      <trkpt lat="45.30478" lon="1.46706">
        <ele>272.67</ele>
        <time>2017-05-08T08:02:56Z</time>
      </trkpt>
      <trkpt lat="45.30479" lon="1.46683">
        <ele>270.27</ele>
        <time>2017-05-08T08:02:59Z</time>
      </trkpt>
      <trkpt lat="45.30483" lon="1.46613">
        <ele>265.94</ele>
        <time>2017-05-08T08:03:11Z</time>
      </trkpt>
      <trkpt lat="45.30483" lon="1.46609">
        <ele>265.94</ele>
        <time>2017-05-08T08:03:12Z</time>
      </trkpt>
      <trkpt lat="45.30483" lon="1.46605">
        <ele>266.42</ele>
        <time>2017-05-08T08:03:13Z</time>
      </trkpt>
      <trkpt lat="45.30485" lon="1.46603">
        <ele>267.38</ele>
        <time>2017-05-08T08:03:16Z</time>
      </trkpt>
      <trkpt lat="45.30498" lon="1.46599">
        <ele>270.27</ele>
        <time>2017-05-08T08:03:23Z</time>
      </trkpt>
      <trkpt lat="45.30527" lon="1.46592">
        <ele>278.92</ele>
        <time>2017-05-08T08:03:34Z</time>
      </trkpt>
      <trkpt lat="45.30562" lon="1.46577">
        <ele>285.17</ele>
        <time>2017-05-08T08:03:44Z</time>
      </trkpt>
      <trkpt lat="45.30589" lon="1.46559">
        <ele>289.97</ele>
        <time>2017-05-08T08:03:55Z</time>
      </trkpt>
      <trkpt lat="45.30601" lon="1.46548">
        <ele>289.49</ele>
        <time>2017-05-08T08:03:59Z</time>
      </trkpt>
      <trkpt lat="45.30605" lon="1.46543">
        <ele>289.01</ele>
        <time>2017-05-08T08:04:00Z</time>
      </trkpt>
      <trkpt lat="45.30609" lon="1.46538">
        <ele>288.53</ele>
        <time>2017-05-08T08:04:01Z</time>
      </trkpt>
      <trkpt lat="45.30612" lon="1.46536">
        <ele>288.05</ele>
        <time>2017-05-08T08:04:02Z</time>
      </trkpt>
      <trkpt lat="45.30615" lon="1.46535">
        <ele>288.05</ele>
        <time>2017-05-08T08:04:03Z</time>
      </trkpt>
      <trkpt lat="45.30617" lon="1.46538">
        <ele>287.57</ele>
        <time>2017-05-08T08:04:04Z</time>
      </trkpt>
      <trkpt lat="45.30618" lon="1.46543">
        <ele>287.57</ele>
        <time>2017-05-08T08:04:05Z</time>
      </trkpt>
      <trkpt lat="45.30617" lon="1.46549">
        <ele>287.09</ele>
        <time>2017-05-08T08:04:06Z</time>
      </trkpt>
      <trkpt lat="45.30615" lon="1.46556">
        <ele>286.61</ele>
        <time>2017-05-08T08:04:07Z</time>
      </trkpt>
      <trkpt lat="45.30613" lon="1.46564">
        <ele>285.65</ele>
        <time>2017-05-08T08:04:08Z</time>
      </trkpt>
      <trkpt lat="45.30605" lon="1.46585">
        <ele>283.73</ele>
        <time>2017-05-08T08:04:10Z</time>
      </trkpt>
      <trkpt lat="45.306" lon="1.46594">
        <ele>282.77</ele>
        <time>2017-05-08T08:04:11Z</time>
      </trkpt>
      <trkpt lat="45.30595" lon="1.46601">
        <ele>281.8</ele>
        <time>2017-05-08T08:04:12Z</time>
      </trkpt>
      <trkpt lat="45.3059" lon="1.46606">
        <ele>280.84</ele>
        <time>2017-05-08T08:04:13Z</time>
      </trkpt>
      <trkpt lat="45.30587" lon="1.46612">
        <ele>279.88</ele>
        <time>2017-05-08T08:04:14Z</time>
      </trkpt>
      <trkpt lat="45.30587" lon="1.46617">
        <ele>278.44</ele>
        <time>2017-05-08T08:04:15Z</time>
      </trkpt>
      <trkpt lat="45.3059" lon="1.46618">
        <ele>277.48</ele>
        <time>2017-05-08T08:04:16Z</time>
      </trkpt>
      <trkpt lat="45.30594" lon="1.46617">
        <ele>276.04</ele>
        <time>2017-05-08T08:04:17Z</time>
      </trkpt>
      <trkpt lat="45.306" lon="1.46614">
        <ele>275.07</ele>
        <time>2017-05-08T08:04:18Z</time>
      </trkpt>
      <trkpt lat="45.30606" lon="1.4661">
        <ele>273.63</ele>
        <time>2017-05-08T08:04:19Z</time>
      </trkpt>
      <trkpt lat="45.3062" lon="1.46601">
        <ele>271.23</ele>
        <time>2017-05-08T08:04:21Z</time>
      </trkpt>
      <trkpt lat="45.30625" lon="1.46595">
        <ele>269.79</ele>
        <time>2017-05-08T08:04:22Z</time>
      </trkpt>
      <trkpt lat="45.3063" lon="1.46588">
        <ele>268.35</ele>
        <time>2017-05-08T08:04:23Z</time>
      </trkpt>
      <trkpt lat="45.30636" lon="1.46575">
        <ele>266.42</ele>
        <time>2017-05-08T08:04:25Z</time>
      </trkpt>
      <trkpt lat="45.3064" lon="1.46572">
        <ele>264.98</ele>
        <time>2017-05-08T08:04:26Z</time>
      </trkpt>
      <trkpt lat="45.30643" lon="1.46573">
        <ele>264.02</ele>
        <time>2017-05-08T08:04:27Z</time>
      </trkpt>
      <trkpt lat="45.30646" lon="1.46576">
        <ele>263.06</ele>
        <time>2017-05-08T08:04:28Z</time>
      </trkpt>
      <trkpt lat="45.30653" lon="1.46591">
        <ele>260.17</ele>
        <time>2017-05-08T08:04:31Z</time>
      </trkpt>
      <trkpt lat="45.30669" lon="1.46606">
        <ele>255.85</ele>
        <time>2017-05-08T08:04:39Z</time>
      </trkpt>
      <trkpt lat="45.30671" lon="1.46608">
        <ele>255.37</ele>
        <time>2017-05-08T08:04:40Z</time>
      </trkpt>
      <trkpt lat="45.30675" lon="1.46609">
        <ele>254.89</ele>
        <time>2017-05-08T08:04:41Z</time>
      </trkpt>
      <trkpt lat="45.30686" lon="1.46612">
        <ele>254.41</ele>
        <time>2017-05-08T08:04:44Z</time>
      </trkpt>
      <trkpt lat="45.30718" lon="1.4661">
        <ele>251.04</ele>
        <time>2017-05-08T08:04:49Z</time>
      </trkpt>
      <trkpt lat="45.30724" lon="1.46611">
        <ele>250.08</ele>
        <time>2017-05-08T08:04:50Z</time>
      </trkpt>
      <trkpt lat="45.30729" lon="1.46611">
        <ele>249.12</ele>
        <time>2017-05-08T08:04:51Z</time>
      </trkpt>
      <trkpt lat="45.30734" lon="1.4661">
        <ele>248.16</ele>
        <time>2017-05-08T08:04:52Z</time>
      </trkpt>
      <trkpt lat="45.3074" lon="1.46609">
        <ele>247.2</ele>
        <time>2017-05-08T08:04:53Z</time>
      </trkpt>
      <trkpt lat="45.30746" lon="1.46608">
        <ele>245.75</ele>
        <time>2017-05-08T08:04:54Z</time>
      </trkpt>
      <trkpt lat="45.30788" lon="1.46598">
        <ele>237.1</ele>
        <time>2017-05-08T08:05:01Z</time>
      </trkpt>
      <trkpt lat="45.30793" lon="1.46599">
        <ele>235.66</ele>
        <time>2017-05-08T08:05:02Z</time>
      </trkpt>
      <trkpt lat="45.30813" lon="1.46598">
        <ele>230.85</ele>
        <time>2017-05-08T08:05:06Z</time>
      </trkpt>
      <trkpt lat="45.30842" lon="1.46593">
        <ele>224.12</ele>
        <time>2017-05-08T08:05:11Z</time>
      </trkpt>
      <trkpt lat="45.30853" lon="1.46589">
        <ele>221.72</ele>
        <time>2017-05-08T08:05:13Z</time>
      </trkpt>
      <trkpt lat="45.30871" lon="1.46584">
        <ele>217.4</ele>
        <time>2017-05-08T08:05:21Z</time>
      </trkpt>
      <trkpt lat="45.30879" lon="1.46579">
        <ele>215.47</ele>
        <time>2017-05-08T08:05:26Z</time>
      </trkpt>
      <trkpt lat="45.30884" lon="1.46575">
        <ele>214.99</ele>
        <time>2017-05-08T08:05:27Z</time>
      </trkpt>
      <trkpt lat="45.30916" lon="1.46547">
        <ele>211.15</ele>
        <time>2017-05-08T08:05:34Z</time>
      </trkpt>
      <trkpt lat="45.30925" lon="1.46542">
        <ele>209.7</ele>
        <time>2017-05-08T08:05:36Z</time>
      </trkpt>
      <trkpt lat="45.3093" lon="1.46539">
        <ele>208.74</ele>
        <time>2017-05-08T08:05:37Z</time>
      </trkpt>
      <trkpt lat="45.30933" lon="1.46537">
        <ele>208.26</ele>
        <time>2017-05-08T08:05:38Z</time>
      </trkpt>
      <trkpt lat="45.30937" lon="1.46535">
        <ele>207.78</ele>
        <time>2017-05-08T08:05:39Z</time>
      </trkpt>
      <trkpt lat="45.3094" lon="1.46535">
        <ele>206.82</ele>
        <time>2017-05-08T08:05:40Z</time>
      </trkpt>
      <trkpt lat="45.30965" lon="1.46527">
        <ele>203.46</ele>
        <time>2017-05-08T08:05:45Z</time>
      </trkpt>
      <trkpt lat="45.30975" lon="1.46526">
        <ele>202.01</ele>
        <time>2017-05-08T08:05:47Z</time>
      </trkpt>
      <trkpt lat="45.30996" lon="1.46528">
        <ele>200.57</ele>
        <time>2017-05-08T08:05:51Z</time>
      </trkpt>
      <trkpt lat="45.31001" lon="1.46528">
        <ele>200.57</ele>
        <time>2017-05-08T08:05:52Z</time>
      </trkpt>
      <trkpt lat="45.31016" lon="1.46526">
        <ele>200.57</ele>
        <time>2017-05-08T08:06:00Z</time>
      </trkpt>
      <trkpt lat="45.31042" lon="1.46523">
        <ele>201.53</ele>
        <time>2017-05-08T08:06:10Z</time>
      </trkpt>
      <trkpt lat="45.31055" lon="1.46522">
        <ele>203.46</ele>
        <time>2017-05-08T08:06:21Z</time>
      </trkpt>
      <trkpt lat="45.31058" lon="1.46522">
        <ele>203.46</ele>
        <time>2017-05-08T08:06:26Z</time>
      </trkpt>
      <trkpt lat="45.31069" lon="1.46523">
        <ele>204.42</ele>
        <time>2017-05-08T08:06:31Z</time>
      </trkpt>
      <trkpt lat="45.31071" lon="1.46524">
        <ele>204.9</ele>
        <time>2017-05-08T08:06:32Z</time>
      </trkpt>
      <trkpt lat="45.31073" lon="1.46523">
        <ele>205.38</ele>
        <time>2017-05-08T08:06:33Z</time>
      </trkpt>
      <trkpt lat="45.31076" lon="1.46522">
        <ele>205.38</ele>
        <time>2017-05-08T08:06:34Z</time>
      </trkpt>
      <trkpt lat="45.3108" lon="1.4652">
        <ele>205.86</ele>
        <time>2017-05-08T08:06:35Z</time>
      </trkpt>
      <trkpt lat="45.31084" lon="1.46518">
        <ele>205.86</ele>
        <time>2017-05-08T08:06:36Z</time>
      </trkpt>
      <trkpt lat="45.31088" lon="1.46518">
        <ele>206.34</ele>
        <time>2017-05-08T08:06:37Z</time>
      </trkpt>
      <trkpt lat="45.31091" lon="1.46519">
        <ele>205.86</ele>
        <time>2017-05-08T08:06:38Z</time>
      </trkpt>
      <trkpt lat="45.31096" lon="1.4652">
        <ele>205.86</ele>
        <time>2017-05-08T08:06:39Z</time>
      </trkpt>
      <trkpt lat="45.31114" lon="1.46523">
        <ele>206.34</ele>
        <time>2017-05-08T08:06:43Z</time>
      </trkpt>
      <trkpt lat="45.31142" lon="1.46531">
        <ele>206.82</ele>
        <time>2017-05-08T08:06:49Z</time>
      </trkpt>
      <trkpt lat="45.31155" lon="1.46536">
        <ele>206.34</ele>
        <time>2017-05-08T08:06:52Z</time>
      </trkpt>
      <trkpt lat="45.31159" lon="1.46536">
        <ele>206.34</ele>
        <time>2017-05-08T08:06:53Z</time>
      </trkpt>
      <trkpt lat="45.31163" lon="1.46537">
        <ele>205.86</ele>
        <time>2017-05-08T08:06:54Z</time>
      </trkpt>
      <trkpt lat="45.31166" lon="1.46539">
        <ele>204.9</ele>
        <time>2017-05-08T08:06:55Z</time>
      </trkpt>
      <trkpt lat="45.31169" lon="1.4654">
        <ele>204.9</ele>
        <time>2017-05-08T08:06:56Z</time>
      </trkpt>
      <trkpt lat="45.31172" lon="1.46544">
        <ele>203.94</ele>
        <time>2017-05-08T08:06:57Z</time>
      </trkpt>
      <trkpt lat="45.31179" lon="1.46546">
        <ele>203.46</ele>
        <time>2017-05-08T08:06:59Z</time>
      </trkpt>
      <trkpt lat="45.31182" lon="1.46546">
        <ele>203.46</ele>
        <time>2017-05-08T08:07:00Z</time>
      </trkpt>
      <trkpt lat="45.31186" lon="1.46545">
        <ele>202.49</ele>
        <time>2017-05-08T08:07:01Z</time>
      </trkpt>
      <trkpt lat="45.31223" lon="1.46532">
        <ele>200.09</ele>
        <time>2017-05-08T08:07:11Z</time>
      </trkpt>
      <trkpt lat="45.31227" lon="1.4653">
        <ele>200.09</ele>
        <time>2017-05-08T08:07:12Z</time>
      </trkpt>
      <trkpt lat="45.31231" lon="1.46529">
        <ele>200.09</ele>
        <time>2017-05-08T08:07:13Z</time>
      </trkpt>
      <trkpt lat="45.31236" lon="1.46527">
        <ele>200.09</ele>
        <time>2017-05-08T08:07:14Z</time>
      </trkpt>
      <trkpt lat="45.31241" lon="1.46525">
        <ele>200.09</ele>
        <time>2017-05-08T08:07:15Z</time>
      </trkpt>
      <trkpt lat="45.31279" lon="1.46495">
        <ele>200.57</ele>
        <time>2017-05-08T08:07:27Z</time>
      </trkpt>
      <trkpt lat="45.31339" lon="1.46449">
        <ele>200.57</ele>
        <time>2017-05-08T08:07:36Z</time>
      </trkpt>
      <trkpt lat="45.31374" lon="1.46417">
        <ele>200.57</ele>
        <time>2017-05-08T08:07:47Z</time>
      </trkpt>
      <trkpt lat="45.31389" lon="1.46404">
        <ele>199.61</ele>
        <time>2017-05-08T08:07:57Z</time>
      </trkpt>
      <trkpt lat="45.3139" lon="1.46401">
        <ele>199.13</ele>
        <time>2017-05-08T08:07:59Z</time>
      </trkpt>
      <trkpt lat="45.31391" lon="1.46398">
        <ele>198.65</ele>
        <time>2017-05-08T08:08:00Z</time>
      </trkpt>
      <trkpt lat="45.31393" lon="1.46396">
        <ele>198.17</ele>
        <time>2017-05-08T08:08:01Z</time>
      </trkpt>
      <trkpt lat="45.31394" lon="1.46394">
        <ele>197.69</ele>
        <time>2017-05-08T08:08:02Z</time>
      </trkpt>
      <trkpt lat="45.31395" lon="1.46392">
        <ele>197.69</ele>
        <time>2017-05-08T08:08:03Z</time>
      </trkpt>
      <trkpt lat="45.31397" lon="1.46385">
        <ele>195.77</ele>
        <time>2017-05-08T08:08:09Z</time>
      </trkpt>
      <trkpt lat="45.31401" lon="1.46376">
        <ele>195.77</ele>
        <time>2017-05-08T08:08:14Z</time>
      </trkpt>
      <trkpt lat="45.31403" lon="1.46374">
        <ele>195.28</ele>
        <time>2017-05-08T08:08:15Z</time>
      </trkpt>
      <trkpt lat="45.31404" lon="1.46371">
        <ele>195.28</ele>
        <time>2017-05-08T08:08:16Z</time>
      </trkpt>
      <trkpt lat="45.31406" lon="1.46369">
        <ele>195.28</ele>
        <time>2017-05-08T08:08:17Z</time>
      </trkpt>
      <trkpt lat="45.31407" lon="1.46366">
        <ele>195.28</ele>
        <time>2017-05-08T08:08:18Z</time>
      </trkpt>
      <trkpt lat="45.31408" lon="1.46365">
        <ele>195.28</ele>
        <time>2017-05-08T08:08:19Z</time>
      </trkpt>
      <trkpt lat="45.31419" lon="1.46357">
        <ele>198.17</ele>
        <time>2017-05-08T08:08:30Z</time>
      </trkpt>
      <trkpt lat="45.31419" lon="1.46359">
        <ele>199.13</ele>
        <time>2017-05-08T08:08:43Z</time>
      </trkpt>
      <trkpt lat="45.31427" lon="1.46357">
        <ele>197.21</ele>
        <time>2017-05-08T08:09:00Z</time>
      </trkpt>
      <trkpt lat="45.31437" lon="1.46352">
        <ele>199.13</ele>
        <time>2017-05-08T08:09:25Z</time>
      </trkpt>
      <trkpt lat="45.31436" lon="1.46345">
        <ele>201.05</ele>
        <time>2017-05-08T08:09:54Z</time>
      </trkpt>
      <trkpt lat="45.31433" lon="1.46346">
        <ele>196.73</ele>
        <time>2017-05-08T08:10:12Z</time>
      </trkpt>
      <trkpt lat="45.31435" lon="1.46342">
        <ele>194.8</ele>
        <time>2017-05-08T08:10:32Z</time>
      </trkpt>
      <trkpt lat="45.31432" lon="1.46344">
        <ele>193.36</ele>
        <time>2017-05-08T08:10:48Z</time>
      </trkpt>
      <trkpt lat="45.31423" lon="1.46355">
        <ele>193.84</ele>
        <time>2017-05-08T08:11:04Z</time>
      </trkpt>
      <trkpt lat="45.31424" lon="1.46355">
        <ele>195.28</ele>
        <time>2017-05-08T08:11:09Z</time>
      </trkpt>
      <trkpt lat="45.3143" lon="1.46353">
        <ele>198.17</ele>
        <time>2017-05-08T08:11:18Z</time>
      </trkpt>
      <trkpt lat="45.31432" lon="1.46349">
        <ele>199.13</ele>
        <time>2017-05-08T08:11:26Z</time>
      </trkpt>
      <trkpt lat="45.31438" lon="1.46335">
        <ele>199.13</ele>
        <time>2017-05-08T08:11:33Z</time>
      </trkpt>
      <trkpt lat="45.31462" lon="1.46323">
        <ele>201.05</ele>
        <time>2017-05-08T08:11:43Z</time>
      </trkpt>
      <trkpt lat="45.31466" lon="1.4632">
        <ele>201.53</ele>
        <time>2017-05-08T08:11:48Z</time>
      </trkpt>
      <trkpt lat="45.31467" lon="1.46318">
        <ele>201.05</ele>
        <time>2017-05-08T08:11:49Z</time>
      </trkpt>
      <trkpt lat="45.31482" lon="1.46304">
        <ele>201.53</ele>
        <time>2017-05-08T08:11:56Z</time>
      </trkpt>
      <trkpt lat="45.31506" lon="1.46287">
        <ele>203.46</ele>
        <time>2017-05-08T08:12:05Z</time>
      </trkpt>
      <trkpt lat="45.31519" lon="1.46283">
        <ele>204.42</ele>
        <time>2017-05-08T08:12:13Z</time>
      </trkpt>
      <trkpt lat="45.31531" lon="1.4627">
        <ele>205.38</ele>
        <time>2017-05-08T08:12:22Z</time>
      </trkpt>
      <trkpt lat="45.31535" lon="1.46268">
        <ele>205.38</ele>
        <time>2017-05-08T08:12:24Z</time>
      </trkpt>
      <trkpt lat="45.31561" lon="1.46252">
        <ele>204.9</ele>
        <time>2017-05-08T08:12:36Z</time>
      </trkpt>
      <trkpt lat="45.3157" lon="1.46249">
        <ele>202.49</ele>
        <time>2017-05-08T08:12:45Z</time>
      </trkpt>
      <trkpt lat="45.31597" lon="1.46238">
        <ele>202.98</ele>
        <time>2017-05-08T08:12:56Z</time>
      </trkpt>
      <trkpt lat="45.31605" lon="1.46236">
        <ele>202.98</ele>
        <time>2017-05-08T08:13:06Z</time>
      </trkpt>
      <trkpt lat="45.31605" lon="1.46232">
        <ele>204.9</ele>
        <time>2017-05-08T08:13:29Z</time>
      </trkpt>
      <trkpt lat="45.31607" lon="1.46234">
        <ele>203.46</ele>
        <time>2017-05-08T08:13:34Z</time>
      </trkpt>
      <trkpt lat="45.3161" lon="1.46235">
        <ele>203.46</ele>
        <time>2017-05-08T08:13:36Z</time>
      </trkpt>
      <trkpt lat="45.31611" lon="1.46235">
        <ele>203.46</ele>
        <time>2017-05-08T08:13:37Z</time>
      </trkpt>
      <trkpt lat="45.31613" lon="1.46235">
        <ele>203.46</ele>
        <time>2017-05-08T08:13:38Z</time>
      </trkpt>
      <trkpt lat="45.31615" lon="1.46235">
        <ele>203.46</ele>
        <time>2017-05-08T08:13:39Z</time>
      </trkpt>
      <trkpt lat="45.31627" lon="1.46231">
        <ele>205.38</ele>
        <time>2017-05-08T08:13:47Z</time>
      </trkpt>
      <trkpt lat="45.31635" lon="1.46231">
        <ele>206.82</ele>
        <time>2017-05-08T08:13:53Z</time>
      </trkpt>
      <trkpt lat="45.31648" lon="1.4623">
        <ele>206.34</ele>
        <time>2017-05-08T08:14:03Z</time>
      </trkpt>
      <trkpt lat="45.31652" lon="1.46234">
        <ele>204.42</ele>
        <time>2017-05-08T08:14:07Z</time>
      </trkpt>
      <trkpt lat="45.31655" lon="1.46236">
        <ele>203.94</ele>
        <time>2017-05-08T08:14:08Z</time>
      </trkpt>
      <trkpt lat="45.31657" lon="1.46239">
        <ele>203.94</ele>
        <time>2017-05-08T08:14:09Z</time>
      </trkpt>
      <trkpt lat="45.3166" lon="1.4624">
        <ele>203.94</ele>
        <time>2017-05-08T08:14:10Z</time>
      </trkpt>
      <trkpt lat="45.31664" lon="1.46242">
        <ele>203.94</ele>
        <time>2017-05-08T08:14:11Z</time>
      </trkpt>
      <trkpt lat="45.31668" lon="1.46243">
        <ele>204.42</ele>
        <time>2017-05-08T08:14:12Z</time>
      </trkpt>
      <trkpt lat="45.3167" lon="1.46244">
        <ele>204.42</ele>
        <time>2017-05-08T08:14:13Z</time>
      </trkpt>
      <trkpt lat="45.31672" lon="1.46246">
        <ele>204.42</ele>
        <time>2017-05-08T08:14:14Z</time>
      </trkpt>
      <trkpt lat="45.31675" lon="1.46249">
        <ele>204.42</ele>
        <time>2017-05-08T08:14:16Z</time>
      </trkpt>
      <trkpt lat="45.31678" lon="1.4625">
        <ele>204.42</ele>
        <time>2017-05-08T08:14:17Z</time>
      </trkpt>
      <trkpt lat="45.31681" lon="1.46252">
        <ele>204.42</ele>
        <time>2017-05-08T08:14:18Z</time>
      </trkpt>
      <trkpt lat="45.31683" lon="1.46254">
        <ele>204.42</ele>
        <time>2017-05-08T08:14:19Z</time>
      </trkpt>
      <trkpt lat="45.31685" lon="1.46256">
        <ele>204.9</ele>
        <time>2017-05-08T08:14:20Z</time>
      </trkpt>
      <trkpt lat="45.31687" lon="1.46257">
        <ele>204.9</ele>
        <time>2017-05-08T08:14:21Z</time>
      </trkpt>
      <trkpt lat="45.31704" lon="1.46268">
        <ele>207.78</ele>
        <time>2017-05-08T08:14:30Z</time>
      </trkpt>
      <trkpt lat="45.31705" lon="1.4627">
        <ele>208.26</ele>
        <time>2017-05-08T08:14:31Z</time>
      </trkpt>
      <trkpt lat="45.31708" lon="1.46276">
        <ele>213.07</ele>
        <time>2017-05-08T08:14:42Z</time>
      </trkpt>
      <trkpt lat="45.31713" lon="1.46291">
        <ele>218.36</ele>
        <time>2017-05-08T08:14:51Z</time>
      </trkpt>
      <trkpt lat="45.3172" lon="1.46318">
        <ele>220.28</ele>
        <time>2017-05-08T08:15:03Z</time>
      </trkpt>
      <trkpt lat="45.31725" lon="1.46343">
        <ele>221.24</ele>
        <time>2017-05-08T08:15:15Z</time>
      </trkpt>
      <trkpt lat="45.31726" lon="1.46345">
        <ele>221.24</ele>
        <time>2017-05-08T08:15:16Z</time>
      </trkpt>
      <trkpt lat="45.31727" lon="1.46349">
        <ele>221.24</ele>
        <time>2017-05-08T08:15:17Z</time>
      </trkpt>
      <trkpt lat="45.31727" lon="1.46352">
        <ele>221.72</ele>
        <time>2017-05-08T08:15:18Z</time>
      </trkpt>
      <trkpt lat="45.31728" lon="1.46355">
        <ele>221.72</ele>
        <time>2017-05-08T08:15:19Z</time>
      </trkpt>
      <trkpt lat="45.31729" lon="1.46358">
        <ele>221.72</ele>
        <time>2017-05-08T08:15:20Z</time>
      </trkpt>
      <trkpt lat="45.31729" lon="1.46363">
        <ele>222.2</ele>
        <time>2017-05-08T08:15:21Z</time>
      </trkpt>
      <trkpt lat="45.3173" lon="1.46367">
        <ele>222.2</ele>
        <time>2017-05-08T08:15:22Z</time>
      </trkpt>
      <trkpt lat="45.3173" lon="1.46372">
        <ele>222.68</ele>
        <time>2017-05-08T08:15:23Z</time>
      </trkpt>
      <trkpt lat="45.3173" lon="1.46375">
        <ele>223.16</ele>
        <time>2017-05-08T08:15:24Z</time>
      </trkpt>
      <trkpt lat="45.3173" lon="1.46379">
        <ele>223.16</ele>
        <time>2017-05-08T08:15:25Z</time>
      </trkpt>
      <trkpt lat="45.3173" lon="1.46385">
        <ele>222.68</ele>
        <time>2017-05-08T08:15:26Z</time>
      </trkpt>
      <trkpt lat="45.31738" lon="1.46414">
        <ele>221.24</ele>
        <time>2017-05-08T08:15:35Z</time>
      </trkpt>
      <trkpt lat="45.31739" lon="1.46417">
        <ele>220.76</ele>
        <time>2017-05-08T08:15:36Z</time>
      </trkpt>
      <trkpt lat="45.3174" lon="1.46419">
        <ele>220.28</ele>
        <time>2017-05-08T08:15:37Z</time>
      </trkpt>
      <trkpt lat="45.3175" lon="1.46429">
        <ele>218.84</ele>
        <time>2017-05-08T08:15:45Z</time>
      </trkpt>
      <trkpt lat="45.31751" lon="1.46432">
        <ele>219.8</ele>
        <time>2017-05-08T08:15:47Z</time>
      </trkpt>
      <trkpt lat="45.31753" lon="1.46446">
        <ele>220.76</ele>
        <time>2017-05-08T08:15:52Z</time>
      </trkpt>
      <trkpt lat="45.31755" lon="1.46449">
        <ele>220.76</ele>
        <time>2017-05-08T08:15:53Z</time>
      </trkpt>
      <trkpt lat="45.31757" lon="1.46452">
        <ele>221.24</ele>
        <time>2017-05-08T08:15:54Z</time>
      </trkpt>
      <trkpt lat="45.31758" lon="1.46455">
        <ele>221.24</ele>
        <time>2017-05-08T08:15:55Z</time>
      </trkpt>
      <trkpt lat="45.31758" lon="1.46458">
        <ele>221.24</ele>
        <time>2017-05-08T08:15:56Z</time>
      </trkpt>
      <trkpt lat="45.31757" lon="1.4646">
        <ele>221.24</ele>
        <time>2017-05-08T08:15:57Z</time>
      </trkpt>
      <trkpt lat="45.31757" lon="1.46463">
        <ele>221.24</ele>
        <time>2017-05-08T08:15:58Z</time>
      </trkpt>
      <trkpt lat="45.31757" lon="1.46465">
        <ele>221.24</ele>
        <time>2017-05-08T08:15:59Z</time>
      </trkpt>
      <trkpt lat="45.31757" lon="1.46467">
        <ele>221.24</ele>
        <time>2017-05-08T08:16:00Z</time>
      </trkpt>
      <trkpt lat="45.31757" lon="1.46468">
        <ele>221.24</ele>
        <time>2017-05-08T08:16:01Z</time>
      </trkpt>
      <trkpt lat="45.31757" lon="1.4647">
        <ele>221.24</ele>
        <time>2017-05-08T08:16:02Z</time>
      </trkpt>
      <trkpt lat="45.31766" lon="1.46515">
        <ele>219.8</ele>
        <time>2017-05-08T08:16:15Z</time>
      </trkpt>
      <trkpt lat="45.31769" lon="1.46523">
        <ele>218.36</ele>
        <time>2017-05-08T08:16:17Z</time>
      </trkpt>
      <trkpt lat="45.31771" lon="1.46526">
        <ele>217.88</ele>
        <time>2017-05-08T08:16:18Z</time>
      </trkpt>
      <trkpt lat="45.31773" lon="1.46528">
        <ele>217.88</ele>
        <time>2017-05-08T08:16:19Z</time>
      </trkpt>
      <trkpt lat="45.31774" lon="1.46532">
        <ele>217.88</ele>
        <time>2017-05-08T08:16:20Z</time>
      </trkpt>
      <trkpt lat="45.31776" lon="1.46535">
        <ele>217.88</ele>
        <time>2017-05-08T08:16:21Z</time>
      </trkpt>
      <trkpt lat="45.31777" lon="1.46537">
        <ele>217.4</ele>
        <time>2017-05-08T08:16:22Z</time>
      </trkpt>
      <trkpt lat="45.31778" lon="1.46538">
        <ele>217.4</ele>
        <time>2017-05-08T08:16:23Z</time>
      </trkpt>
      <trkpt lat="45.31785" lon="1.46549">
        <ele>216.91</ele>
        <time>2017-05-08T08:16:30Z</time>
      </trkpt>
      <trkpt lat="45.31786" lon="1.46552">
        <ele>216.43</ele>
        <time>2017-05-08T08:16:31Z</time>
      </trkpt>
      <trkpt lat="45.31788" lon="1.46555">
        <ele>215.95</ele>
        <time>2017-05-08T08:16:32Z</time>
      </trkpt>
      <trkpt lat="45.31789" lon="1.46556">
        <ele>215.95</ele>
        <time>2017-05-08T08:16:33Z</time>
      </trkpt>
      <trkpt lat="45.3179" lon="1.46558">
        <ele>215.95</ele>
        <time>2017-05-08T08:16:34Z</time>
      </trkpt>
      <trkpt lat="45.31797" lon="1.46563">
        <ele>214.99</ele>
        <time>2017-05-08T08:16:38Z</time>
      </trkpt>
      <trkpt lat="45.31798" lon="1.46563">
        <ele>215.47</ele>
        <time>2017-05-08T08:16:39Z</time>
      </trkpt>
      <trkpt lat="45.318" lon="1.46563">
        <ele>215.47</ele>
        <time>2017-05-08T08:16:40Z</time>
      </trkpt>
      <trkpt lat="45.31807" lon="1.46564">
        <ele>215.95</ele>
        <time>2017-05-08T08:16:44Z</time>
      </trkpt>
      <trkpt lat="45.31824" lon="1.46553">
        <ele>218.84</ele>
        <time>2017-05-08T08:16:53Z</time>
      </trkpt>
      <trkpt lat="45.31826" lon="1.46549">
        <ele>220.28</ele>
        <time>2017-05-08T08:16:55Z</time>
      </trkpt>
      <trkpt lat="45.31824" lon="1.46543">
        <ele>220.76</ele>
        <time>2017-05-08T08:16:58Z</time>
      </trkpt>
      <trkpt lat="45.3183" lon="1.46523">
        <ele>226.05</ele>
        <time>2017-05-08T08:17:09Z</time>
      </trkpt>
      <trkpt lat="45.31842" lon="1.46502">
        <ele>227.49</ele>
        <time>2017-05-08T08:17:20Z</time>
      </trkpt>
      <trkpt lat="45.31855" lon="1.46487">
        <ele>230.37</ele>
        <time>2017-05-08T08:17:31Z</time>
      </trkpt>
      <trkpt lat="45.31869" lon="1.46473">
        <ele>235.18</ele>
        <time>2017-05-08T08:17:43Z</time>
      </trkpt>
      <trkpt lat="45.31871" lon="1.46469">
        <ele>236.14</ele>
        <time>2017-05-08T08:17:46Z</time>
      </trkpt>
      <trkpt lat="45.31876" lon="1.46463">
        <ele>236.62</ele>
        <time>2017-05-08T08:17:52Z</time>
      </trkpt>
      <trkpt lat="45.31881" lon="1.46452">
        <ele>237.58</ele>
        <time>2017-05-08T08:17:58Z</time>
      </trkpt>
      <trkpt lat="45.31888" lon="1.46427">
        <ele>240.47</ele>
        <time>2017-05-08T08:18:11Z</time>
      </trkpt>
      <trkpt lat="45.31897" lon="1.46407">
        <ele>247.68</ele>
        <time>2017-05-08T08:18:25Z</time>
      </trkpt>
      <trkpt lat="45.31904" lon="1.46385">
        <ele>250.56</ele>
        <time>2017-05-08T08:18:37Z</time>
      </trkpt>
      <trkpt lat="45.31918" lon="1.4637">
        <ele>254.41</ele>
        <time>2017-05-08T08:18:50Z</time>
      </trkpt>
      <trkpt lat="45.31921" lon="1.46367">
        <ele>254.89</ele>
        <time>2017-05-08T08:18:53Z</time>
      </trkpt>
      <trkpt lat="45.31938" lon="1.4635">
        <ele>258.25</ele>
        <time>2017-05-08T08:19:10Z</time>
      </trkpt>
      <trkpt lat="45.31947" lon="1.4634">
        <ele>260.17</ele>
        <time>2017-05-08T08:19:19Z</time>
      </trkpt>
      <trkpt lat="45.3196" lon="1.4632">
        <ele>261.62</ele>
        <time>2017-05-08T08:19:32Z</time>
      </trkpt>
      <trkpt lat="45.31964" lon="1.46314">
        <ele>261.62</ele>
        <time>2017-05-08T08:19:36Z</time>
      </trkpt>
      <trkpt lat="45.31978" lon="1.46298">
        <ele>264.98</ele>
        <time>2017-05-08T08:19:47Z</time>
      </trkpt>
      <trkpt lat="45.32" lon="1.46289">
        <ele>266.9</ele>
        <time>2017-05-08T08:19:59Z</time>
      </trkpt>
      <trkpt lat="45.32031" lon="1.46279">
        <ele>266.42</ele>
        <time>2017-05-08T08:20:08Z</time>
      </trkpt>
      <trkpt lat="45.32055" lon="1.46274">
        <ele>266.9</ele>
        <time>2017-05-08T08:20:17Z</time>
      </trkpt>
      <trkpt lat="45.32085" lon="1.46273">
        <ele>266.9</ele>
        <time>2017-05-08T08:20:25Z</time>
      </trkpt>
      <trkpt lat="45.32089" lon="1.46283">
        <ele>267.38</ele>
        <time>2017-05-08T08:20:30Z</time>
      </trkpt>
      <trkpt lat="45.32078" lon="1.46328">
        <ele>268.83</ele>
        <time>2017-05-08T08:20:41Z</time>
      </trkpt>
      <trkpt lat="45.32074" lon="1.46353">
        <ele>269.31</ele>
        <time>2017-05-08T08:20:49Z</time>
      </trkpt>
      <trkpt lat="45.32072" lon="1.46358">
        <ele>269.31</ele>
        <time>2017-05-08T08:20:52Z</time>
      </trkpt>
      <trkpt lat="45.32065" lon="1.4637">
        <ele>269.31</ele>
        <time>2017-05-08T08:20:58Z</time>
      </trkpt>
      <trkpt lat="45.32062" lon="1.46377">
        <ele>270.27</ele>
        <time>2017-05-08T08:21:01Z</time>
      </trkpt>
      <trkpt lat="45.3206" lon="1.4639">
        <ele>274.59</ele>
        <time>2017-05-08T08:21:15Z</time>
      </trkpt>
      <trkpt lat="45.32058" lon="1.46397">
        <ele>275.56</ele>
        <time>2017-05-08T08:21:18Z</time>
      </trkpt>
      <trkpt lat="45.32054" lon="1.4641">
        <ele>277.48</ele>
        <time>2017-05-08T08:21:23Z</time>
      </trkpt>
      <trkpt lat="45.32053" lon="1.46423">
        <ele>278.44</ele>
        <time>2017-05-08T08:21:28Z</time>
      </trkpt>
      <trkpt lat="45.32053" lon="1.46432">
        <ele>278.92</ele>
        <time>2017-05-08T08:21:31Z</time>
      </trkpt>
      <trkpt lat="45.3206" lon="1.46448">
        <ele>282.28</ele>
        <time>2017-05-08T08:21:39Z</time>
      </trkpt>
      <trkpt lat="45.32064" lon="1.46468">
        <ele>283.25</ele>
        <time>2017-05-08T08:21:47Z</time>
      </trkpt>
      <trkpt lat="45.32067" lon="1.46481">
        <ele>284.21</ele>
        <time>2017-05-08T08:21:52Z</time>
      </trkpt>
      <trkpt lat="45.32083" lon="1.46502">
        <ele>279.88</ele>
        <time>2017-05-08T08:21:57Z</time>
      </trkpt>
      <trkpt lat="45.32099" lon="1.46498">
        <ele>280.36</ele>
        <time>2017-05-08T08:22:08Z</time>
      </trkpt>
      <trkpt lat="45.32101" lon="1.46497">
        <ele>281.32</ele>
        <time>2017-05-08T08:22:09Z</time>
      </trkpt>
      <trkpt lat="45.32109" lon="1.46491">
        <ele>282.28</ele>
        <time>2017-05-08T08:22:14Z</time>
      </trkpt>
      <trkpt lat="45.32135" lon="1.46481">
        <ele>284.21</ele>
        <time>2017-05-08T08:22:28Z</time>
      </trkpt>
      <trkpt lat="45.32161" lon="1.46475">
        <ele>287.57</ele>
        <time>2017-05-08T08:22:44Z</time>
      </trkpt>
      <trkpt lat="45.32163" lon="1.46473">
        <ele>286.61</ele>
        <time>2017-05-08T08:23:04Z</time>
      </trkpt>
      <trkpt lat="45.32164" lon="1.46473">
        <ele>286.13</ele>
        <time>2017-05-08T08:23:14Z</time>
      </trkpt>
      <trkpt lat="45.32184" lon="1.4648">
        <ele>288.05</ele>
        <time>2017-05-08T08:23:26Z</time>
      </trkpt>
      <trkpt lat="45.32216" lon="1.4648">
        <ele>292.86</ele>
        <time>2017-05-08T08:23:39Z</time>
      </trkpt>
      <trkpt lat="45.32253" lon="1.46475">
        <ele>295.26</ele>
        <time>2017-05-08T08:23:51Z</time>
      </trkpt>
      <trkpt lat="45.32275" lon="1.46485">
        <ele>296.7</ele>
        <time>2017-05-08T08:23:57Z</time>
      </trkpt>
      <trkpt lat="45.32279" lon="1.46488">
        <ele>296.7</ele>
        <time>2017-05-08T08:23:58Z</time>
      </trkpt>
      <trkpt lat="45.32283" lon="1.46493">
        <ele>296.22</ele>
        <time>2017-05-08T08:23:59Z</time>
      </trkpt>
      <trkpt lat="45.32286" lon="1.46498">
        <ele>294.78</ele>
        <time>2017-05-08T08:24:00Z</time>
      </trkpt>
      <trkpt lat="45.32289" lon="1.46503">
        <ele>294.3</ele>
        <time>2017-05-08T08:24:01Z</time>
      </trkpt>
      <trkpt lat="45.32291" lon="1.46509">
        <ele>293.34</ele>
        <time>2017-05-08T08:24:02Z</time>
      </trkpt>
      <trkpt lat="45.32302" lon="1.46522">
        <ele>291.9</ele>
        <time>2017-05-08T08:24:06Z</time>
      </trkpt>
      <trkpt lat="45.32304" lon="1.46527">
        <ele>291.9</ele>
        <time>2017-05-08T08:24:08Z</time>
      </trkpt>
      <trkpt lat="45.32303" lon="1.46531">
        <ele>291.9</ele>
        <time>2017-05-08T08:24:09Z</time>
      </trkpt>
      <trkpt lat="45.32302" lon="1.46535">
        <ele>291.42</ele>
        <time>2017-05-08T08:24:10Z</time>
      </trkpt>
      <trkpt lat="45.32301" lon="1.46538">
        <ele>291.42</ele>
        <time>2017-05-08T08:24:11Z</time>
      </trkpt>
      <trkpt lat="45.32301" lon="1.4654">
        <ele>291.42</ele>
        <time>2017-05-08T08:24:12Z</time>
      </trkpt>
      <trkpt lat="45.32303" lon="1.46542">
        <ele>291.42</ele>
        <time>2017-05-08T08:24:13Z</time>
      </trkpt>
      <trkpt lat="45.32304" lon="1.46541">
        <ele>291.42</ele>
        <time>2017-05-08T08:24:14Z</time>
      </trkpt>
      <trkpt lat="45.32304" lon="1.46539">
        <ele>290.94</ele>
        <time>2017-05-08T08:24:15Z</time>
      </trkpt>
      <trkpt lat="45.32304" lon="1.46536">
        <ele>290.94</ele>
        <time>2017-05-08T08:24:16Z</time>
      </trkpt>
      <trkpt lat="45.32304" lon="1.46534">
        <ele>290.94</ele>
        <time>2017-05-08T08:24:17Z</time>
      </trkpt>
      <trkpt lat="45.32305" lon="1.46532">
        <ele>290.94</ele>
        <time>2017-05-08T08:24:18Z</time>
      </trkpt>
      <trkpt lat="45.32305" lon="1.4653">
        <ele>290.94</ele>
        <time>2017-05-08T08:24:19Z</time>
      </trkpt>
      <trkpt lat="45.32306" lon="1.46528">
        <ele>290.94</ele>
        <time>2017-05-08T08:24:20Z</time>
      </trkpt>
      <trkpt lat="45.32307" lon="1.46524">
        <ele>290.94</ele>
        <time>2017-05-08T08:24:22Z</time>
      </trkpt>
      <trkpt lat="45.32309" lon="1.46522">
        <ele>290.94</ele>
        <time>2017-05-08T08:24:23Z</time>
      </trkpt>
      <trkpt lat="45.32311" lon="1.4652">
        <ele>290.94</ele>
        <time>2017-05-08T08:24:24Z</time>
      </trkpt>
      <trkpt lat="45.32328" lon="1.46508">
        <ele>291.9</ele>
        <time>2017-05-08T08:24:34Z</time>
      </trkpt>
      <trkpt lat="45.32342" lon="1.46495">
        <ele>294.3</ele>
        <time>2017-05-08T08:24:45Z</time>
      </trkpt>
      <trkpt lat="45.3236" lon="1.46478">
        <ele>297.18</ele>
        <time>2017-05-08T08:24:57Z</time>
      </trkpt>
      <trkpt lat="45.32381" lon="1.46458">
        <ele>302.95</ele>
        <time>2017-05-08T08:25:11Z</time>
      </trkpt>
      <trkpt lat="45.324" lon="1.46443">
        <ele>307.28</ele>
        <time>2017-05-08T08:25:24Z</time>
      </trkpt>
      <trkpt lat="45.32419" lon="1.46422">
        <ele>309.68</ele>
        <time>2017-05-08T08:25:36Z</time>
      </trkpt>
      <trkpt lat="45.32427" lon="1.4641">
        <ele>312.09</ele>
        <time>2017-05-08T08:25:42Z</time>
      </trkpt>
      <trkpt lat="45.32423" lon="1.46391">
        <ele>314.49</ele>
        <time>2017-05-08T08:25:54Z</time>
      </trkpt>
      <trkpt lat="45.32423" lon="1.46386">
        <ele>314.49</ele>
        <time>2017-05-08T08:25:57Z</time>
      </trkpt>
      <trkpt lat="45.32423" lon="1.46379">
        <ele>314.49</ele>
        <time>2017-05-08T08:26:01Z</time>
      </trkpt>
      <trkpt lat="45.32425" lon="1.46373">
        <ele>315.45</ele>
        <time>2017-05-08T08:26:04Z</time>
      </trkpt>
      <trkpt lat="45.32428" lon="1.46353">
        <ele>314.97</ele>
        <time>2017-05-08T08:26:12Z</time>
      </trkpt>
      <trkpt lat="45.32432" lon="1.46346">
        <ele>315.45</ele>
        <time>2017-05-08T08:26:16Z</time>
      </trkpt>
      <trkpt lat="45.32437" lon="1.46322">
        <ele>315.93</ele>
        <time>2017-05-08T08:26:27Z</time>
      </trkpt>
      <trkpt lat="45.32441" lon="1.46311">
        <ele>317.37</ele>
        <time>2017-05-08T08:26:32Z</time>
      </trkpt>
      <trkpt lat="45.32453" lon="1.46279">
        <ele>322.18</ele>
        <time>2017-05-08T08:26:48Z</time>
      </trkpt>
      <trkpt lat="45.32459" lon="1.46253">
        <ele>325.06</ele>
        <time>2017-05-08T08:27:00Z</time>
      </trkpt>
      <trkpt lat="45.32467" lon="1.4622">
        <ele>329.39</ele>
        <time>2017-05-08T08:27:16Z</time>
      </trkpt>
      <trkpt lat="45.32472" lon="1.46183">
        <ele>329.87</ele>
        <time>2017-05-08T08:27:30Z</time>
      </trkpt>
      <trkpt lat="45.32479" lon="1.46144">
        <ele>332.75</ele>
        <time>2017-05-08T08:27:46Z</time>
      </trkpt>
      <trkpt lat="45.3248" lon="1.46103">
        <ele>332.75</ele>
        <time>2017-05-08T08:28:01Z</time>
      </trkpt>
      <trkpt lat="45.32474" lon="1.46073">
        <ele>334.2</ele>
        <time>2017-05-08T08:28:14Z</time>
      </trkpt>
      <trkpt lat="45.32453" lon="1.46053">
        <ele>339</ele>
        <time>2017-05-08T08:28:26Z</time>
      </trkpt>
      <trkpt lat="45.3245" lon="1.4605">
        <ele>339.96</ele>
        <time>2017-05-08T08:28:28Z</time>
      </trkpt>
      <trkpt lat="45.32449" lon="1.46049">
        <ele>339.96</ele>
        <time>2017-05-08T08:28:29Z</time>
      </trkpt>
      <trkpt lat="45.32449" lon="1.46047">
        <ele>340.44</ele>
        <time>2017-05-08T08:28:30Z</time>
      </trkpt>
      <trkpt lat="45.32449" lon="1.46044">
        <ele>340.92</ele>
        <time>2017-05-08T08:28:31Z</time>
      </trkpt>
      <trkpt lat="45.32449" lon="1.46042">
        <ele>341.41</ele>
        <time>2017-05-08T08:28:32Z</time>
      </trkpt>
      <trkpt lat="45.32449" lon="1.46039">
        <ele>341.41</ele>
        <time>2017-05-08T08:28:33Z</time>
      </trkpt>
      <trkpt lat="45.3245" lon="1.46037">
        <ele>341.89</ele>
        <time>2017-05-08T08:28:34Z</time>
      </trkpt>
      <trkpt lat="45.32449" lon="1.46034">
        <ele>341.89</ele>
        <time>2017-05-08T08:28:35Z</time>
      </trkpt>
      <trkpt lat="45.32449" lon="1.46032">
        <ele>342.37</ele>
        <time>2017-05-08T08:28:36Z</time>
      </trkpt>
      <trkpt lat="45.32448" lon="1.4603">
        <ele>342.37</ele>
        <time>2017-05-08T08:28:37Z</time>
      </trkpt>
      <trkpt lat="45.32447" lon="1.46028">
        <ele>342.37</ele>
        <time>2017-05-08T08:28:38Z</time>
      </trkpt>
      <trkpt lat="45.32447" lon="1.46025">
        <ele>342.37</ele>
        <time>2017-05-08T08:28:39Z</time>
      </trkpt>
      <trkpt lat="45.32447" lon="1.46022">
        <ele>342.37</ele>
        <time>2017-05-08T08:28:40Z</time>
      </trkpt>
      <trkpt lat="45.32447" lon="1.46012">
        <ele>342.37</ele>
        <time>2017-05-08T08:28:44Z</time>
      </trkpt>
      <trkpt lat="45.32446" lon="1.46002">
        <ele>342.85</ele>
        <time>2017-05-08T08:28:48Z</time>
      </trkpt>
      <trkpt lat="45.32438" lon="1.45984">
        <ele>344.77</ele>
        <time>2017-05-08T08:29:00Z</time>
      </trkpt>
      <trkpt lat="45.32433" lon="1.45974">
        <ele>345.73</ele>
        <time>2017-05-08T08:29:05Z</time>
      </trkpt>
      <trkpt lat="45.32423" lon="1.45966">
        <ele>348.13</ele>
        <time>2017-05-08T08:29:10Z</time>
      </trkpt>
      <trkpt lat="45.32401" lon="1.45954">
        <ele>353.42</ele>
        <time>2017-05-08T08:29:17Z</time>
      </trkpt>
      <trkpt lat="45.32376" lon="1.45945">
        <ele>364.48</ele>
        <time>2017-05-08T08:29:29Z</time>
      </trkpt>
      <trkpt lat="45.32348" lon="1.45943">
        <ele>371.21</ele>
        <time>2017-05-08T08:29:42Z</time>
      </trkpt>
      <trkpt lat="45.32338" lon="1.4594">
        <ele>374.09</ele>
        <time>2017-05-08T08:29:48Z</time>
      </trkpt>
      <trkpt lat="45.32316" lon="1.45929">
        <ele>374.09</ele>
        <time>2017-05-08T08:30:00Z</time>
      </trkpt>
      <trkpt lat="45.32304" lon="1.45919">
        <ele>375.05</ele>
        <time>2017-05-08T08:30:09Z</time>
      </trkpt>
      <trkpt lat="45.32296" lon="1.45898">
        <ele>372.65</ele>
        <time>2017-05-08T08:30:19Z</time>
      </trkpt>
      <trkpt lat="45.32299" lon="1.4588">
        <ele>371.69</ele>
        <time>2017-05-08T08:30:26Z</time>
      </trkpt>
      <trkpt lat="45.32302" lon="1.45857">
        <ele>372.65</ele>
        <time>2017-05-08T08:30:36Z</time>
      </trkpt>
      <trkpt lat="45.32301" lon="1.45851">
        <ele>372.17</ele>
        <time>2017-05-08T08:30:39Z</time>
      </trkpt>
      <trkpt lat="45.32303" lon="1.45842">
        <ele>372.17</ele>
        <time>2017-05-08T08:30:43Z</time>
      </trkpt>
      <trkpt lat="45.32308" lon="1.45805">
        <ele>369.76</ele>
        <time>2017-05-08T08:30:56Z</time>
      </trkpt>
      <trkpt lat="45.32308" lon="1.45788">
        <ele>368.8</ele>
        <time>2017-05-08T08:31:02Z</time>
      </trkpt>
      <trkpt lat="45.32307" lon="1.45784">
        <ele>369.28</ele>
        <time>2017-05-08T08:31:03Z</time>
      </trkpt>
      <trkpt lat="45.32304" lon="1.45781">
        <ele>369.28</ele>
        <time>2017-05-08T08:31:04Z</time>
      </trkpt>
      <trkpt lat="45.32258" lon="1.45755">
        <ele>367.84</ele>
        <time>2017-05-08T08:31:15Z</time>
      </trkpt>
      <trkpt lat="45.32231" lon="1.45741">
        <ele>369.76</ele>
        <time>2017-05-08T08:31:26Z</time>
      </trkpt>
      <trkpt lat="45.32231" lon="1.45739">
        <ele>370.24</ele>
        <time>2017-05-08T08:31:27Z</time>
      </trkpt>
      <trkpt lat="45.32233" lon="1.45693">
        <ele>374.57</ele>
        <time>2017-05-08T08:31:38Z</time>
      </trkpt>
      <trkpt lat="45.32232" lon="1.45655">
        <ele>376.97</ele>
        <time>2017-05-08T08:31:49Z</time>
      </trkpt>
      <trkpt lat="45.32231" lon="1.45649">
        <ele>378.42</ele>
        <time>2017-05-08T08:31:51Z</time>
      </trkpt>
      <trkpt lat="45.32231" lon="1.45646">
        <ele>378.9</ele>
        <time>2017-05-08T08:31:52Z</time>
      </trkpt>
      <trkpt lat="45.32231" lon="1.45643">
        <ele>379.38</ele>
        <time>2017-05-08T08:31:53Z</time>
      </trkpt>
      <trkpt lat="45.32228" lon="1.45611">
        <ele>382.26</ele>
        <time>2017-05-08T08:32:03Z</time>
      </trkpt>
      <trkpt lat="45.32227" lon="1.45596">
        <ele>382.74</ele>
        <time>2017-05-08T08:32:07Z</time>
      </trkpt>
      <trkpt lat="45.32227" lon="1.45593">
        <ele>382.74</ele>
        <time>2017-05-08T08:32:08Z</time>
      </trkpt>
      <trkpt lat="45.32227" lon="1.45591">
        <ele>382.74</ele>
        <time>2017-05-08T08:32:09Z</time>
      </trkpt>
      <trkpt lat="45.32227" lon="1.45588">
        <ele>383.22</ele>
        <time>2017-05-08T08:32:10Z</time>
      </trkpt>
      <trkpt lat="45.32227" lon="1.45585">
        <ele>383.22</ele>
        <time>2017-05-08T08:32:11Z</time>
      </trkpt>
      <trkpt lat="45.32227" lon="1.45582">
        <ele>383.7</ele>
        <time>2017-05-08T08:32:12Z</time>
      </trkpt>
      <trkpt lat="45.32227" lon="1.45578">
        <ele>384.18</ele>
        <time>2017-05-08T08:32:13Z</time>
      </trkpt>
      <trkpt lat="45.32229" lon="1.45537">
        <ele>387.07</ele>
        <time>2017-05-08T08:32:26Z</time>
      </trkpt>
      <trkpt lat="45.32228" lon="1.45498">
        <ele>390.91</ele>
        <time>2017-05-08T08:32:38Z</time>
      </trkpt>
      <trkpt lat="45.32233" lon="1.45459">
        <ele>392.84</ele>
        <time>2017-05-08T08:32:49Z</time>
      </trkpt>
      <trkpt lat="45.32246" lon="1.45414">
        <ele>393.32</ele>
        <time>2017-05-08T08:33:02Z</time>
      </trkpt>
      <trkpt lat="45.3227" lon="1.45365">
        <ele>394.28</ele>
        <time>2017-05-08T08:33:18Z</time>
      </trkpt>
      <trkpt lat="45.32289" lon="1.45318">
        <ele>396.68</ele>
        <time>2017-05-08T08:33:33Z</time>
      </trkpt>
      <trkpt lat="45.32305" lon="1.45277">
        <ele>399.08</ele>
        <time>2017-05-08T08:33:46Z</time>
      </trkpt>
      <trkpt lat="45.32328" lon="1.45252">
        <ele>399.57</ele>
        <time>2017-05-08T08:33:59Z</time>
      </trkpt>
      <trkpt lat="45.32332" lon="1.45253">
        <ele>399.57</ele>
        <time>2017-05-08T08:34:00Z</time>
      </trkpt>
      <trkpt lat="45.32335" lon="1.45256">
        <ele>399.57</ele>
        <time>2017-05-08T08:34:01Z</time>
      </trkpt>
      <trkpt lat="45.32337" lon="1.45259">
        <ele>399.57</ele>
        <time>2017-05-08T08:34:02Z</time>
      </trkpt>
      <trkpt lat="45.3234" lon="1.45262">
        <ele>399.08</ele>
        <time>2017-05-08T08:34:03Z</time>
      </trkpt>
      <trkpt lat="45.32344" lon="1.45265">
        <ele>399.08</ele>
        <time>2017-05-08T08:34:04Z</time>
      </trkpt>
      <trkpt lat="45.32347" lon="1.45268">
        <ele>399.08</ele>
        <time>2017-05-08T08:34:05Z</time>
      </trkpt>
      <trkpt lat="45.32351" lon="1.45271">
        <ele>398.6</ele>
        <time>2017-05-08T08:34:06Z</time>
      </trkpt>
      <trkpt lat="45.32355" lon="1.45274">
        <ele>398.6</ele>
        <time>2017-05-08T08:34:07Z</time>
      </trkpt>
      <trkpt lat="45.32434" lon="1.45334">
        <ele>395.24</ele>
        <time>2017-05-08T08:34:21Z</time>
      </trkpt>
      <trkpt lat="45.32545" lon="1.45402">
        <ele>389.47</ele>
        <time>2017-05-08T08:34:37Z</time>
      </trkpt>
      <trkpt lat="45.32684" lon="1.45474">
        <ele>384.66</ele>
        <time>2017-05-08T08:34:56Z</time>
      </trkpt>
      <trkpt lat="45.32786" lon="1.45518">
        <ele>382.74</ele>
        <time>2017-05-08T08:35:11Z</time>
      </trkpt>
      <trkpt lat="45.32803" lon="1.45533">
        <ele>382.74</ele>
        <time>2017-05-08T08:35:14Z</time>
      </trkpt>
      <trkpt lat="45.32808" lon="1.45537">
        <ele>383.22</ele>
        <time>2017-05-08T08:35:15Z</time>
      </trkpt>
      <trkpt lat="45.32855" lon="1.4559">
        <ele>386.59</ele>
        <time>2017-05-08T08:35:27Z</time>
      </trkpt>
      <trkpt lat="45.32897" lon="1.45604">
        <ele>389.47</ele>
        <time>2017-05-08T08:35:39Z</time>
      </trkpt>
      <trkpt lat="45.32943" lon="1.45612">
        <ele>389.95</ele>
        <time>2017-05-08T08:35:53Z</time>
      </trkpt>
      <trkpt lat="45.32958" lon="1.45621">
        <ele>389.95</ele>
        <time>2017-05-08T08:35:56Z</time>
      </trkpt>
      <trkpt lat="45.32982" lon="1.45629">
        <ele>390.43</ele>
        <time>2017-05-08T08:36:00Z</time>
      </trkpt>
      <trkpt lat="45.32988" lon="1.45628">
        <ele>390.43</ele>
        <time>2017-05-08T08:36:01Z</time>
      </trkpt>
      <trkpt lat="45.33002" lon="1.45625">
        <ele>389.95</ele>
        <time>2017-05-08T08:36:04Z</time>
      </trkpt>
      <trkpt lat="45.33006" lon="1.45622">
        <ele>389.95</ele>
        <time>2017-05-08T08:36:05Z</time>
      </trkpt>
      <trkpt lat="45.33009" lon="1.45619">
        <ele>389.95</ele>
        <time>2017-05-08T08:36:06Z</time>
      </trkpt>
      <trkpt lat="45.33013" lon="1.45615">
        <ele>389.95</ele>
        <time>2017-05-08T08:36:07Z</time>
      </trkpt>
      <trkpt lat="45.33016" lon="1.45611">
        <ele>389.47</ele>
        <time>2017-05-08T08:36:08Z</time>
      </trkpt>
      <trkpt lat="45.33022" lon="1.45601">
        <ele>388.51</ele>
        <time>2017-05-08T08:36:10Z</time>
      </trkpt>
      <trkpt lat="45.33073" lon="1.45531">
        <ele>386.11</ele>
        <time>2017-05-08T08:36:22Z</time>
      </trkpt>
      <trkpt lat="45.33129" lon="1.45456">
        <ele>381.3</ele>
        <time>2017-05-08T08:36:35Z</time>
      </trkpt>
      <trkpt lat="45.33158" lon="1.45415">
        <ele>378.9</ele>
        <time>2017-05-08T08:36:42Z</time>
      </trkpt>
      <trkpt lat="45.33161" lon="1.45408">
        <ele>378.42</ele>
        <time>2017-05-08T08:36:43Z</time>
      </trkpt>
      <trkpt lat="45.33161" lon="1.45401">
        <ele>377.94</ele>
        <time>2017-05-08T08:36:44Z</time>
      </trkpt>
      <trkpt lat="45.3316" lon="1.45394">
        <ele>377.45</ele>
        <time>2017-05-08T08:36:45Z</time>
      </trkpt>
      <trkpt lat="45.33137" lon="1.45321">
        <ele>373.13</ele>
        <time>2017-05-08T08:36:55Z</time>
      </trkpt>
      <trkpt lat="45.33136" lon="1.45314">
        <ele>373.13</ele>
        <time>2017-05-08T08:36:56Z</time>
      </trkpt>
      <trkpt lat="45.33136" lon="1.45306">
        <ele>372.65</ele>
        <time>2017-05-08T08:36:57Z</time>
      </trkpt>
      <trkpt lat="45.33146" lon="1.45204">
        <ele>371.21</ele>
        <time>2017-05-08T08:37:10Z</time>
      </trkpt>
      <trkpt lat="45.33147" lon="1.45197">
        <ele>371.21</ele>
        <time>2017-05-08T08:37:11Z</time>
      </trkpt>
      <trkpt lat="45.33156" lon="1.45145">
        <ele>370.73</ele>
        <time>2017-05-08T08:37:19Z</time>
      </trkpt>
      <trkpt lat="45.33156" lon="1.4514">
        <ele>370.73</ele>
        <time>2017-05-08T08:37:20Z</time>
      </trkpt>
      <trkpt lat="45.3316" lon="1.45102">
        <ele>371.69</ele>
        <time>2017-05-08T08:37:27Z</time>
      </trkpt>
      <trkpt lat="45.3316" lon="1.45095">
        <ele>371.69</ele>
        <time>2017-05-08T08:37:28Z</time>
      </trkpt>
      <trkpt lat="45.3316" lon="1.45088">
        <ele>371.69</ele>
        <time>2017-05-08T08:37:29Z</time>
      </trkpt>
      <trkpt lat="45.3316" lon="1.45081">
        <ele>371.69</ele>
        <time>2017-05-08T08:37:30Z</time>
      </trkpt>
      <trkpt lat="45.3316" lon="1.45072">
        <ele>371.69</ele>
        <time>2017-05-08T08:37:31Z</time>
      </trkpt>
      <trkpt lat="45.33161" lon="1.45064">
        <ele>371.69</ele>
        <time>2017-05-08T08:37:32Z</time>
      </trkpt>
      <trkpt lat="45.33162" lon="1.45057">
        <ele>371.21</ele>
        <time>2017-05-08T08:37:33Z</time>
      </trkpt>
      <trkpt lat="45.33165" lon="1.45053">
        <ele>371.21</ele>
        <time>2017-05-08T08:37:34Z</time>
      </trkpt>
      <trkpt lat="45.33167" lon="1.45049">
        <ele>370.73</ele>
        <time>2017-05-08T08:37:35Z</time>
      </trkpt>
      <trkpt lat="45.33169" lon="1.45046">
        <ele>370.73</ele>
        <time>2017-05-08T08:37:36Z</time>
      </trkpt>
      <trkpt lat="45.3317" lon="1.45041">
        <ele>370.24</ele>
        <time>2017-05-08T08:37:37Z</time>
      </trkpt>
      <trkpt lat="45.33168" lon="1.45036">
        <ele>369.76</ele>
        <time>2017-05-08T08:37:38Z</time>
      </trkpt>
      <trkpt lat="45.33166" lon="1.4503">
        <ele>368.8</ele>
        <time>2017-05-08T08:37:39Z</time>
      </trkpt>
      <trkpt lat="45.33162" lon="1.45025">
        <ele>368.32</ele>
        <time>2017-05-08T08:37:40Z</time>
      </trkpt>
      <trkpt lat="45.33148" lon="1.45001">
        <ele>365.92</ele>
        <time>2017-05-08T08:37:45Z</time>
      </trkpt>
      <trkpt lat="45.33136" lon="1.44976">
        <ele>363.52</ele>
        <time>2017-05-08T08:37:50Z</time>
      </trkpt>
      <trkpt lat="45.33136" lon="1.4496">
        <ele>362.07</ele>
        <time>2017-05-08T08:37:52Z</time>
      </trkpt>
      <trkpt lat="45.33136" lon="1.44953">
        <ele>357.27</ele>
        <time>2017-05-08T08:38:05Z</time>
      </trkpt>
      <trkpt lat="45.33139" lon="1.44936">
        <ele>357.27</ele>
        <time>2017-05-08T08:38:09Z</time>
      </trkpt>
      <trkpt lat="45.33144" lon="1.44914">
        <ele>356.79</ele>
        <time>2017-05-08T08:38:12Z</time>
      </trkpt>
      <trkpt lat="45.3317" lon="1.44871">
        <ele>352.94</ele>
        <time>2017-05-08T08:38:19Z</time>
      </trkpt>
      <trkpt lat="45.3317" lon="1.44852">
        <ele>351.5</ele>
        <time>2017-05-08T08:38:21Z</time>
      </trkpt>
      <trkpt lat="45.33168" lon="1.44836">
        <ele>349.58</ele>
        <time>2017-05-08T08:38:23Z</time>
      </trkpt>
      <trkpt lat="45.33145" lon="1.44811">
        <ele>343.33</ele>
        <time>2017-05-08T08:38:30Z</time>
      </trkpt>
      <trkpt lat="45.33142" lon="1.44806">
        <ele>343.33</ele>
        <time>2017-05-08T08:38:31Z</time>
      </trkpt>
      <trkpt lat="45.3314" lon="1.44741">
        <ele>340.44</ele>
        <time>2017-05-08T08:38:39Z</time>
      </trkpt>
      <trkpt lat="45.33141" lon="1.44724">
        <ele>339.96</ele>
        <time>2017-05-08T08:38:41Z</time>
      </trkpt>
      <trkpt lat="45.33143" lon="1.44666">
        <ele>337.56</ele>
        <time>2017-05-08T08:38:47Z</time>
      </trkpt>
      <trkpt lat="45.33147" lon="1.44624">
        <ele>334.68</ele>
        <time>2017-05-08T08:38:51Z</time>
      </trkpt>
      <trkpt lat="45.33134" lon="1.44559">
        <ele>329.87</ele>
        <time>2017-05-08T08:38:57Z</time>
      </trkpt>
      <trkpt lat="45.33122" lon="1.44534">
        <ele>326.5</ele>
        <time>2017-05-08T08:39:00Z</time>
      </trkpt>
      <trkpt lat="45.3311" lon="1.44494">
        <ele>321.22</ele>
        <time>2017-05-08T08:39:04Z</time>
      </trkpt>
      <trkpt lat="45.33099" lon="1.44413">
        <ele>312.57</ele>
        <time>2017-05-08T08:39:11Z</time>
      </trkpt>
      <trkpt lat="45.331" lon="1.44347">
        <ele>305.84</ele>
        <time>2017-05-08T08:39:16Z</time>
      </trkpt>
      <trkpt lat="45.33113" lon="1.44272">
        <ele>299.59</ele>
        <time>2017-05-08T08:39:22Z</time>
      </trkpt>
      <trkpt lat="45.33116" lon="1.44263">
        <ele>299.11</ele>
        <time>2017-05-08T08:39:23Z</time>
      </trkpt>
      <trkpt lat="45.33117" lon="1.44257">
        <ele>299.11</ele>
        <time>2017-05-08T08:39:24Z</time>
      </trkpt>
      <trkpt lat="45.33115" lon="1.44255">
        <ele>299.11</ele>
        <time>2017-05-08T08:39:25Z</time>
      </trkpt>
      <trkpt lat="45.33114" lon="1.44263">
        <ele>299.11</ele>
        <time>2017-05-08T08:39:27Z</time>
      </trkpt>
      <trkpt lat="45.33112" lon="1.44269">
        <ele>298.63</ele>
        <time>2017-05-08T08:39:28Z</time>
      </trkpt>
      <trkpt lat="45.33108" lon="1.44283">
        <ele>299.11</ele>
        <time>2017-05-08T08:39:30Z</time>
      </trkpt>
      <trkpt lat="45.33104" lon="1.4429">
        <ele>298.63</ele>
        <time>2017-05-08T08:39:31Z</time>
      </trkpt>
      <trkpt lat="45.331" lon="1.44297">
        <ele>298.15</ele>
        <time>2017-05-08T08:39:32Z</time>
      </trkpt>
      <trkpt lat="45.33094" lon="1.44304">
        <ele>297.67</ele>
        <time>2017-05-08T08:39:33Z</time>
      </trkpt>
      <trkpt lat="45.33087" lon="1.44309">
        <ele>297.67</ele>
        <time>2017-05-08T08:39:34Z</time>
      </trkpt>
      <trkpt lat="45.33079" lon="1.44311">
        <ele>297.18</ele>
        <time>2017-05-08T08:39:35Z</time>
      </trkpt>
      <trkpt lat="45.33071" lon="1.4431">
        <ele>296.7</ele>
        <time>2017-05-08T08:39:36Z</time>
      </trkpt>
      <trkpt lat="45.33063" lon="1.44306">
        <ele>296.22</ele>
        <time>2017-05-08T08:39:37Z</time>
      </trkpt>
      <trkpt lat="45.33055" lon="1.443">
        <ele>295.26</ele>
        <time>2017-05-08T08:39:38Z</time>
      </trkpt>
      <trkpt lat="45.33048" lon="1.44293">
        <ele>295.26</ele>
        <time>2017-05-08T08:39:39Z</time>
      </trkpt>
      <trkpt lat="45.32996" lon="1.44243">
        <ele>294.3</ele>
        <time>2017-05-08T08:39:46Z</time>
      </trkpt>
      <trkpt lat="45.32989" lon="1.4424">
        <ele>294.3</ele>
        <time>2017-05-08T08:39:47Z</time>
      </trkpt>
      <trkpt lat="45.32981" lon="1.4424">
        <ele>294.3</ele>
        <time>2017-05-08T08:39:48Z</time>
      </trkpt>
      <trkpt lat="45.32973" lon="1.44241">
        <ele>294.3</ele>
        <time>2017-05-08T08:39:49Z</time>
      </trkpt>
      <trkpt lat="45.32965" lon="1.44242">
        <ele>294.78</ele>
        <time>2017-05-08T08:39:50Z</time>
      </trkpt>
      <trkpt lat="45.32958" lon="1.44244">
        <ele>294.78</ele>
        <time>2017-05-08T08:39:51Z</time>
      </trkpt>
      <trkpt lat="45.32929" lon="1.4425">
        <ele>297.18</ele>
        <time>2017-05-08T08:39:55Z</time>
      </trkpt>
      <trkpt lat="45.32922" lon="1.44249">
        <ele>297.67</ele>
        <time>2017-05-08T08:39:56Z</time>
      </trkpt>
      <trkpt lat="45.32893" lon="1.44241">
        <ele>302.47</ele>
        <time>2017-05-08T08:40:02Z</time>
      </trkpt>
      <trkpt lat="45.32866" lon="1.44249">
        <ele>306.8</ele>
        <time>2017-05-08T08:40:12Z</time>
      </trkpt>
      <trkpt lat="45.32856" lon="1.44256">
        <ele>308.72</ele>
        <time>2017-05-08T08:40:17Z</time>
      </trkpt>
      <trkpt lat="45.32853" lon="1.44256">
        <ele>309.2</ele>
        <time>2017-05-08T08:40:18Z</time>
      </trkpt>
      <trkpt lat="45.3285" lon="1.44256">
        <ele>309.2</ele>
        <time>2017-05-08T08:40:19Z</time>
      </trkpt>
      <trkpt lat="45.32847" lon="1.44257">
        <ele>309.68</ele>
        <time>2017-05-08T08:40:20Z</time>
      </trkpt>
      <trkpt lat="45.32843" lon="1.44257">
        <ele>309.68</ele>
        <time>2017-05-08T08:40:21Z</time>
      </trkpt>
      <trkpt lat="45.32806" lon="1.44264">
        <ele>311.12</ele>
        <time>2017-05-08T08:40:32Z</time>
      </trkpt>
      <trkpt lat="45.32765" lon="1.4426">
        <ele>314.49</ele>
        <time>2017-05-08T08:40:44Z</time>
      </trkpt>
      <trkpt lat="45.32725" lon="1.44257">
        <ele>315.45</ele>
        <time>2017-05-08T08:40:52Z</time>
      </trkpt>
      <trkpt lat="45.32719" lon="1.44258">
        <ele>314.97</ele>
        <time>2017-05-08T08:40:53Z</time>
      </trkpt>
      <trkpt lat="45.32708" lon="1.44258">
        <ele>315.45</ele>
        <time>2017-05-08T08:40:56Z</time>
      </trkpt>
      <trkpt lat="45.32693" lon="1.44247">
        <ele>318.81</ele>
        <time>2017-05-08T08:41:05Z</time>
      </trkpt>
      <trkpt lat="45.32697" lon="1.44216">
        <ele>321.22</ele>
        <time>2017-05-08T08:41:14Z</time>
      </trkpt>
      <trkpt lat="45.32698" lon="1.44213">
        <ele>321.7</ele>
        <time>2017-05-08T08:41:15Z</time>
      </trkpt>
      <trkpt lat="45.32698" lon="1.4421">
        <ele>322.18</ele>
        <time>2017-05-08T08:41:16Z</time>
      </trkpt>
      <trkpt lat="45.32699" lon="1.44201">
        <ele>323.62</ele>
        <time>2017-05-08T08:41:18Z</time>
      </trkpt>
      <trkpt lat="45.32681" lon="1.44168">
        <ele>323.14</ele>
        <time>2017-05-08T08:41:27Z</time>
      </trkpt>
      <trkpt lat="45.32663" lon="1.44146">
        <ele>318.81</ele>
        <time>2017-05-08T08:41:33Z</time>
      </trkpt>
      <trkpt lat="45.32633" lon="1.44155">
        <ele>320.26</ele>
        <time>2017-05-08T08:41:43Z</time>
      </trkpt>
      <trkpt lat="45.32605" lon="1.4418">
        <ele>324.1</ele>
        <time>2017-05-08T08:41:55Z</time>
      </trkpt>
      <trkpt lat="45.32598" lon="1.44209">
        <ele>328.43</ele>
        <time>2017-05-08T08:42:06Z</time>
      </trkpt>
      <trkpt lat="45.32583" lon="1.44222">
        <ele>330.83</ele>
        <time>2017-05-08T08:42:17Z</time>
      </trkpt>
      <trkpt lat="45.32567" lon="1.44222">
        <ele>335.16</ele>
        <time>2017-05-08T08:42:29Z</time>
      </trkpt>
      <trkpt lat="45.32564" lon="1.44218">
        <ele>335.64</ele>
        <time>2017-05-08T08:42:32Z</time>
      </trkpt>
      <trkpt lat="45.32555" lon="1.44215">
        <ele>337.08</ele>
        <time>2017-05-08T08:42:37Z</time>
      </trkpt>
      <trkpt lat="45.32529" lon="1.44231">
        <ele>341.41</ele>
        <time>2017-05-08T08:42:49Z</time>
      </trkpt>
      <trkpt lat="45.32507" lon="1.44241">
        <ele>345.73</ele>
        <time>2017-05-08T08:43:00Z</time>
      </trkpt>
      <trkpt lat="45.3249" lon="1.44254">
        <ele>348.13</ele>
        <time>2017-05-08T08:43:10Z</time>
      </trkpt>
      <trkpt lat="45.32484" lon="1.4426">
        <ele>348.62</ele>
        <time>2017-05-08T08:43:14Z</time>
      </trkpt>
      <trkpt lat="45.32482" lon="1.4426">
        <ele>348.62</ele>
        <time>2017-05-08T08:43:15Z</time>
      </trkpt>
      <trkpt lat="45.32479" lon="1.4426">
        <ele>349.58</ele>
        <time>2017-05-08T08:43:17Z</time>
      </trkpt>
      <trkpt lat="45.32476" lon="1.44259">
        <ele>349.58</ele>
        <time>2017-05-08T08:43:18Z</time>
      </trkpt>
      <trkpt lat="45.32474" lon="1.44259">
        <ele>350.06</ele>
        <time>2017-05-08T08:43:19Z</time>
      </trkpt>
      <trkpt lat="45.3244" lon="1.44272">
        <ele>349.58</ele>
        <time>2017-05-08T08:43:25Z</time>
      </trkpt>
      <trkpt lat="45.32406" lon="1.44285">
        <ele>348.62</ele>
        <time>2017-05-08T08:43:30Z</time>
      </trkpt>
      <trkpt lat="45.32393" lon="1.44293">
        <ele>347.65</ele>
        <time>2017-05-08T08:43:32Z</time>
      </trkpt>
      <trkpt lat="45.32386" lon="1.44297">
        <ele>347.65</ele>
        <time>2017-05-08T08:43:33Z</time>
      </trkpt>
      <trkpt lat="45.32367" lon="1.44308">
        <ele>346.69</ele>
        <time>2017-05-08T08:43:36Z</time>
      </trkpt>
      <trkpt lat="45.32348" lon="1.44316">
        <ele>346.21</ele>
        <time>2017-05-08T08:43:39Z</time>
      </trkpt>
      <trkpt lat="45.32342" lon="1.44316">
        <ele>345.73</ele>
        <time>2017-05-08T08:43:40Z</time>
      </trkpt>
      <trkpt lat="45.32337" lon="1.44315">
        <ele>345.73</ele>
        <time>2017-05-08T08:43:41Z</time>
      </trkpt>
      <trkpt lat="45.32332" lon="1.44311">
        <ele>345.25</ele>
        <time>2017-05-08T08:43:42Z</time>
      </trkpt>
      <trkpt lat="45.32329" lon="1.44305">
        <ele>345.25</ele>
        <time>2017-05-08T08:43:43Z</time>
      </trkpt>
      <trkpt lat="45.32327" lon="1.44299">
        <ele>344.77</ele>
        <time>2017-05-08T08:43:44Z</time>
      </trkpt>
      <trkpt lat="45.32326" lon="1.44292">
        <ele>344.29</ele>
        <time>2017-05-08T08:43:45Z</time>
      </trkpt>
      <trkpt lat="45.32325" lon="1.44286">
        <ele>343.81</ele>
        <time>2017-05-08T08:43:46Z</time>
      </trkpt>
      <trkpt lat="45.32325" lon="1.44281">
        <ele>343.33</ele>
        <time>2017-05-08T08:43:47Z</time>
      </trkpt>
      <trkpt lat="45.32326" lon="1.44275">
        <ele>342.85</ele>
        <time>2017-05-08T08:43:48Z</time>
      </trkpt>
      <trkpt lat="45.32328" lon="1.44258">
        <ele>342.37</ele>
        <time>2017-05-08T08:43:51Z</time>
      </trkpt>
      <trkpt lat="45.32329" lon="1.44253">
        <ele>342.37</ele>
        <time>2017-05-08T08:43:52Z</time>
      </trkpt>
      <trkpt lat="45.32329" lon="1.44249">
        <ele>342.85</ele>
        <time>2017-05-08T08:43:53Z</time>
      </trkpt>
      <trkpt lat="45.32329" lon="1.44245">
        <ele>343.33</ele>
        <time>2017-05-08T08:43:54Z</time>
      </trkpt>
      <trkpt lat="45.32328" lon="1.44241">
        <ele>343.81</ele>
        <time>2017-05-08T08:43:55Z</time>
      </trkpt>
      <trkpt lat="45.32319" lon="1.44203">
        <ele>347.17</ele>
        <time>2017-05-08T08:44:05Z</time>
      </trkpt>
      <trkpt lat="45.32305" lon="1.44166">
        <ele>350.06</ele>
        <time>2017-05-08T08:44:17Z</time>
      </trkpt>
      <trkpt lat="45.32299" lon="1.44159">
        <ele>352.94</ele>
        <time>2017-05-08T08:44:21Z</time>
      </trkpt>
      <trkpt lat="45.32297" lon="1.44156">
        <ele>353.42</ele>
        <time>2017-05-08T08:44:22Z</time>
      </trkpt>
      <trkpt lat="45.32295" lon="1.44154">
        <ele>353.9</ele>
        <time>2017-05-08T08:44:23Z</time>
      </trkpt>
      <trkpt lat="45.32277" lon="1.44137">
        <ele>353.9</ele>
        <time>2017-05-08T08:44:32Z</time>
      </trkpt>
      <trkpt lat="45.32276" lon="1.44134">
        <ele>353.42</ele>
        <time>2017-05-08T08:44:33Z</time>
      </trkpt>
      <trkpt lat="45.32274" lon="1.44132">
        <ele>353.42</ele>
        <time>2017-05-08T08:44:34Z</time>
      </trkpt>
      <trkpt lat="45.32272" lon="1.4413">
        <ele>353.42</ele>
        <time>2017-05-08T08:44:35Z</time>
      </trkpt>
      <trkpt lat="45.32271" lon="1.44129">
        <ele>353.42</ele>
        <time>2017-05-08T08:44:36Z</time>
      </trkpt>
      <trkpt lat="45.32269" lon="1.44127">
        <ele>353.9</ele>
        <time>2017-05-08T08:44:37Z</time>
      </trkpt>
      <trkpt lat="45.32269" lon="1.44125">
        <ele>353.9</ele>
        <time>2017-05-08T08:44:38Z</time>
      </trkpt>
      <trkpt lat="45.32261" lon="1.44115">
        <ele>356.79</ele>
        <time>2017-05-08T08:44:44Z</time>
      </trkpt>
      <trkpt lat="45.32254" lon="1.44111">
        <ele>359.67</ele>
        <time>2017-05-08T08:44:50Z</time>
      </trkpt>
      <trkpt lat="45.32253" lon="1.44109">
        <ele>360.15</ele>
        <time>2017-05-08T08:44:51Z</time>
      </trkpt>
      <trkpt lat="45.32234" lon="1.44088">
        <ele>363.52</ele>
        <time>2017-05-08T08:45:05Z</time>
      </trkpt>
      <trkpt lat="45.32224" lon="1.44076">
        <ele>364</ele>
        <time>2017-05-08T08:45:09Z</time>
      </trkpt>
      <trkpt lat="45.32218" lon="1.44073">
        <ele>365.44</ele>
        <time>2017-05-08T08:45:13Z</time>
      </trkpt>
      <trkpt lat="45.32216" lon="1.44072">
        <ele>365.44</ele>
        <time>2017-05-08T08:45:14Z</time>
      </trkpt>
      <trkpt lat="45.32215" lon="1.44071">
        <ele>365.92</ele>
        <time>2017-05-08T08:45:15Z</time>
      </trkpt>
      <trkpt lat="45.32213" lon="1.4407">
        <ele>366.4</ele>
        <time>2017-05-08T08:45:16Z</time>
      </trkpt>
      <trkpt lat="45.32211" lon="1.44069">
        <ele>366.88</ele>
        <time>2017-05-08T08:45:17Z</time>
      </trkpt>
      <trkpt lat="45.32191" lon="1.44059">
        <ele>368.32</ele>
        <time>2017-05-08T08:45:27Z</time>
      </trkpt>
      <trkpt lat="45.32164" lon="1.44053">
        <ele>373.61</ele>
        <time>2017-05-08T08:45:40Z</time>
      </trkpt>
      <trkpt lat="45.3216" lon="1.4405">
        <ele>374.57</ele>
        <time>2017-05-08T08:45:42Z</time>
      </trkpt>
      <trkpt lat="45.32159" lon="1.44049">
        <ele>375.05</ele>
        <time>2017-05-08T08:45:43Z</time>
      </trkpt>
      <trkpt lat="45.32154" lon="1.44048">
        <ele>376.01</ele>
        <time>2017-05-08T08:45:46Z</time>
      </trkpt>
      <trkpt lat="45.32147" lon="1.44044">
        <ele>376.97</ele>
        <time>2017-05-08T08:45:51Z</time>
      </trkpt>
      <trkpt lat="45.32137" lon="1.44033">
        <ele>377.94</ele>
        <time>2017-05-08T08:45:58Z</time>
      </trkpt>
      <trkpt lat="45.32134" lon="1.44032">
        <ele>377.94</ele>
        <time>2017-05-08T08:45:59Z</time>
      </trkpt>
      <trkpt lat="45.32133" lon="1.4403">
        <ele>377.94</ele>
        <time>2017-05-08T08:46:00Z</time>
      </trkpt>
      <trkpt lat="45.32132" lon="1.44028">
        <ele>377.94</ele>
        <time>2017-05-08T08:46:01Z</time>
      </trkpt>
      <trkpt lat="45.3213" lon="1.44025">
        <ele>377.94</ele>
        <time>2017-05-08T08:46:02Z</time>
      </trkpt>
      <trkpt lat="45.32129" lon="1.44023">
        <ele>378.42</ele>
        <time>2017-05-08T08:46:03Z</time>
      </trkpt>
      <trkpt lat="45.32128" lon="1.44021">
        <ele>378.9</ele>
        <time>2017-05-08T08:46:04Z</time>
      </trkpt>
      <trkpt lat="45.32126" lon="1.44018">
        <ele>378.42</ele>
        <time>2017-05-08T08:46:05Z</time>
      </trkpt>
      <trkpt lat="45.32124" lon="1.44015">
        <ele>378.9</ele>
        <time>2017-05-08T08:46:06Z</time>
      </trkpt>
      <trkpt lat="45.32122" lon="1.44012">
        <ele>379.38</ele>
        <time>2017-05-08T08:46:07Z</time>
      </trkpt>
      <trkpt lat="45.32118" lon="1.43997">
        <ele>381.78</ele>
        <time>2017-05-08T08:46:12Z</time>
      </trkpt>
      <trkpt lat="45.32117" lon="1.43995">
        <ele>381.78</ele>
        <time>2017-05-08T08:46:13Z</time>
      </trkpt>
      <trkpt lat="45.32117" lon="1.43992">
        <ele>382.26</ele>
        <time>2017-05-08T08:46:14Z</time>
      </trkpt>
      <trkpt lat="45.32117" lon="1.43989">
        <ele>382.74</ele>
        <time>2017-05-08T08:46:15Z</time>
      </trkpt>
      <trkpt lat="45.32118" lon="1.43987">
        <ele>383.22</ele>
        <time>2017-05-08T08:46:16Z</time>
      </trkpt>
      <trkpt lat="45.32118" lon="1.43985">
        <ele>383.7</ele>
        <time>2017-05-08T08:46:17Z</time>
      </trkpt>
      <trkpt lat="45.3212" lon="1.43974">
        <ele>386.59</ele>
        <time>2017-05-08T08:46:21Z</time>
      </trkpt>
      <trkpt lat="45.32123" lon="1.43957">
        <ele>387.07</ele>
        <time>2017-05-08T08:46:28Z</time>
      </trkpt>
      <trkpt lat="45.32116" lon="1.43925">
        <ele>382.26</ele>
        <time>2017-05-08T08:46:42Z</time>
      </trkpt>
      <trkpt lat="45.3211" lon="1.43901">
        <ele>379.86</ele>
        <time>2017-05-08T08:46:51Z</time>
      </trkpt>
      <trkpt lat="45.32109" lon="1.43899">
        <ele>379.86</ele>
        <time>2017-05-08T08:46:52Z</time>
      </trkpt>
      <trkpt lat="45.32108" lon="1.43895">
        <ele>379.38</ele>
        <time>2017-05-08T08:46:53Z</time>
      </trkpt>
      <trkpt lat="45.32107" lon="1.43892">
        <ele>379.38</ele>
        <time>2017-05-08T08:46:54Z</time>
      </trkpt>
      <trkpt lat="45.32105" lon="1.43887">
        <ele>378.9</ele>
        <time>2017-05-08T08:46:55Z</time>
      </trkpt>
      <trkpt lat="45.32103" lon="1.43884">
        <ele>378.9</ele>
        <time>2017-05-08T08:46:56Z</time>
      </trkpt>
      <trkpt lat="45.32089" lon="1.43857">
        <ele>376.97</ele>
        <time>2017-05-08T08:47:03Z</time>
      </trkpt>
      <trkpt lat="45.32087" lon="1.43854">
        <ele>376.97</ele>
        <time>2017-05-08T08:47:04Z</time>
      </trkpt>
      <trkpt lat="45.32086" lon="1.4385">
        <ele>376.97</ele>
        <time>2017-05-08T08:47:05Z</time>
      </trkpt>
      <trkpt lat="45.32086" lon="1.43847">
        <ele>377.45</ele>
        <time>2017-05-08T08:47:06Z</time>
      </trkpt>
      <trkpt lat="45.32084" lon="1.43843">
        <ele>377.94</ele>
        <time>2017-05-08T08:47:07Z</time>
      </trkpt>
      <trkpt lat="45.32082" lon="1.43839">
        <ele>378.42</ele>
        <time>2017-05-08T08:47:08Z</time>
      </trkpt>
      <trkpt lat="45.32081" lon="1.43835">
        <ele>379.38</ele>
        <time>2017-05-08T08:47:09Z</time>
      </trkpt>
      <trkpt lat="45.3207" lon="1.43803">
        <ele>383.22</ele>
        <time>2017-05-08T08:47:19Z</time>
      </trkpt>
      <trkpt lat="45.32087" lon="1.43787">
        <ele>381.78</ele>
        <time>2017-05-08T08:47:28Z</time>
      </trkpt>
      <trkpt lat="45.32147" lon="1.43783">
        <ele>378.42</ele>
        <time>2017-05-08T08:47:37Z</time>
      </trkpt>
      <trkpt lat="45.32249" lon="1.4378">
        <ele>369.28</ele>
        <time>2017-05-08T08:47:48Z</time>
      </trkpt>
      <trkpt lat="45.32277" lon="1.43774">
        <ele>366.4</ele>
        <time>2017-05-08T08:47:51Z</time>
      </trkpt>
      <trkpt lat="45.32325" lon="1.43766">
        <ele>361.11</ele>
        <time>2017-05-08T08:47:56Z</time>
      </trkpt>
      <trkpt lat="45.32367" lon="1.43759">
        <ele>353.42</ele>
        <time>2017-05-08T08:48:03Z</time>
      </trkpt>
      <trkpt lat="45.32372" lon="1.43758">
        <ele>351.5</ele>
        <time>2017-05-08T08:48:06Z</time>
      </trkpt>
      <trkpt lat="45.32387" lon="1.43747">
        <ele>347.65</ele>
        <time>2017-05-08T08:48:12Z</time>
      </trkpt>
      <trkpt lat="45.32411" lon="1.43719">
        <ele>344.77</ele>
        <time>2017-05-08T08:48:18Z</time>
      </trkpt>
      <trkpt lat="45.32424" lon="1.43665">
        <ele>340.44</ele>
        <time>2017-05-08T08:48:25Z</time>
      </trkpt>
      <trkpt lat="45.32432" lon="1.43648">
        <ele>338.52</ele>
        <time>2017-05-08T08:48:27Z</time>
      </trkpt>
      <trkpt lat="45.32442" lon="1.43634">
        <ele>337.08</ele>
        <time>2017-05-08T08:48:29Z</time>
      </trkpt>
      <trkpt lat="45.32477" lon="1.43597">
        <ele>333.23</ele>
        <time>2017-05-08T08:48:35Z</time>
      </trkpt>
      <trkpt lat="45.32498" lon="1.43563">
        <ele>329.39</ele>
        <time>2017-05-08T08:48:39Z</time>
      </trkpt>
      <trkpt lat="45.3249" lon="1.43505">
        <ele>325.54</ele>
        <time>2017-05-08T08:48:45Z</time>
      </trkpt>
      <trkpt lat="45.3247" lon="1.43443">
        <ele>316.41</ele>
        <time>2017-05-08T08:48:53Z</time>
      </trkpt>
      <trkpt lat="45.3247" lon="1.43438">
        <ele>315.45</ele>
        <time>2017-05-08T08:48:55Z</time>
      </trkpt>
      <trkpt lat="45.32472" lon="1.43421">
        <ele>313.53</ele>
        <time>2017-05-08T08:48:59Z</time>
      </trkpt>
      <trkpt lat="45.32473" lon="1.43392">
        <ele>311.6</ele>
        <time>2017-05-08T08:49:03Z</time>
      </trkpt>
      <trkpt lat="45.32465" lon="1.43368">
        <ele>307.76</ele>
        <time>2017-05-08T08:49:08Z</time>
      </trkpt>
      <trkpt lat="45.32453" lon="1.4332">
        <ele>303.91</ele>
        <time>2017-05-08T08:49:16Z</time>
      </trkpt>
      <trkpt lat="45.32449" lon="1.43264">
        <ele>301.99</ele>
        <time>2017-05-08T08:49:21Z</time>
      </trkpt>
      <trkpt lat="45.32442" lon="1.43228">
        <ele>300.07</ele>
        <time>2017-05-08T08:49:24Z</time>
      </trkpt>
      <trkpt lat="45.32433" lon="1.43192">
        <ele>297.67</ele>
        <time>2017-05-08T08:49:27Z</time>
      </trkpt>
      <trkpt lat="45.3243" lon="1.43125">
        <ele>287.57</ele>
        <time>2017-05-08T08:49:34Z</time>
      </trkpt>
      <trkpt lat="45.3243" lon="1.43125">
        <ele>286.61</ele>
        <time>2017-05-08T08:49:35Z</time>
      </trkpt>
      <trkpt lat="45.3242" lon="1.43083">
        <ele>278.92</ele>
        <time>2017-05-08T08:49:42Z</time>
      </trkpt>
      <trkpt lat="45.32421" lon="1.43053">
        <ele>273.63</ele>
        <time>2017-05-08T08:49:46Z</time>
      </trkpt>
      <trkpt lat="45.32426" lon="1.43037">
        <ele>271.23</ele>
        <time>2017-05-08T08:49:48Z</time>
      </trkpt>
      <trkpt lat="45.32439" lon="1.43014">
        <ele>268.35</ele>
        <time>2017-05-08T08:49:51Z</time>
      </trkpt>
      <trkpt lat="45.32439" lon="1.42938">
        <ele>259.21</ele>
        <time>2017-05-08T08:49:59Z</time>
      </trkpt>
      <trkpt lat="45.3242" lon="1.42922">
        <ele>248.64</ele>
        <time>2017-05-08T08:50:08Z</time>
      </trkpt>
      <trkpt lat="45.32391" lon="1.42922">
        <ele>243.83</ele>
        <time>2017-05-08T08:50:19Z</time>
      </trkpt>
      <trkpt lat="45.32372" lon="1.42925">
        <ele>243.35</ele>
        <time>2017-05-08T08:50:22Z</time>
      </trkpt>
      <trkpt lat="45.3235" lon="1.42952">
        <ele>241.91</ele>
        <time>2017-05-08T08:50:27Z</time>
      </trkpt>
      <trkpt lat="45.32342" lon="1.43002">
        <ele>242.39</ele>
        <time>2017-05-08T08:50:33Z</time>
      </trkpt>
      <trkpt lat="45.32337" lon="1.4301">
        <ele>244.31</ele>
        <time>2017-05-08T08:50:39Z</time>
      </trkpt>
      <trkpt lat="45.32334" lon="1.42995">
        <ele>245.27</ele>
        <time>2017-05-08T08:50:41Z</time>
      </trkpt>
      <trkpt lat="45.32308" lon="1.42957">
        <ele>244.31</ele>
        <time>2017-05-08T08:50:47Z</time>
      </trkpt>
      <trkpt lat="45.32277" lon="1.42925">
        <ele>240.95</ele>
        <time>2017-05-08T08:50:52Z</time>
      </trkpt>
      <trkpt lat="45.32247" lon="1.429">
        <ele>238.06</ele>
        <time>2017-05-08T08:50:56Z</time>
      </trkpt>
      <trkpt lat="45.3223" lon="1.42891">
        <ele>236.62</ele>
        <time>2017-05-08T08:50:58Z</time>
      </trkpt>
      <trkpt lat="45.32195" lon="1.4288">
        <ele>235.18</ele>
        <time>2017-05-08T08:51:03Z</time>
      </trkpt>
      <trkpt lat="45.32149" lon="1.42835">
        <ele>235.18</ele>
        <time>2017-05-08T08:51:13Z</time>
      </trkpt>
      <trkpt lat="45.32128" lon="1.42799">
        <ele>239.02</ele>
        <time>2017-05-08T08:51:22Z</time>
      </trkpt>
      <trkpt lat="45.32125" lon="1.42798">
        <ele>238.54</ele>
        <time>2017-05-08T08:51:23Z</time>
      </trkpt>
      <trkpt lat="45.32111" lon="1.42804">
        <ele>238.54</ele>
        <time>2017-05-08T08:51:34Z</time>
      </trkpt>
      <trkpt lat="45.32105" lon="1.42808">
        <ele>235.66</ele>
        <time>2017-05-08T08:51:51Z</time>
      </trkpt>
      <trkpt lat="45.32096" lon="1.42818">
        <ele>236.14</ele>
        <time>2017-05-08T08:52:04Z</time>
      </trkpt>
      <trkpt lat="45.32088" lon="1.42832">
        <ele>239.99</ele>
        <time>2017-05-08T08:52:14Z</time>
      </trkpt>
      <trkpt lat="45.32089" lon="1.42834">
        <ele>245.27</ele>
        <time>2017-05-08T08:52:28Z</time>
      </trkpt>
      <trkpt lat="45.32089" lon="1.42838">
        <ele>246.23</ele>
        <time>2017-05-08T08:52:33Z</time>
      </trkpt>
      <trkpt lat="45.32095" lon="1.42842">
        <ele>247.68</ele>
        <time>2017-05-08T08:52:39Z</time>
      </trkpt>
      <trkpt lat="45.32104" lon="1.42854">
        <ele>250.08</ele>
        <time>2017-05-08T08:52:46Z</time>
      </trkpt>
      <trkpt lat="45.32107" lon="1.42864">
        <ele>253.93</ele>
        <time>2017-05-08T08:53:01Z</time>
      </trkpt>
      <trkpt lat="45.32108" lon="1.42863">
        <ele>253.93</ele>
        <time>2017-05-08T08:53:05Z</time>
      </trkpt>
      <trkpt lat="45.32096" lon="1.42846">
        <ele>249.12</ele>
        <time>2017-05-08T08:53:13Z</time>
      </trkpt>
      <trkpt lat="45.32092" lon="1.42844">
        <ele>248.64</ele>
        <time>2017-05-08T08:53:14Z</time>
      </trkpt>
      <trkpt lat="45.32079" lon="1.42839">
        <ele>244.79</ele>
        <time>2017-05-08T08:53:25Z</time>
      </trkpt>
      <trkpt lat="45.32079" lon="1.42838">
        <ele>244.31</ele>
        <time>2017-05-08T08:53:29Z</time>
      </trkpt>
      <trkpt lat="45.32098" lon="1.42811">
        <ele>241.91</ele>
        <time>2017-05-08T08:53:38Z</time>
      </trkpt>
      <trkpt lat="45.32103" lon="1.42804">
        <ele>241.43</ele>
        <time>2017-05-08T08:53:40Z</time>
      </trkpt>
      <trkpt lat="45.3211" lon="1.42797">
        <ele>238.06</ele>
        <time>2017-05-08T08:53:46Z</time>
      </trkpt>
      <trkpt lat="45.32104" lon="1.42768">
        <ele>232.3</ele>
        <time>2017-05-08T08:53:55Z</time>
      </trkpt>
      <trkpt lat="45.32095" lon="1.42738">
        <ele>227.01</ele>
        <time>2017-05-08T08:54:03Z</time>
      </trkpt>
      <trkpt lat="45.32104" lon="1.42713">
        <ele>224.61</ele>
        <time>2017-05-08T08:54:08Z</time>
      </trkpt>
      <trkpt lat="45.32134" lon="1.42677">
        <ele>220.28</ele>
        <time>2017-05-08T08:54:16Z</time>
      </trkpt>
      <trkpt lat="45.3213" lon="1.4265">
        <ele>215.95</ele>
        <time>2017-05-08T08:54:21Z</time>
      </trkpt>
      <trkpt lat="45.32124" lon="1.42643">
        <ele>213.55</ele>
        <time>2017-05-08T08:54:24Z</time>
      </trkpt>
      <trkpt lat="45.32123" lon="1.42639">
        <ele>211.15</ele>
        <time>2017-05-08T08:54:28Z</time>
      </trkpt>
      <trkpt lat="45.32131" lon="1.42633">
        <ele>208.74</ele>
        <time>2017-05-08T08:54:33Z</time>
      </trkpt>
      <trkpt lat="45.32135" lon="1.42631">
        <ele>206.82</ele>
        <time>2017-05-08T08:54:38Z</time>
      </trkpt>
      <trkpt lat="45.32136" lon="1.42622">
        <ele>205.38</ele>
        <time>2017-05-08T08:54:43Z</time>
      </trkpt>
      <trkpt lat="45.32134" lon="1.4262">
        <ele>204.9</ele>
        <time>2017-05-08T08:54:45Z</time>
      </trkpt>
      <trkpt lat="45.32118" lon="1.42621">
        <ele>208.74</ele>
        <time>2017-05-08T08:54:55Z</time>
      </trkpt>
      <trkpt lat="45.32094" lon="1.42629">
        <ele>216.43</ele>
        <time>2017-05-08T08:55:06Z</time>
      </trkpt>
      <trkpt lat="45.32089" lon="1.42631">
        <ele>216.43</ele>
        <time>2017-05-08T08:55:16Z</time>
      </trkpt>
      <trkpt lat="45.32103" lon="1.42624">
        <ele>216.43</ele>
        <time>2017-05-08T08:55:27Z</time>
      </trkpt>
      <trkpt lat="45.32112" lon="1.42613">
        <ele>212.11</ele>
        <time>2017-05-08T08:55:38Z</time>
      </trkpt>
      <trkpt lat="45.32122" lon="1.42611">
        <ele>210.67</ele>
        <time>2017-05-08T08:55:47Z</time>
      </trkpt>
      <trkpt lat="45.32136" lon="1.42616">
        <ele>209.22</ele>
        <time>2017-05-08T08:55:56Z</time>
      </trkpt>
      <trkpt lat="45.32146" lon="1.42612">
        <ele>210.67</ele>
        <time>2017-05-08T08:56:09Z</time>
      </trkpt>
      <trkpt lat="45.32149" lon="1.42612">
        <ele>208.26</ele>
        <time>2017-05-08T08:56:19Z</time>
      </trkpt>
      <trkpt lat="45.32152" lon="1.42607">
        <ele>208.74</ele>
        <time>2017-05-08T08:56:30Z</time>
      </trkpt>
      <trkpt lat="45.32147" lon="1.42606">
        <ele>211.15</ele>
        <time>2017-05-08T08:56:41Z</time>
      </trkpt>
      <trkpt lat="45.3215" lon="1.42608">
        <ele>212.59</ele>
        <time>2017-05-08T08:56:54Z</time>
      </trkpt>
      <trkpt lat="45.32151" lon="1.42602">
        <ele>211.15</ele>
        <time>2017-05-08T08:57:06Z</time>
      </trkpt>
      <trkpt lat="45.32147" lon="1.42601">
        <ele>209.7</ele>
        <time>2017-05-08T08:57:20Z</time>
      </trkpt>
      <trkpt lat="45.32145" lon="1.426">
        <ele>210.19</ele>
        <time>2017-05-08T08:57:24Z</time>
      </trkpt>
      <trkpt lat="45.32134" lon="1.42597">
        <ele>214.03</ele>
        <time>2017-05-08T08:57:35Z</time>
      </trkpt>
      <trkpt lat="45.32112" lon="1.4259">
        <ele>213.07</ele>
        <time>2017-05-08T08:57:45Z</time>
      </trkpt>
      <trkpt lat="45.321" lon="1.4259">
        <ele>216.43</ele>
        <time>2017-05-08T08:57:51Z</time>
      </trkpt>
      <trkpt lat="45.32084" lon="1.42589">
        <ele>217.88</ele>
        <time>2017-05-08T08:57:59Z</time>
      </trkpt>
      <trkpt lat="45.32079" lon="1.4259">
        <ele>218.36</ele>
        <time>2017-05-08T08:58:02Z</time>
      </trkpt>
      <trkpt lat="45.32074" lon="1.42599">
        <ele>223.64</ele>
        <time>2017-05-08T08:58:19Z</time>
      </trkpt>
      <trkpt lat="45.3207" lon="1.426">
        <ele>221.72</ele>
        <time>2017-05-08T08:58:48Z</time>
      </trkpt>
      <trkpt lat="45.32072" lon="1.42607">
        <ele>220.76</ele>
        <time>2017-05-08T08:59:20Z</time>
      </trkpt>
      <trkpt lat="45.32071" lon="1.42601">
        <ele>218.84</ele>
        <time>2017-05-08T08:59:48Z</time>
      </trkpt>
      <trkpt lat="45.32065" lon="1.42598">
        <ele>217.88</ele>
        <time>2017-05-08T08:59:52Z</time>
      </trkpt>
      <trkpt lat="45.32047" lon="1.42609">
        <ele>218.84</ele>
        <time>2017-05-08T09:00:02Z</time>
      </trkpt>
      <trkpt lat="45.3203" lon="1.42619">
        <ele>220.76</ele>
        <time>2017-05-08T09:00:11Z</time>
      </trkpt>
      <trkpt lat="45.32022" lon="1.42626">
        <ele>224.12</ele>
        <time>2017-05-08T09:00:17Z</time>
      </trkpt>
      <trkpt lat="45.32005" lon="1.42637">
        <ele>232.3</ele>
        <time>2017-05-08T09:00:32Z</time>
      </trkpt>
      <trkpt lat="45.32002" lon="1.42637">
        <ele>232.3</ele>
        <time>2017-05-08T09:00:34Z</time>
      </trkpt>
      <trkpt lat="45.31995" lon="1.42634">
        <ele>230.85</ele>
        <time>2017-05-08T09:00:38Z</time>
      </trkpt>
      <trkpt lat="45.31987" lon="1.42616">
        <ele>228.45</ele>
        <time>2017-05-08T09:00:49Z</time>
      </trkpt>
      <trkpt lat="45.31987" lon="1.42613">
        <ele>228.45</ele>
        <time>2017-05-08T09:00:51Z</time>
      </trkpt>
      <trkpt lat="45.31986" lon="1.42608">
        <ele>227.97</ele>
        <time>2017-05-08T09:00:54Z</time>
      </trkpt>
      <trkpt lat="45.31985" lon="1.42598">
        <ele>227.97</ele>
        <time>2017-05-08T09:00:58Z</time>
      </trkpt>
      <trkpt lat="45.31983" lon="1.42593">
        <ele>227.01</ele>
        <time>2017-05-08T09:01:00Z</time>
      </trkpt>
      <trkpt lat="45.31981" lon="1.42578">
        <ele>225.57</ele>
        <time>2017-05-08T09:01:07Z</time>
      </trkpt>
      <trkpt lat="45.3198" lon="1.4257">
        <ele>225.09</ele>
        <time>2017-05-08T09:01:10Z</time>
      </trkpt>
      <trkpt lat="45.31964" lon="1.42537">
        <ele>229.41</ele>
        <time>2017-05-08T09:01:24Z</time>
      </trkpt>
      <trkpt lat="45.31945" lon="1.4251">
        <ele>232.78</ele>
        <time>2017-05-08T09:01:34Z</time>
      </trkpt>
      <trkpt lat="45.31928" lon="1.42486">
        <ele>234.7</ele>
        <time>2017-05-08T09:01:42Z</time>
      </trkpt>
      <trkpt lat="45.31906" lon="1.42461">
        <ele>239.02</ele>
        <time>2017-05-08T09:01:52Z</time>
      </trkpt>
      <trkpt lat="45.31888" lon="1.42452">
        <ele>240.95</ele>
        <time>2017-05-08T09:01:57Z</time>
      </trkpt>
      <trkpt lat="45.31837" lon="1.42431">
        <ele>242.39</ele>
        <time>2017-05-08T09:02:06Z</time>
      </trkpt>
      <trkpt lat="45.31821" lon="1.42433">
        <ele>242.39</ele>
        <time>2017-05-08T09:02:09Z</time>
      </trkpt>
      <trkpt lat="45.31788" lon="1.42454">
        <ele>241.43</ele>
        <time>2017-05-08T09:02:15Z</time>
      </trkpt>
      <trkpt lat="45.31769" lon="1.42471">
        <ele>239.51</ele>
        <time>2017-05-08T09:02:19Z</time>
      </trkpt>
      <trkpt lat="45.31746" lon="1.42473">
        <ele>236.14</ele>
        <time>2017-05-08T09:02:24Z</time>
      </trkpt>
      <trkpt lat="45.31729" lon="1.42454">
        <ele>231.33</ele>
        <time>2017-05-08T09:02:29Z</time>
      </trkpt>
      <trkpt lat="45.31724" lon="1.4245">
        <ele>227.97</ele>
        <time>2017-05-08T09:02:33Z</time>
      </trkpt>
      <trkpt lat="45.31716" lon="1.42456">
        <ele>226.05</ele>
        <time>2017-05-08T09:02:40Z</time>
      </trkpt>
      <trkpt lat="45.31708" lon="1.42476">
        <ele>226.05</ele>
        <time>2017-05-08T09:02:45Z</time>
      </trkpt>
      <trkpt lat="45.31694" lon="1.42513">
        <ele>223.16</ele>
        <time>2017-05-08T09:02:52Z</time>
      </trkpt>
      <trkpt lat="45.31668" lon="1.42523">
        <ele>221.72</ele>
        <time>2017-05-08T09:02:58Z</time>
      </trkpt>
      <trkpt lat="45.3164" lon="1.42518">
        <ele>220.28</ele>
        <time>2017-05-08T09:03:07Z</time>
      </trkpt>
      <trkpt lat="45.31638" lon="1.42519">
        <ele>219.8</ele>
        <time>2017-05-08T09:03:08Z</time>
      </trkpt>
      <trkpt lat="45.31634" lon="1.42534">
        <ele>214.51</ele>
        <time>2017-05-08T09:03:15Z</time>
      </trkpt>
      <trkpt lat="45.31631" lon="1.42553">
        <ele>211.15</ele>
        <time>2017-05-08T09:03:19Z</time>
      </trkpt>
      <trkpt lat="45.31631" lon="1.42581">
        <ele>206.34</ele>
        <time>2017-05-08T09:03:24Z</time>
      </trkpt>
      <trkpt lat="45.3163" lon="1.42601">
        <ele>203.94</ele>
        <time>2017-05-08T09:03:28Z</time>
      </trkpt>
      <trkpt lat="45.31606" lon="1.42636">
        <ele>198.65</ele>
        <time>2017-05-08T09:03:37Z</time>
      </trkpt>
      <trkpt lat="45.31599" lon="1.42637">
        <ele>198.65</ele>
        <time>2017-05-08T09:03:43Z</time>
      </trkpt>
      <trkpt lat="45.31598" lon="1.42642">
        <ele>199.13</ele>
        <time>2017-05-08T09:03:52Z</time>
      </trkpt>
      <trkpt lat="45.31589" lon="1.42649">
        <ele>198.17</ele>
        <time>2017-05-08T09:04:03Z</time>
      </trkpt>
      <trkpt lat="45.31585" lon="1.42655">
        <ele>197.21</ele>
        <time>2017-05-08T09:04:09Z</time>
      </trkpt>
      <trkpt lat="45.31573" lon="1.42659">
        <ele>196.25</ele>
        <time>2017-05-08T09:04:15Z</time>
      </trkpt>
      <trkpt lat="45.31553" lon="1.42654">
        <ele>196.73</ele>
        <time>2017-05-08T09:04:25Z</time>
      </trkpt>
      <trkpt lat="45.31545" lon="1.42649">
        <ele>197.21</ele>
        <time>2017-05-08T09:04:29Z</time>
      </trkpt>
      <trkpt lat="45.31527" lon="1.42682">
        <ele>200.57</ele>
        <time>2017-05-08T09:04:39Z</time>
      </trkpt>
      <trkpt lat="45.31519" lon="1.42688">
        <ele>202.01</ele>
        <time>2017-05-08T09:04:43Z</time>
      </trkpt>
      <trkpt lat="45.31503" lon="1.42701">
        <ele>205.38</ele>
        <time>2017-05-08T09:04:50Z</time>
      </trkpt>
      <trkpt lat="45.31489" lon="1.4272">
        <ele>204.42</ele>
        <time>2017-05-08T09:04:58Z</time>
      </trkpt>
      <trkpt lat="45.31493" lon="1.4274">
        <ele>202.01</ele>
        <time>2017-05-08T09:05:10Z</time>
      </trkpt>
      <trkpt lat="45.31493" lon="1.42748">
        <ele>200.57</ele>
        <time>2017-05-08T09:05:21Z</time>
      </trkpt>
      <trkpt lat="45.31499" lon="1.42761">
        <ele>199.61</ele>
        <time>2017-05-08T09:05:41Z</time>
      </trkpt>
      <trkpt lat="45.315" lon="1.42761">
        <ele>200.09</ele>
        <time>2017-05-08T09:05:42Z</time>
      </trkpt>
      <trkpt lat="45.31511" lon="1.42769">
        <ele>201.53</ele>
        <time>2017-05-08T09:05:54Z</time>
      </trkpt>
      <trkpt lat="45.31514" lon="1.42769">
        <ele>202.01</ele>
        <time>2017-05-08T09:05:57Z</time>
      </trkpt>
      <trkpt lat="45.31522" lon="1.4277">
        <ele>204.42</ele>
        <time>2017-05-08T09:06:02Z</time>
      </trkpt>
      <trkpt lat="45.31528" lon="1.42776">
        <ele>206.34</ele>
        <time>2017-05-08T09:06:08Z</time>
      </trkpt>
      <trkpt lat="45.31531" lon="1.42783">
        <ele>205.86</ele>
        <time>2017-05-08T09:06:12Z</time>
      </trkpt>
      <trkpt lat="45.3154" lon="1.42805">
        <ele>207.78</ele>
        <time>2017-05-08T09:06:23Z</time>
      </trkpt>
      <trkpt lat="45.31546" lon="1.42828">
        <ele>212.11</ele>
        <time>2017-05-08T09:06:37Z</time>
      </trkpt>
      <trkpt lat="45.31546" lon="1.42833">
        <ele>212.11</ele>
        <time>2017-05-08T09:06:40Z</time>
      </trkpt>
      <trkpt lat="45.31553" lon="1.42847">
        <ele>213.07</ele>
        <time>2017-05-08T09:06:49Z</time>
      </trkpt>
      <trkpt lat="45.31564" lon="1.42857">
        <ele>216.43</ele>
        <time>2017-05-08T09:06:58Z</time>
      </trkpt>
      <trkpt lat="45.31574" lon="1.42867">
        <ele>222.2</ele>
        <time>2017-05-08T09:07:05Z</time>
      </trkpt>
      <trkpt lat="45.31589" lon="1.42873">
        <ele>232.3</ele>
        <time>2017-05-08T09:07:16Z</time>
      </trkpt>
      <trkpt lat="45.31598" lon="1.42874">
        <ele>238.06</ele>
        <time>2017-05-08T09:07:25Z</time>
      </trkpt>
      <trkpt lat="45.31604" lon="1.42874">
        <ele>239.51</ele>
        <time>2017-05-08T09:07:29Z</time>
      </trkpt>
      <trkpt lat="45.31615" lon="1.42874">
        <ele>243.35</ele>
        <time>2017-05-08T09:07:37Z</time>
      </trkpt>
      <trkpt lat="45.31618" lon="1.42872">
        <ele>244.79</ele>
        <time>2017-05-08T09:07:39Z</time>
      </trkpt>
      <trkpt lat="45.3162" lon="1.42871">
        <ele>245.75</ele>
        <time>2017-05-08T09:07:41Z</time>
      </trkpt>
      <trkpt lat="45.31638" lon="1.42868">
        <ele>244.79</ele>
        <time>2017-05-08T09:07:53Z</time>
      </trkpt>
      <trkpt lat="45.31659" lon="1.42864">
        <ele>252.48</ele>
        <time>2017-05-08T09:08:09Z</time>
      </trkpt>
      <trkpt lat="45.31664" lon="1.42861">
        <ele>252.48</ele>
        <time>2017-05-08T09:08:24Z</time>
      </trkpt>
      <trkpt lat="45.31671" lon="1.42864">
        <ele>246.23</ele>
        <time>2017-05-08T09:08:44Z</time>
      </trkpt>
      <trkpt lat="45.31678" lon="1.42861">
        <ele>243.35</ele>
        <time>2017-05-08T09:08:57Z</time>
      </trkpt>
      <trkpt lat="45.3168" lon="1.42862">
        <ele>244.79</ele>
        <time>2017-05-08T09:09:09Z</time>
      </trkpt>
      <trkpt lat="45.31677" lon="1.42875">
        <ele>245.27</ele>
        <time>2017-05-08T09:09:19Z</time>
      </trkpt>
      <trkpt lat="45.3168" lon="1.42882">
        <ele>246.23</ele>
        <time>2017-05-08T09:09:26Z</time>
      </trkpt>
      <trkpt lat="45.31683" lon="1.42884">
        <ele>247.68</ele>
        <time>2017-05-08T09:09:31Z</time>
      </trkpt>
      <trkpt lat="45.31697" lon="1.4288">
        <ele>252.48</ele>
        <time>2017-05-08T09:09:43Z</time>
      </trkpt>
      <trkpt lat="45.31701" lon="1.42878">
        <ele>253.44</ele>
        <time>2017-05-08T09:09:45Z</time>
      </trkpt>
      <trkpt lat="45.31709" lon="1.42884">
        <ele>255.85</ele>
        <time>2017-05-08T09:09:58Z</time>
      </trkpt>
      <trkpt lat="45.31708" lon="1.42884">
        <ele>255.85</ele>
        <time>2017-05-08T09:10:00Z</time>
      </trkpt>
      <trkpt lat="45.31708" lon="1.4289">
        <ele>254.89</ele>
        <time>2017-05-08T09:10:06Z</time>
      </trkpt>
      <trkpt lat="45.31708" lon="1.42893">
        <ele>254.41</ele>
        <time>2017-05-08T09:10:08Z</time>
      </trkpt>
      <trkpt lat="45.31703" lon="1.4292">
        <ele>253.93</ele>
        <time>2017-05-08T09:10:23Z</time>
      </trkpt>
      <trkpt lat="45.31696" lon="1.42933">
        <ele>256.81</ele>
        <time>2017-05-08T09:10:35Z</time>
      </trkpt>
      <trkpt lat="45.31687" lon="1.42947">
        <ele>258.73</ele>
        <time>2017-05-08T09:10:48Z</time>
      </trkpt>
      <trkpt lat="45.31684" lon="1.4295">
        <ele>259.21</ele>
        <time>2017-05-08T09:10:50Z</time>
      </trkpt>
      <trkpt lat="45.31681" lon="1.42961">
        <ele>260.17</ele>
        <time>2017-05-08T09:10:55Z</time>
      </trkpt>
      <trkpt lat="45.31682" lon="1.42969">
        <ele>260.65</ele>
        <time>2017-05-08T09:10:58Z</time>
      </trkpt>
      <trkpt lat="45.31683" lon="1.42968">
        <ele>260.65</ele>
        <time>2017-05-08T09:11:01Z</time>
      </trkpt>
      <trkpt lat="45.31685" lon="1.42968">
        <ele>260.65</ele>
        <time>2017-05-08T09:11:04Z</time>
      </trkpt>
      <trkpt lat="45.3169" lon="1.42965">
        <ele>262.1</ele>
        <time>2017-05-08T09:11:10Z</time>
      </trkpt>
      <trkpt lat="45.31697" lon="1.42962">
        <ele>263.06</ele>
        <time>2017-05-08T09:11:16Z</time>
      </trkpt>
      <trkpt lat="45.31706" lon="1.42958">
        <ele>263.54</ele>
        <time>2017-05-08T09:11:23Z</time>
      </trkpt>
      <trkpt lat="45.31725" lon="1.42951">
        <ele>264.5</ele>
        <time>2017-05-08T09:11:36Z</time>
      </trkpt>
      <trkpt lat="45.31732" lon="1.42948">
        <ele>265.46</ele>
        <time>2017-05-08T09:11:40Z</time>
      </trkpt>
      <trkpt lat="45.31741" lon="1.42953">
        <ele>264.5</ele>
        <time>2017-05-08T09:11:46Z</time>
      </trkpt>
      <trkpt lat="45.31743" lon="1.42956">
        <ele>262.58</ele>
        <time>2017-05-08T09:11:49Z</time>
      </trkpt>
      <trkpt lat="45.31743" lon="1.4296">
        <ele>262.58</ele>
        <time>2017-05-08T09:11:52Z</time>
      </trkpt>
      <trkpt lat="45.31738" lon="1.42977">
        <ele>265.46</ele>
        <time>2017-05-08T09:12:04Z</time>
      </trkpt>
      <trkpt lat="45.31728" lon="1.42993">
        <ele>268.35</ele>
        <time>2017-05-08T09:12:17Z</time>
      </trkpt>
      <trkpt lat="45.31713" lon="1.43011">
        <ele>272.19</ele>
        <time>2017-05-08T09:12:33Z</time>
      </trkpt>
      <trkpt lat="45.31712" lon="1.43012">
        <ele>272.19</ele>
        <time>2017-05-08T09:12:34Z</time>
      </trkpt>
      <trkpt lat="45.31708" lon="1.43014">
        <ele>273.63</ele>
        <time>2017-05-08T09:12:37Z</time>
      </trkpt>
      <trkpt lat="45.31694" lon="1.43031">
        <ele>275.56</ele>
        <time>2017-05-08T09:12:50Z</time>
      </trkpt>
      <trkpt lat="45.31689" lon="1.43038">
        <ele>276.52</ele>
        <time>2017-05-08T09:12:55Z</time>
      </trkpt>
      <trkpt lat="45.31685" lon="1.43042">
        <ele>277.48</ele>
        <time>2017-05-08T09:12:59Z</time>
      </trkpt>
      <trkpt lat="45.31673" lon="1.43057">
        <ele>280.36</ele>
        <time>2017-05-08T09:13:11Z</time>
      </trkpt>
      <trkpt lat="45.31661" lon="1.43069">
        <ele>285.65</ele>
        <time>2017-05-08T09:13:22Z</time>
      </trkpt>
      <trkpt lat="45.31651" lon="1.43077">
        <ele>291.42</ele>
        <time>2017-05-08T09:13:33Z</time>
      </trkpt>
      <trkpt lat="45.31644" lon="1.43086">
        <ele>293.34</ele>
        <time>2017-05-08T09:13:41Z</time>
      </trkpt>
      <trkpt lat="45.31639" lon="1.43089">
        <ele>295.26</ele>
        <time>2017-05-08T09:13:46Z</time>
      </trkpt>
      <trkpt lat="45.31632" lon="1.43097">
        <ele>296.22</ele>
        <time>2017-05-08T09:13:53Z</time>
      </trkpt>
      <trkpt lat="45.31621" lon="1.43109">
        <ele>300.07</ele>
        <time>2017-05-08T09:14:05Z</time>
      </trkpt>
      <trkpt lat="45.3162" lon="1.4311">
        <ele>300.55</ele>
        <time>2017-05-08T09:14:06Z</time>
      </trkpt>
      <trkpt lat="45.31604" lon="1.43122">
        <ele>303.91</ele>
        <time>2017-05-08T09:14:19Z</time>
      </trkpt>
      <trkpt lat="45.31604" lon="1.43121">
        <ele>307.76</ele>
        <time>2017-05-08T09:14:36Z</time>
      </trkpt>
      <trkpt lat="45.31603" lon="1.43125">
        <ele>305.36</ele>
        <time>2017-05-08T09:15:01Z</time>
      </trkpt>
      <trkpt lat="45.31594" lon="1.43132">
        <ele>304.39</ele>
        <time>2017-05-08T09:15:09Z</time>
      </trkpt>
      <trkpt lat="45.31578" lon="1.43142">
        <ele>307.28</ele>
        <time>2017-05-08T09:15:22Z</time>
      </trkpt>
      <trkpt lat="45.31571" lon="1.4315">
        <ele>307.76</ele>
        <time>2017-05-08T09:15:28Z</time>
      </trkpt>
      <trkpt lat="45.31565" lon="1.43161">
        <ele>309.2</ele>
        <time>2017-05-08T09:15:36Z</time>
      </trkpt>
      <trkpt lat="45.31555" lon="1.43168">
        <ele>312.57</ele>
        <time>2017-05-08T09:15:45Z</time>
      </trkpt>
      <trkpt lat="45.31544" lon="1.43165">
        <ele>319.3</ele>
        <time>2017-05-08T09:15:52Z</time>
      </trkpt>
      <trkpt lat="45.3154" lon="1.43163">
        <ele>321.7</ele>
        <time>2017-05-08T09:15:54Z</time>
      </trkpt>
      <trkpt lat="45.31535" lon="1.43165">
        <ele>323.14</ele>
        <time>2017-05-08T09:15:58Z</time>
      </trkpt>
      <trkpt lat="45.31533" lon="1.43172">
        <ele>322.66</ele>
        <time>2017-05-08T09:16:03Z</time>
      </trkpt>
      <trkpt lat="45.31515" lon="1.43174">
        <ele>323.62</ele>
        <time>2017-05-08T09:16:10Z</time>
      </trkpt>
      <trkpt lat="45.31495" lon="1.43172">
        <ele>326.02</ele>
        <time>2017-05-08T09:16:17Z</time>
      </trkpt>
      <trkpt lat="45.31491" lon="1.43171">
        <ele>326.99</ele>
        <time>2017-05-08T09:16:19Z</time>
      </trkpt>
      <trkpt lat="45.31479" lon="1.43171">
        <ele>326.99</ele>
        <time>2017-05-08T09:16:24Z</time>
      </trkpt>
      <trkpt lat="45.31474" lon="1.43172">
        <ele>326.5</ele>
        <time>2017-05-08T09:16:26Z</time>
      </trkpt>
      <trkpt lat="45.31469" lon="1.43174">
        <ele>326.02</ele>
        <time>2017-05-08T09:16:28Z</time>
      </trkpt>
      <trkpt lat="45.3146" lon="1.43178">
        <ele>326.5</ele>
        <time>2017-05-08T09:16:32Z</time>
      </trkpt>
      <trkpt lat="45.31458" lon="1.43179">
        <ele>326.5</ele>
        <time>2017-05-08T09:16:33Z</time>
      </trkpt>
      <trkpt lat="45.31455" lon="1.43179">
        <ele>326.99</ele>
        <time>2017-05-08T09:16:34Z</time>
      </trkpt>
      <trkpt lat="45.31452" lon="1.43179">
        <ele>327.47</ele>
        <time>2017-05-08T09:16:35Z</time>
      </trkpt>
      <trkpt lat="45.3145" lon="1.43179">
        <ele>327.47</ele>
        <time>2017-05-08T09:16:36Z</time>
      </trkpt>
      <trkpt lat="45.31447" lon="1.43179">
        <ele>327.95</ele>
        <time>2017-05-08T09:16:37Z</time>
      </trkpt>
      <trkpt lat="45.31439" lon="1.43181">
        <ele>329.39</ele>
        <time>2017-05-08T09:16:41Z</time>
      </trkpt>
      <trkpt lat="45.31437" lon="1.43182">
        <ele>329.87</ele>
        <time>2017-05-08T09:16:42Z</time>
      </trkpt>
      <trkpt lat="45.31436" lon="1.43183">
        <ele>329.87</ele>
        <time>2017-05-08T09:16:43Z</time>
      </trkpt>
      <trkpt lat="45.3143" lon="1.43189">
        <ele>331.31</ele>
        <time>2017-05-08T09:16:47Z</time>
      </trkpt>
      <trkpt lat="45.31429" lon="1.43191">
        <ele>331.31</ele>
        <time>2017-05-08T09:16:48Z</time>
      </trkpt>
      <trkpt lat="45.31423" lon="1.43199">
        <ele>332.27</ele>
        <time>2017-05-08T09:16:52Z</time>
      </trkpt>
      <trkpt lat="45.31421" lon="1.432">
        <ele>332.27</ele>
        <time>2017-05-08T09:16:53Z</time>
      </trkpt>
      <trkpt lat="45.31419" lon="1.432">
        <ele>332.27</ele>
        <time>2017-05-08T09:16:54Z</time>
      </trkpt>
      <trkpt lat="45.31417" lon="1.43202">
        <ele>332.27</ele>
        <time>2017-05-08T09:16:55Z</time>
      </trkpt>
      <trkpt lat="45.31413" lon="1.43202">
        <ele>332.27</ele>
        <time>2017-05-08T09:16:56Z</time>
      </trkpt>
      <trkpt lat="45.31411" lon="1.43204">
        <ele>332.27</ele>
        <time>2017-05-08T09:16:57Z</time>
      </trkpt>
      <trkpt lat="45.31406" lon="1.43209">
        <ele>332.75</ele>
        <time>2017-05-08T09:17:00Z</time>
      </trkpt>
      <trkpt lat="45.31403" lon="1.4321">
        <ele>332.75</ele>
        <time>2017-05-08T09:17:01Z</time>
      </trkpt>
      <trkpt lat="45.31401" lon="1.43211">
        <ele>333.23</ele>
        <time>2017-05-08T09:17:02Z</time>
      </trkpt>
      <trkpt lat="45.31399" lon="1.43214">
        <ele>333.23</ele>
        <time>2017-05-08T09:17:03Z</time>
      </trkpt>
      <trkpt lat="45.31397" lon="1.43217">
        <ele>333.23</ele>
        <time>2017-05-08T09:17:04Z</time>
      </trkpt>
      <trkpt lat="45.31396" lon="1.4322">
        <ele>333.71</ele>
        <time>2017-05-08T09:17:05Z</time>
      </trkpt>
      <trkpt lat="45.31394" lon="1.43222">
        <ele>333.71</ele>
        <time>2017-05-08T09:17:06Z</time>
      </trkpt>
      <trkpt lat="45.31392" lon="1.43225">
        <ele>333.71</ele>
        <time>2017-05-08T09:17:07Z</time>
      </trkpt>
      <trkpt lat="45.31385" lon="1.43222">
        <ele>332.27</ele>
        <time>2017-05-08T09:17:08Z</time>
      </trkpt>
      <trkpt lat="45.31383" lon="1.43225">
        <ele>332.27</ele>
        <time>2017-05-08T09:17:09Z</time>
      </trkpt>
      <trkpt lat="45.31378" lon="1.43224">
        <ele>331.79</ele>
        <time>2017-05-08T09:17:10Z</time>
      </trkpt>
      <trkpt lat="45.31374" lon="1.43224">
        <ele>330.83</ele>
        <time>2017-05-08T09:17:11Z</time>
      </trkpt>
      <trkpt lat="45.31371" lon="1.43224">
        <ele>330.35</ele>
        <time>2017-05-08T09:17:12Z</time>
      </trkpt>
      <trkpt lat="45.31349" lon="1.43242">
        <ele>327.47</ele>
        <time>2017-05-08T09:17:22Z</time>
      </trkpt>
      <trkpt lat="45.31348" lon="1.43244">
        <ele>327.47</ele>
        <time>2017-05-08T09:17:23Z</time>
      </trkpt>
      <trkpt lat="45.31337" lon="1.43257">
        <ele>329.39</ele>
        <time>2017-05-08T09:17:32Z</time>
      </trkpt>
      <trkpt lat="45.31336" lon="1.43259">
        <ele>329.87</ele>
        <time>2017-05-08T09:17:33Z</time>
      </trkpt>
      <trkpt lat="45.31328" lon="1.43268">
        <ele>332.75</ele>
        <time>2017-05-08T09:17:40Z</time>
      </trkpt>
      <trkpt lat="45.31327" lon="1.43269">
        <ele>332.75</ele>
        <time>2017-05-08T09:17:41Z</time>
      </trkpt>
      <trkpt lat="45.3132" lon="1.43275">
        <ele>334.2</ele>
        <time>2017-05-08T09:17:47Z</time>
      </trkpt>
      <trkpt lat="45.31319" lon="1.43276">
        <ele>334.68</ele>
        <time>2017-05-08T09:17:48Z</time>
      </trkpt>
      <trkpt lat="45.31318" lon="1.43278">
        <ele>335.16</ele>
        <time>2017-05-08T09:17:49Z</time>
      </trkpt>
      <trkpt lat="45.31314" lon="1.4328">
        <ele>337.08</ele>
        <time>2017-05-08T09:17:53Z</time>
      </trkpt>
      <trkpt lat="45.31308" lon="1.43281">
        <ele>340.44</ele>
        <time>2017-05-08T09:18:02Z</time>
      </trkpt>
      <trkpt lat="45.31289" lon="1.43284">
        <ele>345.73</ele>
        <time>2017-05-08T09:18:15Z</time>
      </trkpt>
      <trkpt lat="45.31278" lon="1.43288">
        <ele>347.17</ele>
        <time>2017-05-08T09:18:24Z</time>
      </trkpt>
      <trkpt lat="45.31271" lon="1.43293">
        <ele>348.62</ele>
        <time>2017-05-08T09:18:30Z</time>
      </trkpt>
      <trkpt lat="45.31268" lon="1.43294">
        <ele>349.1</ele>
        <time>2017-05-08T09:18:33Z</time>
      </trkpt>
      <trkpt lat="45.31265" lon="1.43298">
        <ele>350.06</ele>
        <time>2017-05-08T09:18:36Z</time>
      </trkpt>
      <trkpt lat="45.31247" lon="1.43297">
        <ele>350.54</ele>
        <time>2017-05-08T09:18:46Z</time>
      </trkpt>
      <trkpt lat="45.31241" lon="1.43296">
        <ele>351.5</ele>
        <time>2017-05-08T09:18:50Z</time>
      </trkpt>
      <trkpt lat="45.31226" lon="1.43296">
        <ele>360.15</ele>
        <time>2017-05-08T09:19:03Z</time>
      </trkpt>
      <trkpt lat="45.31214" lon="1.43299">
        <ele>361.59</ele>
        <time>2017-05-08T09:19:10Z</time>
      </trkpt>
      <trkpt lat="45.3119" lon="1.43304">
        <ele>363.52</ele>
        <time>2017-05-08T09:19:24Z</time>
      </trkpt>
      <trkpt lat="45.31165" lon="1.43297">
        <ele>351.5</ele>
        <time>2017-05-08T09:19:36Z</time>
      </trkpt>
      <trkpt lat="45.31164" lon="1.433">
        <ele>349.58</ele>
        <time>2017-05-08T09:19:39Z</time>
      </trkpt>
      <trkpt lat="45.31177" lon="1.43306">
        <ele>349.58</ele>
        <time>2017-05-08T09:19:53Z</time>
      </trkpt>
      <trkpt lat="45.31193" lon="1.4331">
        <ele>347.17</ele>
        <time>2017-05-08T09:20:06Z</time>
      </trkpt>
      <trkpt lat="45.31204" lon="1.43318">
        <ele>344.77</ele>
        <time>2017-05-08T09:20:15Z</time>
      </trkpt>
      <trkpt lat="45.31215" lon="1.43339">
        <ele>353.42</ele>
        <time>2017-05-08T09:20:23Z</time>
      </trkpt>
      <trkpt lat="45.3121" lon="1.43343">
        <ele>356.79</ele>
        <time>2017-05-08T09:20:30Z</time>
      </trkpt>
      <trkpt lat="45.312" lon="1.43347">
        <ele>359.67</ele>
        <time>2017-05-08T09:20:37Z</time>
      </trkpt>
      <trkpt lat="45.31193" lon="1.43352">
        <ele>362.07</ele>
        <time>2017-05-08T09:20:43Z</time>
      </trkpt>
      <trkpt lat="45.31185" lon="1.43357">
        <ele>364.96</ele>
        <time>2017-05-08T09:20:49Z</time>
      </trkpt>
      <trkpt lat="45.31172" lon="1.43366">
        <ele>365.92</ele>
        <time>2017-05-08T09:20:57Z</time>
      </trkpt>
      <trkpt lat="45.31157" lon="1.43371">
        <ele>364.48</ele>
        <time>2017-05-08T09:21:02Z</time>
      </trkpt>
      <trkpt lat="45.31136" lon="1.4338">
        <ele>364.96</ele>
        <time>2017-05-08T09:21:09Z</time>
      </trkpt>
      <trkpt lat="45.31107" lon="1.43393">
        <ele>362.55</ele>
        <time>2017-05-08T09:21:18Z</time>
      </trkpt>
      <trkpt lat="45.3107" lon="1.43424">
        <ele>357.75</ele>
        <time>2017-05-08T09:21:33Z</time>
      </trkpt>
      <trkpt lat="45.31056" lon="1.43447">
        <ele>354.86</ele>
        <time>2017-05-08T09:21:39Z</time>
      </trkpt>
      <trkpt lat="45.31045" lon="1.43441">
        <ele>354.86</ele>
        <time>2017-05-08T09:21:43Z</time>
      </trkpt>
      <trkpt lat="45.31018" lon="1.43407">
        <ele>353.9</ele>
        <time>2017-05-08T09:21:54Z</time>
      </trkpt>
      <trkpt lat="45.30981" lon="1.43397">
        <ele>359.67</ele>
        <time>2017-05-08T09:22:05Z</time>
      </trkpt>
      <trkpt lat="45.30948" lon="1.43396">
        <ele>368.32</ele>
        <time>2017-05-08T09:22:14Z</time>
      </trkpt>
      <trkpt lat="45.30928" lon="1.43364">
        <ele>371.69</ele>
        <time>2017-05-08T09:22:23Z</time>
      </trkpt>
      <trkpt lat="45.3092" lon="1.43363">
        <ele>371.69</ele>
        <time>2017-05-08T09:22:25Z</time>
      </trkpt>
      <trkpt lat="45.30872" lon="1.43374">
        <ele>364.96</ele>
        <time>2017-05-08T09:22:39Z</time>
      </trkpt>
      <trkpt lat="45.30832" lon="1.43386">
        <ele>365.44</ele>
        <time>2017-05-08T09:22:55Z</time>
      </trkpt>
      <trkpt lat="45.30814" lon="1.43366">
        <ele>365.44</ele>
        <time>2017-05-08T09:23:06Z</time>
      </trkpt>
      <trkpt lat="45.30802" lon="1.43313">
        <ele>364.96</ele>
        <time>2017-05-08T09:23:20Z</time>
      </trkpt>
      <trkpt lat="45.30788" lon="1.43262">
        <ele>366.88</ele>
        <time>2017-05-08T09:23:34Z</time>
      </trkpt>
      <trkpt lat="45.30781" lon="1.43214">
        <ele>369.76</ele>
        <time>2017-05-08T09:23:47Z</time>
      </trkpt>
      <trkpt lat="45.30783" lon="1.43212">
        <ele>370.24</ele>
        <time>2017-05-08T09:23:48Z</time>
      </trkpt>
      <trkpt lat="45.30786" lon="1.43212">
        <ele>370.73</ele>
        <time>2017-05-08T09:23:49Z</time>
      </trkpt>
      <trkpt lat="45.3082" lon="1.43195">
        <ele>373.13</ele>
        <time>2017-05-08T09:24:02Z</time>
      </trkpt>
      <trkpt lat="45.30853" lon="1.43161">
        <ele>371.69</ele>
        <time>2017-05-08T09:24:18Z</time>
      </trkpt>
      <trkpt lat="45.30836" lon="1.43126">
        <ele>372.17</ele>
        <time>2017-05-08T09:24:27Z</time>
      </trkpt>
      <trkpt lat="45.30793" lon="1.4306">
        <ele>370.73</ele>
        <time>2017-05-08T09:24:41Z</time>
      </trkpt>
      <trkpt lat="45.3079" lon="1.43055">
        <ele>371.21</ele>
        <time>2017-05-08T09:24:42Z</time>
      </trkpt>
      <trkpt lat="45.30753" lon="1.42995">
        <ele>374.57</ele>
        <time>2017-05-08T09:24:54Z</time>
      </trkpt>
      <trkpt lat="45.30739" lon="1.42974">
        <ele>375.05</ele>
        <time>2017-05-08T09:24:59Z</time>
      </trkpt>
      <trkpt lat="45.30736" lon="1.4297">
        <ele>375.05</ele>
        <time>2017-05-08T09:25:00Z</time>
      </trkpt>
      <trkpt lat="45.30732" lon="1.42966">
        <ele>375.05</ele>
        <time>2017-05-08T09:25:01Z</time>
      </trkpt>
      <trkpt lat="45.3073" lon="1.42961">
        <ele>375.53</ele>
        <time>2017-05-08T09:25:02Z</time>
      </trkpt>
      <trkpt lat="45.30728" lon="1.42956">
        <ele>375.53</ele>
        <time>2017-05-08T09:25:03Z</time>
      </trkpt>
      <trkpt lat="45.30726" lon="1.42953">
        <ele>375.53</ele>
        <time>2017-05-08T09:25:04Z</time>
      </trkpt>
      <trkpt lat="45.30724" lon="1.4295">
        <ele>375.53</ele>
        <time>2017-05-08T09:25:05Z</time>
      </trkpt>
      <trkpt lat="45.30721" lon="1.42946">
        <ele>375.53</ele>
        <time>2017-05-08T09:25:06Z</time>
      </trkpt>
      <trkpt lat="45.30699" lon="1.42912">
        <ele>374.57</ele>
        <time>2017-05-08T09:25:14Z</time>
      </trkpt>
      <trkpt lat="45.3068" lon="1.42879">
        <ele>370.73</ele>
        <time>2017-05-08T09:25:19Z</time>
      </trkpt>
      <trkpt lat="45.30678" lon="1.4287">
        <ele>370.24</ele>
        <time>2017-05-08T09:25:20Z</time>
      </trkpt>
      <trkpt lat="45.30678" lon="1.42861">
        <ele>370.24</ele>
        <time>2017-05-08T09:25:21Z</time>
      </trkpt>
      <trkpt lat="45.3068" lon="1.42853">
        <ele>369.76</ele>
        <time>2017-05-08T09:25:22Z</time>
      </trkpt>
      <trkpt lat="45.30682" lon="1.42845">
        <ele>369.76</ele>
        <time>2017-05-08T09:25:23Z</time>
      </trkpt>
      <trkpt lat="45.30691" lon="1.4282">
        <ele>370.24</ele>
        <time>2017-05-08T09:25:27Z</time>
      </trkpt>
      <trkpt lat="45.30712" lon="1.42769">
        <ele>369.76</ele>
        <time>2017-05-08T09:25:38Z</time>
      </trkpt>
      <trkpt lat="45.30711" lon="1.42763">
        <ele>369.28</ele>
        <time>2017-05-08T09:25:39Z</time>
      </trkpt>
      <trkpt lat="45.30709" lon="1.42757">
        <ele>368.8</ele>
        <time>2017-05-08T09:25:40Z</time>
      </trkpt>
      <trkpt lat="45.30705" lon="1.42753">
        <ele>368.32</ele>
        <time>2017-05-08T09:25:41Z</time>
      </trkpt>
      <trkpt lat="45.30699" lon="1.42753">
        <ele>367.36</ele>
        <time>2017-05-08T09:25:42Z</time>
      </trkpt>
      <trkpt lat="45.30694" lon="1.42755">
        <ele>367.36</ele>
        <time>2017-05-08T09:25:43Z</time>
      </trkpt>
      <trkpt lat="45.30688" lon="1.42757">
        <ele>366.88</ele>
        <time>2017-05-08T09:25:44Z</time>
      </trkpt>
      <trkpt lat="45.3067" lon="1.42762">
        <ele>364.96</ele>
        <time>2017-05-08T09:25:47Z</time>
      </trkpt>
      <trkpt lat="45.30662" lon="1.42761">
        <ele>364.96</ele>
        <time>2017-05-08T09:25:48Z</time>
      </trkpt>
      <trkpt lat="45.30654" lon="1.4276">
        <ele>364.96</ele>
        <time>2017-05-08T09:25:49Z</time>
      </trkpt>
      <trkpt lat="45.30647" lon="1.4276">
        <ele>364.96</ele>
        <time>2017-05-08T09:25:50Z</time>
      </trkpt>
      <trkpt lat="45.30641" lon="1.42763">
        <ele>365.44</ele>
        <time>2017-05-08T09:25:51Z</time>
      </trkpt>
      <trkpt lat="45.30635" lon="1.42768">
        <ele>364.96</ele>
        <time>2017-05-08T09:25:52Z</time>
      </trkpt>
      <trkpt lat="45.30629" lon="1.42775">
        <ele>364.48</ele>
        <time>2017-05-08T09:25:53Z</time>
      </trkpt>
      <trkpt lat="45.30595" lon="1.42813">
        <ele>360.15</ele>
        <time>2017-05-08T09:25:58Z</time>
      </trkpt>
      <trkpt lat="45.30586" lon="1.42819">
        <ele>359.67</ele>
        <time>2017-05-08T09:25:59Z</time>
      </trkpt>
      <trkpt lat="45.30578" lon="1.42823">
        <ele>359.19</ele>
        <time>2017-05-08T09:26:00Z</time>
      </trkpt>
      <trkpt lat="45.30514" lon="1.4285">
        <ele>353.42</ele>
        <time>2017-05-08T09:26:09Z</time>
      </trkpt>
      <trkpt lat="45.30511" lon="1.42849">
        <ele>352.94</ele>
        <time>2017-05-08T09:26:10Z</time>
      </trkpt>
      <trkpt lat="45.30509" lon="1.42847">
        <ele>352.46</ele>
        <time>2017-05-08T09:26:11Z</time>
      </trkpt>
      <trkpt lat="45.30508" lon="1.42845">
        <ele>352.46</ele>
        <time>2017-05-08T09:26:12Z</time>
      </trkpt>
      <trkpt lat="45.30508" lon="1.42843">
        <ele>352.46</ele>
        <time>2017-05-08T09:26:13Z</time>
      </trkpt>
      <trkpt lat="45.30507" lon="1.4284">
        <ele>351.98</ele>
        <time>2017-05-08T09:26:14Z</time>
      </trkpt>
      <trkpt lat="45.30508" lon="1.42836">
        <ele>351.5</ele>
        <time>2017-05-08T09:26:15Z</time>
      </trkpt>
      <trkpt lat="45.30508" lon="1.4283">
        <ele>351.5</ele>
        <time>2017-05-08T09:26:16Z</time>
      </trkpt>
      <trkpt lat="45.30509" lon="1.42823">
        <ele>351.02</ele>
        <time>2017-05-08T09:26:17Z</time>
      </trkpt>
      <trkpt lat="45.3051" lon="1.42816">
        <ele>351.02</ele>
        <time>2017-05-08T09:26:18Z</time>
      </trkpt>
      <trkpt lat="45.30509" lon="1.42807">
        <ele>351.02</ele>
        <time>2017-05-08T09:26:19Z</time>
      </trkpt>
      <trkpt lat="45.30507" lon="1.42798">
        <ele>350.54</ele>
        <time>2017-05-08T09:26:20Z</time>
      </trkpt>
      <trkpt lat="45.30499" lon="1.42778">
        <ele>349.58</ele>
        <time>2017-05-08T09:26:22Z</time>
      </trkpt>
      <trkpt lat="45.30494" lon="1.42768">
        <ele>348.62</ele>
        <time>2017-05-08T09:26:23Z</time>
      </trkpt>
      <trkpt lat="45.30469" lon="1.42737">
        <ele>342.85</ele>
        <time>2017-05-08T09:26:29Z</time>
      </trkpt>
      <trkpt lat="45.30465" lon="1.42737">
        <ele>342.37</ele>
        <time>2017-05-08T09:26:30Z</time>
      </trkpt>
      <trkpt lat="45.30442" lon="1.42735">
        <ele>338.52</ele>
        <time>2017-05-08T09:26:34Z</time>
      </trkpt>
      <trkpt lat="45.30437" lon="1.42737">
        <ele>337.56</ele>
        <time>2017-05-08T09:26:35Z</time>
      </trkpt>
      <trkpt lat="45.30434" lon="1.42741">
        <ele>336.6</ele>
        <time>2017-05-08T09:26:36Z</time>
      </trkpt>
      <trkpt lat="45.30431" lon="1.42752">
        <ele>335.64</ele>
        <time>2017-05-08T09:26:38Z</time>
      </trkpt>
      <trkpt lat="45.30425" lon="1.42779">
        <ele>333.23</ele>
        <time>2017-05-08T09:26:42Z</time>
      </trkpt>
      <trkpt lat="45.30413" lon="1.42803">
        <ele>331.79</ele>
        <time>2017-05-08T09:26:46Z</time>
      </trkpt>
      <trkpt lat="45.30361" lon="1.42833">
        <ele>326.99</ele>
        <time>2017-05-08T09:26:54Z</time>
      </trkpt>
      <trkpt lat="45.30278" lon="1.42857">
        <ele>321.22</ele>
        <time>2017-05-08T09:27:03Z</time>
      </trkpt>
      <trkpt lat="45.30264" lon="1.42859">
        <ele>320.74</ele>
        <time>2017-05-08T09:27:05Z</time>
      </trkpt>
      <trkpt lat="45.30176" lon="1.42844">
        <ele>316.41</ele>
        <time>2017-05-08T09:27:17Z</time>
      </trkpt>
      <trkpt lat="45.30151" lon="1.42859">
        <ele>316.41</ele>
        <time>2017-05-08T09:27:21Z</time>
      </trkpt>
      <trkpt lat="45.30122" lon="1.42913">
        <ele>316.89</ele>
        <time>2017-05-08T09:27:35Z</time>
      </trkpt>
      <trkpt lat="45.3012" lon="1.42915">
        <ele>316.89</ele>
        <time>2017-05-08T09:27:36Z</time>
      </trkpt>
      <trkpt lat="45.30117" lon="1.42917">
        <ele>316.41</ele>
        <time>2017-05-08T09:27:37Z</time>
      </trkpt>
      <trkpt lat="45.30114" lon="1.42919">
        <ele>315.93</ele>
        <time>2017-05-08T09:27:38Z</time>
      </trkpt>
      <trkpt lat="45.30109" lon="1.42918">
        <ele>315.45</ele>
        <time>2017-05-08T09:27:39Z</time>
      </trkpt>
      <trkpt lat="45.30104" lon="1.42918">
        <ele>314.49</ele>
        <time>2017-05-08T09:27:40Z</time>
      </trkpt>
      <trkpt lat="45.30038" lon="1.42902">
        <ele>305.84</ele>
        <time>2017-05-08T09:27:50Z</time>
      </trkpt>
      <trkpt lat="45.30032" lon="1.42901">
        <ele>304.39</ele>
        <time>2017-05-08T09:27:51Z</time>
      </trkpt>
      <trkpt lat="45.30026" lon="1.42902">
        <ele>302.95</ele>
        <time>2017-05-08T09:27:52Z</time>
      </trkpt>
      <trkpt lat="45.3001" lon="1.42907">
        <ele>299.59</ele>
        <time>2017-05-08T09:27:55Z</time>
      </trkpt>
      <trkpt lat="45.29999" lon="1.42912">
        <ele>297.18</ele>
        <time>2017-05-08T09:27:57Z</time>
      </trkpt>
      <trkpt lat="45.29991" lon="1.42919">
        <ele>294.78</ele>
        <time>2017-05-08T09:27:59Z</time>
      </trkpt>
      <trkpt lat="45.29973" lon="1.42943">
        <ele>287.09</ele>
        <time>2017-05-08T09:28:07Z</time>
      </trkpt>
      <trkpt lat="45.29973" lon="1.4295">
        <ele>286.61</ele>
        <time>2017-05-08T09:28:08Z</time>
      </trkpt>
      <trkpt lat="45.29974" lon="1.42956">
        <ele>286.13</ele>
        <time>2017-05-08T09:28:09Z</time>
      </trkpt>
      <trkpt lat="45.29975" lon="1.42964">
        <ele>285.17</ele>
        <time>2017-05-08T09:28:10Z</time>
      </trkpt>
      <trkpt lat="45.29976" lon="1.42971">
        <ele>284.69</ele>
        <time>2017-05-08T09:28:11Z</time>
      </trkpt>
      <trkpt lat="45.29976" lon="1.42983">
        <ele>282.77</ele>
        <time>2017-05-08T09:28:13Z</time>
      </trkpt>
      <trkpt lat="45.29974" lon="1.42987">
        <ele>282.28</ele>
        <time>2017-05-08T09:28:14Z</time>
      </trkpt>
      <trkpt lat="45.29971" lon="1.42989">
        <ele>281.32</ele>
        <time>2017-05-08T09:28:15Z</time>
      </trkpt>
      <trkpt lat="45.29968" lon="1.42989">
        <ele>280.84</ele>
        <time>2017-05-08T09:28:16Z</time>
      </trkpt>
      <trkpt lat="45.29966" lon="1.42988">
        <ele>280.36</ele>
        <time>2017-05-08T09:28:17Z</time>
      </trkpt>
      <trkpt lat="45.29963" lon="1.42986">
        <ele>279.88</ele>
        <time>2017-05-08T09:28:18Z</time>
      </trkpt>
      <trkpt lat="45.29961" lon="1.42984">
        <ele>279.4</ele>
        <time>2017-05-08T09:28:19Z</time>
      </trkpt>
      <trkpt lat="45.29959" lon="1.42982">
        <ele>278.92</ele>
        <time>2017-05-08T09:28:20Z</time>
      </trkpt>
      <trkpt lat="45.29956" lon="1.42981">
        <ele>278.44</ele>
        <time>2017-05-08T09:28:21Z</time>
      </trkpt>
      <trkpt lat="45.29953" lon="1.42982">
        <ele>277.96</ele>
        <time>2017-05-08T09:28:22Z</time>
      </trkpt>
      <trkpt lat="45.2995" lon="1.42982">
        <ele>276.04</ele>
        <time>2017-05-08T09:28:33Z</time>
      </trkpt>
      <trkpt lat="45.29947" lon="1.42986">
        <ele>275.56</ele>
        <time>2017-05-08T09:28:47Z</time>
      </trkpt>
      <trkpt lat="45.29945" lon="1.42989">
        <ele>275.07</ele>
        <time>2017-05-08T09:28:48Z</time>
      </trkpt>
      <trkpt lat="45.29945" lon="1.42993">
        <ele>274.11</ele>
        <time>2017-05-08T09:28:49Z</time>
      </trkpt>
      <trkpt lat="45.29945" lon="1.42998">
        <ele>273.15</ele>
        <time>2017-05-08T09:28:50Z</time>
      </trkpt>
      <trkpt lat="45.29947" lon="1.43004">
        <ele>272.67</ele>
        <time>2017-05-08T09:28:51Z</time>
      </trkpt>
      <trkpt lat="45.2995" lon="1.43008">
        <ele>271.71</ele>
        <time>2017-05-08T09:28:52Z</time>
      </trkpt>
      <trkpt lat="45.29954" lon="1.43012">
        <ele>271.23</ele>
        <time>2017-05-08T09:28:53Z</time>
      </trkpt>
      <trkpt lat="45.29977" lon="1.43022">
        <ele>266.9</ele>
        <time>2017-05-08T09:28:58Z</time>
      </trkpt>
      <trkpt lat="45.30016" lon="1.43034">
        <ele>262.1</ele>
        <time>2017-05-08T09:29:04Z</time>
      </trkpt>
      <trkpt lat="45.30058" lon="1.43044">
        <ele>257.29</ele>
        <time>2017-05-08T09:29:11Z</time>
      </trkpt>
      <trkpt lat="45.30112" lon="1.43068">
        <ele>255.37</ele>
        <time>2017-05-08T09:29:21Z</time>
      </trkpt>
      <trkpt lat="45.30143" lon="1.43084">
        <ele>259.69</ele>
        <time>2017-05-08T09:29:32Z</time>
      </trkpt>
      <trkpt lat="45.30161" lon="1.43097">
        <ele>265.94</ele>
        <time>2017-05-08T09:29:44Z</time>
      </trkpt>
      <trkpt lat="45.30165" lon="1.431">
        <ele>267.38</ele>
        <time>2017-05-08T09:29:46Z</time>
      </trkpt>
      <trkpt lat="45.30169" lon="1.43104">
        <ele>268.35</ele>
        <time>2017-05-08T09:29:49Z</time>
      </trkpt>
      <trkpt lat="45.30174" lon="1.4311">
        <ele>271.23</ele>
        <time>2017-05-08T09:29:52Z</time>
      </trkpt>
      <trkpt lat="45.30181" lon="1.43126">
        <ele>275.56</ele>
        <time>2017-05-08T09:30:01Z</time>
      </trkpt>
      <trkpt lat="45.30197" lon="1.43149">
        <ele>278.44</ele>
        <time>2017-05-08T09:30:15Z</time>
      </trkpt>
      <trkpt lat="45.30205" lon="1.43163">
        <ele>280.84</ele>
        <time>2017-05-08T09:30:25Z</time>
      </trkpt>
      <trkpt lat="45.30214" lon="1.4318">
        <ele>282.77</ele>
        <time>2017-05-08T09:30:36Z</time>
      </trkpt>
      <trkpt lat="45.30232" lon="1.43207">
        <ele>283.25</ele>
        <time>2017-05-08T09:30:45Z</time>
      </trkpt>
      <trkpt lat="45.30262" lon="1.43235">
        <ele>286.61</ele>
        <time>2017-05-08T09:30:56Z</time>
      </trkpt>
      <trkpt lat="45.30293" lon="1.4326">
        <ele>285.65</ele>
        <time>2017-05-08T09:31:07Z</time>
      </trkpt>
      <trkpt lat="45.30322" lon="1.4329">
        <ele>286.61</ele>
        <time>2017-05-08T09:31:16Z</time>
      </trkpt>
      <trkpt lat="45.30328" lon="1.43295">
        <ele>286.61</ele>
        <time>2017-05-08T09:31:19Z</time>
      </trkpt>
      <trkpt lat="45.30331" lon="1.43297">
        <ele>287.09</ele>
        <time>2017-05-08T09:31:20Z</time>
      </trkpt>
      <trkpt lat="45.30334" lon="1.43298">
        <ele>287.09</ele>
        <time>2017-05-08T09:31:21Z</time>
      </trkpt>
      <trkpt lat="45.30336" lon="1.43299">
        <ele>287.09</ele>
        <time>2017-05-08T09:31:22Z</time>
      </trkpt>
      <trkpt lat="45.30339" lon="1.43303">
        <ele>287.57</ele>
        <time>2017-05-08T09:31:23Z</time>
      </trkpt>
      <trkpt lat="45.30341" lon="1.43307">
        <ele>287.57</ele>
        <time>2017-05-08T09:31:24Z</time>
      </trkpt>
      <trkpt lat="45.30342" lon="1.43312">
        <ele>287.57</ele>
        <time>2017-05-08T09:31:25Z</time>
      </trkpt>
      <trkpt lat="45.30347" lon="1.4332">
        <ele>288.53</ele>
        <time>2017-05-08T09:31:26Z</time>
      </trkpt>
      <trkpt lat="45.30342" lon="1.43349">
        <ele>288.53</ele>
        <time>2017-05-08T09:31:31Z</time>
      </trkpt>
      <trkpt lat="45.30338" lon="1.4335">
        <ele>288.53</ele>
        <time>2017-05-08T09:31:32Z</time>
      </trkpt>
      <trkpt lat="45.30334" lon="1.43349">
        <ele>288.05</ele>
        <time>2017-05-08T09:31:33Z</time>
      </trkpt>
      <trkpt lat="45.30329" lon="1.43349">
        <ele>288.05</ele>
        <time>2017-05-08T09:31:34Z</time>
      </trkpt>
      <trkpt lat="45.30314" lon="1.43347">
        <ele>288.53</ele>
        <time>2017-05-08T09:31:38Z</time>
      </trkpt>
      <trkpt lat="45.3031" lon="1.43345">
        <ele>289.01</ele>
        <time>2017-05-08T09:31:39Z</time>
      </trkpt>
      <trkpt lat="45.30306" lon="1.43343">
        <ele>289.49</ele>
        <time>2017-05-08T09:31:40Z</time>
      </trkpt>
      <trkpt lat="45.30302" lon="1.43343">
        <ele>289.49</ele>
        <time>2017-05-08T09:31:41Z</time>
      </trkpt>
      <trkpt lat="45.30299" lon="1.43343">
        <ele>289.97</ele>
        <time>2017-05-08T09:31:42Z</time>
      </trkpt>
      <trkpt lat="45.30267" lon="1.43334">
        <ele>294.3</ele>
        <time>2017-05-08T09:31:51Z</time>
      </trkpt>
      <trkpt lat="45.30219" lon="1.43318">
        <ele>294.78</ele>
        <time>2017-05-08T09:32:01Z</time>
      </trkpt>
      <trkpt lat="45.30128" lon="1.43286">
        <ele>291.9</ele>
        <time>2017-05-08T09:32:14Z</time>
      </trkpt>
      <trkpt lat="45.3012" lon="1.43285">
        <ele>290.94</ele>
        <time>2017-05-08T09:32:15Z</time>
      </trkpt>
      <trkpt lat="45.30111" lon="1.43285">
        <ele>289.97</ele>
        <time>2017-05-08T09:32:16Z</time>
      </trkpt>
      <trkpt lat="45.30103" lon="1.43286">
        <ele>289.01</ele>
        <time>2017-05-08T09:32:17Z</time>
      </trkpt>
      <trkpt lat="45.30095" lon="1.43288">
        <ele>288.05</ele>
        <time>2017-05-08T09:32:18Z</time>
      </trkpt>
      <trkpt lat="45.30004" lon="1.43332">
        <ele>281.32</ele>
        <time>2017-05-08T09:32:30Z</time>
      </trkpt>
      <trkpt lat="45.29997" lon="1.43337">
        <ele>280.84</ele>
        <time>2017-05-08T09:32:31Z</time>
      </trkpt>
      <trkpt lat="45.29948" lon="1.43385">
        <ele>277.96</ele>
        <time>2017-05-08T09:32:39Z</time>
      </trkpt>
      <trkpt lat="45.29943" lon="1.43394">
        <ele>277.96</ele>
        <time>2017-05-08T09:32:40Z</time>
      </trkpt>
      <trkpt lat="45.29939" lon="1.43404">
        <ele>277.48</ele>
        <time>2017-05-08T09:32:41Z</time>
      </trkpt>
      <trkpt lat="45.29935" lon="1.43416">
        <ele>277</ele>
        <time>2017-05-08T09:32:42Z</time>
      </trkpt>
      <trkpt lat="45.29932" lon="1.43427">
        <ele>276.52</ele>
        <time>2017-05-08T09:32:43Z</time>
      </trkpt>
      <trkpt lat="45.29925" lon="1.4345">
        <ele>275.56</ele>
        <time>2017-05-08T09:32:45Z</time>
      </trkpt>
      <trkpt lat="45.2992" lon="1.43458">
        <ele>275.56</ele>
        <time>2017-05-08T09:32:46Z</time>
      </trkpt>
      <trkpt lat="45.29913" lon="1.43463">
        <ele>275.07</ele>
        <time>2017-05-08T09:32:47Z</time>
      </trkpt>
      <trkpt lat="45.29907" lon="1.43465">
        <ele>274.59</ele>
        <time>2017-05-08T09:32:48Z</time>
      </trkpt>
      <trkpt lat="45.29901" lon="1.43466">
        <ele>274.59</ele>
        <time>2017-05-08T09:32:49Z</time>
      </trkpt>
      <trkpt lat="45.29896" lon="1.43466">
        <ele>274.59</ele>
        <time>2017-05-08T09:32:50Z</time>
      </trkpt>
      <trkpt lat="45.29891" lon="1.43467">
        <ele>274.59</ele>
        <time>2017-05-08T09:32:51Z</time>
      </trkpt>
      <trkpt lat="45.29882" lon="1.43468">
        <ele>275.07</ele>
        <time>2017-05-08T09:32:54Z</time>
      </trkpt>
      <trkpt lat="45.29875" lon="1.43463">
        <ele>278.92</ele>
        <time>2017-05-08T09:33:07Z</time>
      </trkpt>
      <trkpt lat="45.29874" lon="1.43463">
        <ele>279.4</ele>
        <time>2017-05-08T09:33:08Z</time>
      </trkpt>
      <trkpt lat="45.29872" lon="1.43464">
        <ele>279.88</ele>
        <time>2017-05-08T09:33:09Z</time>
      </trkpt>
      <trkpt lat="45.2987" lon="1.43464">
        <ele>280.84</ele>
        <time>2017-05-08T09:33:10Z</time>
      </trkpt>
      <trkpt lat="45.29867" lon="1.43463">
        <ele>281.32</ele>
        <time>2017-05-08T09:33:11Z</time>
      </trkpt>
      <trkpt lat="45.29864" lon="1.43462">
        <ele>282.28</ele>
        <time>2017-05-08T09:33:12Z</time>
      </trkpt>
      <trkpt lat="45.29862" lon="1.43462">
        <ele>282.28</ele>
        <time>2017-05-08T09:33:13Z</time>
      </trkpt>
      <trkpt lat="45.2986" lon="1.43461">
        <ele>282.77</ele>
        <time>2017-05-08T09:33:14Z</time>
      </trkpt>
      <trkpt lat="45.29857" lon="1.43461">
        <ele>283.25</ele>
        <time>2017-05-08T09:33:15Z</time>
      </trkpt>
      <trkpt lat="45.29855" lon="1.4346">
        <ele>284.21</ele>
        <time>2017-05-08T09:33:16Z</time>
      </trkpt>
      <trkpt lat="45.29853" lon="1.4346">
        <ele>285.17</ele>
        <time>2017-05-08T09:33:17Z</time>
      </trkpt>
      <trkpt lat="45.29851" lon="1.4346">
        <ele>286.13</ele>
        <time>2017-05-08T09:33:18Z</time>
      </trkpt>
      <trkpt lat="45.29831" lon="1.43455">
        <ele>288.53</ele>
        <time>2017-05-08T09:33:27Z</time>
      </trkpt>
      <trkpt lat="45.29829" lon="1.43456">
        <ele>289.01</ele>
        <time>2017-05-08T09:33:28Z</time>
      </trkpt>
      <trkpt lat="45.29802" lon="1.43442">
        <ele>292.38</ele>
        <time>2017-05-08T09:33:41Z</time>
      </trkpt>
      <trkpt lat="45.29796" lon="1.43438">
        <ele>293.82</ele>
        <time>2017-05-08T09:33:45Z</time>
      </trkpt>
      <trkpt lat="45.29794" lon="1.43439">
        <ele>294.78</ele>
        <time>2017-05-08T09:33:46Z</time>
      </trkpt>
      <trkpt lat="45.29793" lon="1.4344">
        <ele>295.26</ele>
        <time>2017-05-08T09:33:47Z</time>
      </trkpt>
      <trkpt lat="45.29792" lon="1.43441">
        <ele>295.74</ele>
        <time>2017-05-08T09:33:48Z</time>
      </trkpt>
      <trkpt lat="45.29802" lon="1.43458">
        <ele>297.67</ele>
        <time>2017-05-08T09:34:00Z</time>
      </trkpt>
      <trkpt lat="45.29811" lon="1.43473">
        <ele>301.03</ele>
        <time>2017-05-08T09:34:11Z</time>
      </trkpt>
      <trkpt lat="45.29824" lon="1.43484">
        <ele>303.43</ele>
        <time>2017-05-08T09:34:20Z</time>
      </trkpt>
      <trkpt lat="45.29828" lon="1.43489">
        <ele>304.39</ele>
        <time>2017-05-08T09:34:23Z</time>
      </trkpt>
      <trkpt lat="45.2984" lon="1.43505">
        <ele>305.36</ele>
        <time>2017-05-08T09:34:31Z</time>
      </trkpt>
      <trkpt lat="45.29853" lon="1.4352">
        <ele>306.32</ele>
        <time>2017-05-08T09:34:39Z</time>
      </trkpt>
      <trkpt lat="45.29874" lon="1.43536">
        <ele>308.24</ele>
        <time>2017-05-08T09:34:50Z</time>
      </trkpt>
      <trkpt lat="45.29899" lon="1.43554">
        <ele>311.6</ele>
        <time>2017-05-08T09:35:02Z</time>
      </trkpt>
      <trkpt lat="45.29917" lon="1.43577">
        <ele>314.01</ele>
        <time>2017-05-08T09:35:13Z</time>
      </trkpt>
      <trkpt lat="45.29931" lon="1.4359">
        <ele>315.93</ele>
        <time>2017-05-08T09:35:22Z</time>
      </trkpt>
      <trkpt lat="45.29949" lon="1.43601">
        <ele>318.81</ele>
        <time>2017-05-08T09:35:33Z</time>
      </trkpt>
      <trkpt lat="45.29962" lon="1.4361">
        <ele>319.3</ele>
        <time>2017-05-08T09:35:41Z</time>
      </trkpt>
      <trkpt lat="45.29986" lon="1.43632">
        <ele>324.1</ele>
        <time>2017-05-08T09:35:53Z</time>
      </trkpt>
      <trkpt lat="45.29992" lon="1.43642">
        <ele>326.5</ele>
        <time>2017-05-08T09:35:58Z</time>
      </trkpt>
      <trkpt lat="45.29997" lon="1.43644">
        <ele>327.47</ele>
        <time>2017-05-08T09:36:01Z</time>
      </trkpt>
      <trkpt lat="45.30001" lon="1.4364">
        <ele>327.95</ele>
        <time>2017-05-08T09:36:05Z</time>
      </trkpt>
      <trkpt lat="45.3001" lon="1.43608">
        <ele>326.99</ele>
        <time>2017-05-08T09:36:16Z</time>
      </trkpt>
      <trkpt lat="45.30017" lon="1.43576">
        <ele>329.39</ele>
        <time>2017-05-08T09:36:26Z</time>
      </trkpt>
      <trkpt lat="45.30022" lon="1.43547">
        <ele>335.64</ele>
        <time>2017-05-08T09:36:35Z</time>
      </trkpt>
      <trkpt lat="45.30027" lon="1.43532">
        <ele>338.52</ele>
        <time>2017-05-08T09:36:42Z</time>
      </trkpt>
      <trkpt lat="45.30036" lon="1.4352">
        <ele>340.44</ele>
        <time>2017-05-08T09:36:49Z</time>
      </trkpt>
      <trkpt lat="45.30052" lon="1.43504">
        <ele>343.33</ele>
        <time>2017-05-08T09:36:59Z</time>
      </trkpt>
      <trkpt lat="45.3008" lon="1.4348">
        <ele>340.92</ele>
        <time>2017-05-08T09:37:12Z</time>
      </trkpt>
      <trkpt lat="45.30108" lon="1.43471">
        <ele>338.04</ele>
        <time>2017-05-08T09:37:24Z</time>
      </trkpt>
      <trkpt lat="45.30136" lon="1.43466">
        <ele>337.08</ele>
        <time>2017-05-08T09:37:36Z</time>
      </trkpt>
      <trkpt lat="45.30142" lon="1.43473">
        <ele>338.04</ele>
        <time>2017-05-08T09:37:40Z</time>
      </trkpt>
      <trkpt lat="45.3014" lon="1.43512">
        <ele>345.25</ele>
        <time>2017-05-08T09:37:55Z</time>
      </trkpt>
      <trkpt lat="45.30139" lon="1.43548">
        <ele>349.1</ele>
        <time>2017-05-08T09:38:10Z</time>
      </trkpt>
      <trkpt lat="45.30137" lon="1.43582">
        <ele>351.5</ele>
        <time>2017-05-08T09:38:25Z</time>
      </trkpt>
      <trkpt lat="45.30134" lon="1.43613">
        <ele>353.9</ele>
        <time>2017-05-08T09:38:39Z</time>
      </trkpt>
      <trkpt lat="45.30132" lon="1.43653">
        <ele>357.75</ele>
        <time>2017-05-08T09:38:56Z</time>
      </trkpt>
      <trkpt lat="45.30128" lon="1.43695">
        <ele>360.63</ele>
        <time>2017-05-08T09:39:14Z</time>
      </trkpt>
      <trkpt lat="45.30131" lon="1.43723">
        <ele>363.04</ele>
        <time>2017-05-08T09:39:27Z</time>
      </trkpt>
      <trkpt lat="45.30137" lon="1.43724">
        <ele>363.52</ele>
        <time>2017-05-08T09:39:31Z</time>
      </trkpt>
      <trkpt lat="45.30167" lon="1.43719">
        <ele>365.44</ele>
        <time>2017-05-08T09:39:46Z</time>
      </trkpt>
      <trkpt lat="45.30201" lon="1.43727">
        <ele>366.4</ele>
        <time>2017-05-08T09:39:59Z</time>
      </trkpt>
      <trkpt lat="45.30228" lon="1.43745">
        <ele>364</ele>
        <time>2017-05-08T09:40:07Z</time>
      </trkpt>
      <trkpt lat="45.30232" lon="1.43749">
        <ele>363.52</ele>
        <time>2017-05-08T09:40:08Z</time>
      </trkpt>
      <trkpt lat="45.3024" lon="1.43759">
        <ele>362.55</ele>
        <time>2017-05-08T09:40:10Z</time>
      </trkpt>
      <trkpt lat="45.30244" lon="1.43765">
        <ele>362.07</ele>
        <time>2017-05-08T09:40:11Z</time>
      </trkpt>
      <trkpt lat="45.30262" lon="1.43788">
        <ele>360.63</ele>
        <time>2017-05-08T09:40:15Z</time>
      </trkpt>
      <trkpt lat="45.30268" lon="1.43791">
        <ele>360.15</ele>
        <time>2017-05-08T09:40:16Z</time>
      </trkpt>
      <trkpt lat="45.30273" lon="1.43793">
        <ele>359.67</ele>
        <time>2017-05-08T09:40:17Z</time>
      </trkpt>
      <trkpt lat="45.30279" lon="1.43794">
        <ele>359.19</ele>
        <time>2017-05-08T09:40:18Z</time>
      </trkpt>
      <trkpt lat="45.30285" lon="1.43794">
        <ele>358.71</ele>
        <time>2017-05-08T09:40:19Z</time>
      </trkpt>
      <trkpt lat="45.30302" lon="1.43792">
        <ele>358.23</ele>
        <time>2017-05-08T09:40:22Z</time>
      </trkpt>
      <trkpt lat="45.30312" lon="1.43789">
        <ele>358.23</ele>
        <time>2017-05-08T09:40:24Z</time>
      </trkpt>
      <trkpt lat="45.30316" lon="1.43787">
        <ele>358.23</ele>
        <time>2017-05-08T09:40:25Z</time>
      </trkpt>
      <trkpt lat="45.30329" lon="1.43783">
        <ele>358.71</ele>
        <time>2017-05-08T09:40:28Z</time>
      </trkpt>
      <trkpt lat="45.30362" lon="1.43764">
        <ele>357.75</ele>
        <time>2017-05-08T09:40:36Z</time>
      </trkpt>
      <trkpt lat="45.30367" lon="1.43761">
        <ele>357.75</ele>
        <time>2017-05-08T09:40:37Z</time>
      </trkpt>
      <trkpt lat="45.30372" lon="1.43758">
        <ele>357.27</ele>
        <time>2017-05-08T09:40:38Z</time>
      </trkpt>
      <trkpt lat="45.30377" lon="1.43754">
        <ele>356.31</ele>
        <time>2017-05-08T09:40:39Z</time>
      </trkpt>
      <trkpt lat="45.30383" lon="1.4375">
        <ele>355.83</ele>
        <time>2017-05-08T09:40:40Z</time>
      </trkpt>
      <trkpt lat="45.30389" lon="1.43746">
        <ele>355.34</ele>
        <time>2017-05-08T09:40:41Z</time>
      </trkpt>
      <trkpt lat="45.30401" lon="1.43742">
        <ele>354.86</ele>
        <time>2017-05-08T09:40:43Z</time>
      </trkpt>
      <trkpt lat="45.30419" lon="1.43737">
        <ele>353.42</ele>
        <time>2017-05-08T09:40:46Z</time>
      </trkpt>
      <trkpt lat="45.30437" lon="1.43736">
        <ele>351.98</ele>
        <time>2017-05-08T09:40:49Z</time>
      </trkpt>
      <trkpt lat="45.30443" lon="1.43738">
        <ele>351.5</ele>
        <time>2017-05-08T09:40:50Z</time>
      </trkpt>
      <trkpt lat="45.30448" lon="1.43741">
        <ele>351.02</ele>
        <time>2017-05-08T09:40:51Z</time>
      </trkpt>
      <trkpt lat="45.30453" lon="1.43745">
        <ele>350.06</ele>
        <time>2017-05-08T09:40:52Z</time>
      </trkpt>
      <trkpt lat="45.30458" lon="1.43749">
        <ele>349.58</ele>
        <time>2017-05-08T09:40:53Z</time>
      </trkpt>
      <trkpt lat="45.30467" lon="1.43757">
        <ele>349.58</ele>
        <time>2017-05-08T09:40:55Z</time>
      </trkpt>
      <trkpt lat="45.30472" lon="1.43761">
        <ele>350.06</ele>
        <time>2017-05-08T09:40:56Z</time>
      </trkpt>
      <trkpt lat="45.30478" lon="1.43763">
        <ele>350.54</ele>
        <time>2017-05-08T09:40:57Z</time>
      </trkpt>
      <trkpt lat="45.30484" lon="1.43764">
        <ele>351.02</ele>
        <time>2017-05-08T09:40:58Z</time>
      </trkpt>
      <trkpt lat="45.30489" lon="1.43763">
        <ele>351.5</ele>
        <time>2017-05-08T09:40:59Z</time>
      </trkpt>
      <trkpt lat="45.30494" lon="1.43762">
        <ele>351.98</ele>
        <time>2017-05-08T09:41:00Z</time>
      </trkpt>
      <trkpt lat="45.30498" lon="1.4376">
        <ele>352.46</ele>
        <time>2017-05-08T09:41:01Z</time>
      </trkpt>
      <trkpt lat="45.30518" lon="1.43754">
        <ele>356.31</ele>
        <time>2017-05-08T09:41:06Z</time>
      </trkpt>
      <trkpt lat="45.30534" lon="1.43763">
        <ele>359.19</ele>
        <time>2017-05-08T09:41:12Z</time>
      </trkpt>
      <trkpt lat="45.30559" lon="1.43774">
        <ele>362.55</ele>
        <time>2017-05-08T09:41:23Z</time>
      </trkpt>
      <trkpt lat="45.30588" lon="1.43797">
        <ele>364.48</ele>
        <time>2017-05-08T09:41:34Z</time>
      </trkpt>
      <trkpt lat="45.30595" lon="1.43804">
        <ele>364.48</ele>
        <time>2017-05-08T09:41:36Z</time>
      </trkpt>
      <trkpt lat="45.30598" lon="1.43809">
        <ele>364</ele>
        <time>2017-05-08T09:41:37Z</time>
      </trkpt>
      <trkpt lat="45.30601" lon="1.43815">
        <ele>363.52</ele>
        <time>2017-05-08T09:41:38Z</time>
      </trkpt>
      <trkpt lat="45.30605" lon="1.4382">
        <ele>363.52</ele>
        <time>2017-05-08T09:41:39Z</time>
      </trkpt>
      <trkpt lat="45.30609" lon="1.43825">
        <ele>363.52</ele>
        <time>2017-05-08T09:41:40Z</time>
      </trkpt>
      <trkpt lat="45.30614" lon="1.43829">
        <ele>363.52</ele>
        <time>2017-05-08T09:41:41Z</time>
      </trkpt>
      <trkpt lat="45.30619" lon="1.43831">
        <ele>363.52</ele>
        <time>2017-05-08T09:41:42Z</time>
      </trkpt>
      <trkpt lat="45.30624" lon="1.43831">
        <ele>363.52</ele>
        <time>2017-05-08T09:41:43Z</time>
      </trkpt>
      <trkpt lat="45.30629" lon="1.43832">
        <ele>363.52</ele>
        <time>2017-05-08T09:41:44Z</time>
      </trkpt>
      <trkpt lat="45.30634" lon="1.43833">
        <ele>363.52</ele>
        <time>2017-05-08T09:41:45Z</time>
      </trkpt>
      <trkpt lat="45.30639" lon="1.43833">
        <ele>364</ele>
        <time>2017-05-08T09:41:46Z</time>
      </trkpt>
      <trkpt lat="45.30669" lon="1.43846">
        <ele>365.44</ele>
        <time>2017-05-08T09:41:55Z</time>
      </trkpt>
      <trkpt lat="45.30674" lon="1.4385">
        <ele>365.44</ele>
        <time>2017-05-08T09:41:57Z</time>
      </trkpt>
      <trkpt lat="45.30677" lon="1.43852">
        <ele>364.96</ele>
        <time>2017-05-08T09:41:58Z</time>
      </trkpt>
      <trkpt lat="45.30682" lon="1.43854">
        <ele>364.96</ele>
        <time>2017-05-08T09:42:00Z</time>
      </trkpt>
      <trkpt lat="45.30684" lon="1.43855">
        <ele>364.48</ele>
        <time>2017-05-08T09:42:01Z</time>
      </trkpt>
      <trkpt lat="45.30686" lon="1.43858">
        <ele>364.48</ele>
        <time>2017-05-08T09:42:02Z</time>
      </trkpt>
      <trkpt lat="45.30687" lon="1.43863">
        <ele>363.52</ele>
        <time>2017-05-08T09:42:03Z</time>
      </trkpt>
      <trkpt lat="45.30687" lon="1.43866">
        <ele>363.52</ele>
        <time>2017-05-08T09:42:04Z</time>
      </trkpt>
      <trkpt lat="45.30686" lon="1.4387">
        <ele>362.55</ele>
        <time>2017-05-08T09:42:05Z</time>
      </trkpt>
      <trkpt lat="45.30687" lon="1.43874">
        <ele>362.55</ele>
        <time>2017-05-08T09:42:06Z</time>
      </trkpt>
      <trkpt lat="45.30688" lon="1.43877">
        <ele>363.04</ele>
        <time>2017-05-08T09:42:07Z</time>
      </trkpt>
      <trkpt lat="45.30689" lon="1.4388">
        <ele>363.52</ele>
        <time>2017-05-08T09:42:08Z</time>
      </trkpt>
      <trkpt lat="45.30689" lon="1.43883">
        <ele>363.52</ele>
        <time>2017-05-08T09:42:09Z</time>
      </trkpt>
      <trkpt lat="45.30682" lon="1.43917">
        <ele>370.24</ele>
        <time>2017-05-08T09:42:22Z</time>
      </trkpt>
      <trkpt lat="45.30674" lon="1.43937">
        <ele>374.57</ele>
        <time>2017-05-08T09:42:31Z</time>
      </trkpt>
      <trkpt lat="45.30673" lon="1.43939">
        <ele>375.05</ele>
        <time>2017-05-08T09:42:32Z</time>
      </trkpt>
      <trkpt lat="45.30672" lon="1.43941">
        <ele>375.53</ele>
        <time>2017-05-08T09:42:33Z</time>
      </trkpt>
      <trkpt lat="45.30671" lon="1.43943">
        <ele>375.53</ele>
        <time>2017-05-08T09:42:34Z</time>
      </trkpt>
      <trkpt lat="45.30662" lon="1.43967">
        <ele>379.38</ele>
        <time>2017-05-08T09:42:46Z</time>
      </trkpt>
      <trkpt lat="45.30661" lon="1.44007">
        <ele>379.86</ele>
        <time>2017-05-08T09:42:59Z</time>
      </trkpt>
      <trkpt lat="45.30646" lon="1.44047">
        <ele>380.82</ele>
        <time>2017-05-08T09:43:10Z</time>
      </trkpt>
      <trkpt lat="45.30619" lon="1.44103">
        <ele>380.34</ele>
        <time>2017-05-08T09:43:25Z</time>
      </trkpt>
      <trkpt lat="45.30586" lon="1.4417">
        <ele>380.34</ele>
        <time>2017-05-08T09:43:43Z</time>
      </trkpt>
      <trkpt lat="45.30576" lon="1.44201">
        <ele>382.74</ele>
        <time>2017-05-08T09:43:51Z</time>
      </trkpt>
      <trkpt lat="45.30574" lon="1.44202">
        <ele>382.74</ele>
        <time>2017-05-08T09:43:52Z</time>
      </trkpt>
      <trkpt lat="45.30572" lon="1.44203">
        <ele>382.74</ele>
        <time>2017-05-08T09:43:53Z</time>
      </trkpt>
      <trkpt lat="45.30569" lon="1.44202">
        <ele>383.22</ele>
        <time>2017-05-08T09:43:54Z</time>
      </trkpt>
      <trkpt lat="45.30567" lon="1.442">
        <ele>383.22</ele>
        <time>2017-05-08T09:43:55Z</time>
      </trkpt>
      <trkpt lat="45.30564" lon="1.44198">
        <ele>383.22</ele>
        <time>2017-05-08T09:43:56Z</time>
      </trkpt>
      <trkpt lat="45.30562" lon="1.44196">
        <ele>383.7</ele>
        <time>2017-05-08T09:43:57Z</time>
      </trkpt>
      <trkpt lat="45.30524" lon="1.44169">
        <ele>385.15</ele>
        <time>2017-05-08T09:44:12Z</time>
      </trkpt>
      <trkpt lat="45.30505" lon="1.44152">
        <ele>383.7</ele>
        <time>2017-05-08T09:44:18Z</time>
      </trkpt>
      <trkpt lat="45.30491" lon="1.44139">
        <ele>383.22</ele>
        <time>2017-05-08T09:44:21Z</time>
      </trkpt>
      <trkpt lat="45.30485" lon="1.44137">
        <ele>383.22</ele>
        <time>2017-05-08T09:44:22Z</time>
      </trkpt>
      <trkpt lat="45.30479" lon="1.44137">
        <ele>383.22</ele>
        <time>2017-05-08T09:44:23Z</time>
      </trkpt>
      <trkpt lat="45.30474" lon="1.44141">
        <ele>383.7</ele>
        <time>2017-05-08T09:44:24Z</time>
      </trkpt>
      <trkpt lat="45.30469" lon="1.44145">
        <ele>384.18</ele>
        <time>2017-05-08T09:44:25Z</time>
      </trkpt>
      <trkpt lat="45.30453" lon="1.44162">
        <ele>385.63</ele>
        <time>2017-05-08T09:44:29Z</time>
      </trkpt>
      <trkpt lat="45.30413" lon="1.44203">
        <ele>388.03</ele>
        <time>2017-05-08T09:44:42Z</time>
      </trkpt>
      <trkpt lat="45.30392" lon="1.44234">
        <ele>390.43</ele>
        <time>2017-05-08T09:44:52Z</time>
      </trkpt>
      <trkpt lat="45.30393" lon="1.44239">
        <ele>390.91</ele>
        <time>2017-05-08T09:44:53Z</time>
      </trkpt>
      <trkpt lat="45.30395" lon="1.44242">
        <ele>390.91</ele>
        <time>2017-05-08T09:44:54Z</time>
      </trkpt>
      <trkpt lat="45.30397" lon="1.44245">
        <ele>390.91</ele>
        <time>2017-05-08T09:44:55Z</time>
      </trkpt>
      <trkpt lat="45.304" lon="1.44248">
        <ele>390.91</ele>
        <time>2017-05-08T09:44:56Z</time>
      </trkpt>
      <trkpt lat="45.30401" lon="1.44252">
        <ele>390.91</ele>
        <time>2017-05-08T09:44:57Z</time>
      </trkpt>
      <trkpt lat="45.30435" lon="1.44322">
        <ele>390.91</ele>
        <time>2017-05-08T09:45:13Z</time>
      </trkpt>
      <trkpt lat="45.30476" lon="1.44394">
        <ele>391.87</ele>
        <time>2017-05-08T09:45:30Z</time>
      </trkpt>
      <trkpt lat="45.30524" lon="1.44453">
        <ele>389.95</ele>
        <time>2017-05-08T09:45:45Z</time>
      </trkpt>
      <trkpt lat="45.30527" lon="1.44459">
        <ele>389.47</ele>
        <time>2017-05-08T09:45:46Z</time>
      </trkpt>
      <trkpt lat="45.30528" lon="1.44466">
        <ele>389.47</ele>
        <time>2017-05-08T09:45:47Z</time>
      </trkpt>
      <trkpt lat="45.30527" lon="1.44473">
        <ele>388.99</ele>
        <time>2017-05-08T09:45:48Z</time>
      </trkpt>
      <trkpt lat="45.30526" lon="1.4448">
        <ele>389.47</ele>
        <time>2017-05-08T09:45:49Z</time>
      </trkpt>
      <trkpt lat="45.30524" lon="1.44486">
        <ele>389.47</ele>
        <time>2017-05-08T09:45:50Z</time>
      </trkpt>
      <trkpt lat="45.30522" lon="1.44493">
        <ele>389.47</ele>
        <time>2017-05-08T09:45:51Z</time>
      </trkpt>
      <trkpt lat="45.3052" lon="1.445">
        <ele>389.47</ele>
        <time>2017-05-08T09:45:52Z</time>
      </trkpt>
      <trkpt lat="45.30491" lon="1.4461">
        <ele>389.95</ele>
        <time>2017-05-08T09:46:09Z</time>
      </trkpt>
      <trkpt lat="45.30462" lon="1.4472">
        <ele>387.55</ele>
        <time>2017-05-08T09:46:21Z</time>
      </trkpt>
      <trkpt lat="45.30427" lon="1.44856">
        <ele>385.63</ele>
        <time>2017-05-08T09:46:36Z</time>
      </trkpt>
      <trkpt lat="45.30425" lon="1.44868">
        <ele>385.63</ele>
        <time>2017-05-08T09:46:38Z</time>
      </trkpt>
      <trkpt lat="45.30425" lon="1.44874">
        <ele>386.11</ele>
        <time>2017-05-08T09:46:39Z</time>
      </trkpt>
      <trkpt lat="45.30428" lon="1.44878">
        <ele>385.63</ele>
        <time>2017-05-08T09:46:40Z</time>
      </trkpt>
      <trkpt lat="45.30431" lon="1.44879">
        <ele>385.63</ele>
        <time>2017-05-08T09:46:41Z</time>
      </trkpt>
      <trkpt lat="45.30433" lon="1.44878">
        <ele>385.63</ele>
        <time>2017-05-08T09:46:42Z</time>
      </trkpt>
      <trkpt lat="45.30435" lon="1.44876">
        <ele>385.63</ele>
        <time>2017-05-08T09:46:43Z</time>
      </trkpt>
      <trkpt lat="45.30435" lon="1.44875">
        <ele>386.59</ele>
        <time>2017-05-08T09:46:57Z</time>
      </trkpt>
    </trkseg>
  </trk>
</gpx>